<?xml version="1.0" encoding="UTF-8" standalone="no" ?>
<gpx xmlns="http://www.topografix.com/GPX/1/1" xmlns:xsi="http://www.w3.org/2001/XMLSchema-instance" xsi:schemaLocation="http://www.topografix.com/GPX/1/1 http://www.topografix.com/GPX/1/1/gpx.xsd" version="1.1" creator="VisuGPX - https://www.visugpx.com">
  <metadata>
    <name>Refuge du Merlet - Berlanche,Merlet,Passoire</name>
    <desc><![CDATA[Rando en 3j. avec 2 nuits au Refuge du Merlet.
J2 en aval dans l'optique de ramener du bois.
Orientations Est et Nord pour profiter des meilleures conditions de neige.
]]></desc>
  </metadata>
  <trk>
    <name><![CDATA[J2 - Pic N. de Berlanche - Pic S. du Merlet]]></name>
    <trkseg>
      <trkpt lat="45.33454" lon="6.17019">
        <ele>1926</ele>
        <time>2020-02-08T08:37:41.038Z</time>
      </trkpt>
      <trkpt lat="45.33446" lon="6.17013">
        <ele>1926</ele>
        <time>2020-02-08T08:38:51.038Z</time>
      </trkpt>
      <trkpt lat="45.3345" lon="6.17014">
        <ele>1924.9689984</ele>
        <time>2020-02-08T08:39:53.631Z</time>
      </trkpt>
      <trkpt lat="45.33452" lon="6.17012">
        <ele>1924</ele>
        <time>2020-02-08T08:40:03.631Z</time>
      </trkpt>
      <trkpt lat="45.33455" lon="6.17011">
        <ele>1924</ele>
        <time>2020-02-08T08:40:05.631Z</time>
      </trkpt>
      <trkpt lat="45.33456" lon="6.1701">
        <ele>1924</ele>
        <time>2020-02-08T08:40:07.631Z</time>
      </trkpt>
      <trkpt lat="45.33458" lon="6.17007">
        <ele>1924</ele>
        <time>2020-02-08T08:40:10.631Z</time>
      </trkpt>
      <trkpt lat="45.3346" lon="6.17004">
        <ele>1924</ele>
        <time>2020-02-08T08:40:13.631Z</time>
      </trkpt>
      <trkpt lat="45.33461" lon="6.17001">
        <ele>1924</ele>
        <time>2020-02-08T08:40:16.631Z</time>
      </trkpt>
      <trkpt lat="45.33462" lon="6.16998">
        <ele>1924.976152498</ele>
        <time>2020-02-08T08:40:19.631Z</time>
      </trkpt>
      <trkpt lat="45.33463" lon="6.16995">
        <ele>1924</ele>
        <time>2020-02-08T08:40:24.631Z</time>
      </trkpt>
      <trkpt lat="45.33464" lon="6.16993">
        <ele>1925</ele>
        <time>2020-02-08T08:40:27.631Z</time>
      </trkpt>
      <trkpt lat="45.33465" lon="6.1699">
        <ele>1925</ele>
        <time>2020-02-08T08:40:29.631Z</time>
      </trkpt>
      <trkpt lat="45.33466" lon="6.16988">
        <ele>1925</ele>
        <time>2020-02-08T08:40:31.631Z</time>
      </trkpt>
      <trkpt lat="45.33468" lon="6.16984">
        <ele>1925</ele>
        <time>2020-02-08T08:40:33.631Z</time>
      </trkpt>
      <trkpt lat="45.33467" lon="6.16981">
        <ele>1925.0310016</ele>
        <time>2020-02-08T08:40:36.631Z</time>
      </trkpt>
      <trkpt lat="45.33466" lon="6.16978">
        <ele>1926</ele>
        <time>2020-02-08T08:40:39.631Z</time>
      </trkpt>
      <trkpt lat="45.33466" lon="6.16975">
        <ele>1926</ele>
        <time>2020-02-08T08:40:42.631Z</time>
      </trkpt>
      <trkpt lat="45.33465" lon="6.16963">
        <ele>1926</ele>
        <time>2020-02-08T08:40:55.631Z</time>
      </trkpt>
      <trkpt lat="45.33466" lon="6.16948">
        <ele>1922.9800064</ele>
        <time>2020-02-08T08:43:47.620Z</time>
      </trkpt>
      <trkpt lat="45.33459" lon="6.16931">
        <ele>1919.9400064</ele>
        <time>2020-02-08T08:43:50.660Z</time>
      </trkpt>
      <trkpt lat="45.33456" lon="6.16912">
        <ele>1917.9799936</ele>
        <time>2020-02-08T08:43:52.620Z</time>
      </trkpt>
      <trkpt lat="45.33455" lon="6.16893">
        <ele>1915.9848436364</ele>
        <time>2020-02-08T08:43:54.620Z</time>
      </trkpt>
      <trkpt lat="45.33453" lon="6.16874">
        <ele>1914.9500032</ele>
        <time>2020-02-08T08:43:56.650Z</time>
      </trkpt>
      <trkpt lat="45.33452" lon="6.16857">
        <ele>1914</ele>
        <time>2020-02-08T08:43:58.631Z</time>
      </trkpt>
      <trkpt lat="45.33453" lon="6.16837">
        <ele>1913</ele>
        <time>2020-02-08T08:44:00.631Z</time>
      </trkpt>
      <trkpt lat="45.33457" lon="6.1682">
        <ele>1912.9765139394</ele>
        <time>2020-02-08T08:44:02.631Z</time>
      </trkpt>
      <trkpt lat="45.33463" lon="6.16805">
        <ele>1912</ele>
        <time>2020-02-08T08:44:04.631Z</time>
      </trkpt>
      <trkpt lat="45.3347" lon="6.16791">
        <ele>1911</ele>
        <time>2020-02-08T08:44:06.631Z</time>
      </trkpt>
      <trkpt lat="45.33477" lon="6.16776">
        <ele>1910.2069179417</ele>
        <time>2020-02-08T08:44:08.631Z</time>
      </trkpt>
      <trkpt lat="45.33483" lon="6.1676">
        <ele>1908</ele>
        <time>2020-02-08T08:44:10.631Z</time>
      </trkpt>
      <trkpt lat="45.33489" lon="6.16742">
        <ele>1906.9689984</ele>
        <time>2020-02-08T08:44:12.631Z</time>
      </trkpt>
      <trkpt lat="45.33494" lon="6.16724">
        <ele>1905</ele>
        <time>2020-02-08T08:44:14.631Z</time>
      </trkpt>
      <trkpt lat="45.33503" lon="6.16711">
        <ele>1903</ele>
        <time>2020-02-08T08:44:17.619Z</time>
      </trkpt>
      <trkpt lat="45.33509" lon="6.16698">
        <ele>1903</ele>
        <time>2020-02-08T08:44:20.601Z</time>
      </trkpt>
      <trkpt lat="45.33512" lon="6.16685">
        <ele>1903</ele>
        <time>2020-02-08T08:44:40.631Z</time>
      </trkpt>
      <trkpt lat="45.33516" lon="6.16668">
        <ele>1902</ele>
        <time>2020-02-08T08:44:43.631Z</time>
      </trkpt>
      <trkpt lat="45.33522" lon="6.16652">
        <ele>1901.2213710623</ele>
        <time>2020-02-08T08:44:46.620Z</time>
      </trkpt>
      <trkpt lat="45.33528" lon="6.16636">
        <ele>1899.9862620183</ele>
        <time>2020-02-08T08:44:49.618Z</time>
      </trkpt>
      <trkpt lat="45.33533" lon="6.16623">
        <ele>1899</ele>
        <time>2020-02-08T08:44:51.648Z</time>
      </trkpt>
      <trkpt lat="45.33536" lon="6.16611">
        <ele>1898.9820032</ele>
        <time>2020-02-08T08:44:53.618Z</time>
      </trkpt>
      <trkpt lat="45.33539" lon="6.16598">
        <ele>1897</ele>
        <time>2020-02-08T08:44:55.633Z</time>
      </trkpt>
      <trkpt lat="45.33542" lon="6.16584">
        <ele>1896.8669952</ele>
        <time>2020-02-08T08:44:57.733Z</time>
      </trkpt>
      <trkpt lat="45.33547" lon="6.16569">
        <ele>1895</ele>
        <time>2020-02-08T08:44:59.631Z</time>
      </trkpt>
      <trkpt lat="45.33551" lon="6.16554">
        <ele>1893.9689984</ele>
        <time>2020-02-08T08:45:01.631Z</time>
      </trkpt>
      <trkpt lat="45.33554" lon="6.1654">
        <ele>1893</ele>
        <time>2020-02-08T08:45:03.631Z</time>
      </trkpt>
      <trkpt lat="45.33557" lon="6.16528">
        <ele>1892.2069257505</ele>
        <time>2020-02-08T08:45:05.631Z</time>
      </trkpt>
      <trkpt lat="45.3356" lon="6.16511">
        <ele>1891</ele>
        <time>2020-02-08T08:45:08.631Z</time>
      </trkpt>
      <trkpt lat="45.33566" lon="6.16498">
        <ele>1891</ele>
        <time>2020-02-08T08:45:12.631Z</time>
      </trkpt>
      <trkpt lat="45.33573" lon="6.16488">
        <ele>1891</ele>
        <time>2020-02-08T08:45:18.617Z</time>
      </trkpt>
      <trkpt lat="45.3358" lon="6.16477">
        <ele>1890</ele>
        <time>2020-02-08T08:45:22.617Z</time>
      </trkpt>
      <trkpt lat="45.33587" lon="6.16468">
        <ele>1890</ele>
        <time>2020-02-08T08:45:26.590Z</time>
      </trkpt>
      <trkpt lat="45.33595" lon="6.16461">
        <ele>1889.9765139394</ele>
        <time>2020-02-08T08:45:31.631Z</time>
      </trkpt>
      <trkpt lat="45.33603" lon="6.16455">
        <ele>1889</ele>
        <time>2020-02-08T08:45:36.631Z</time>
      </trkpt>
      <trkpt lat="45.33612" lon="6.16459">
        <ele>1889</ele>
        <time>2020-02-08T08:46:22.648Z</time>
      </trkpt>
      <trkpt lat="45.33622" lon="6.16468">
        <ele>1887.9689984</ele>
        <time>2020-02-08T08:46:28.631Z</time>
      </trkpt>
      <trkpt lat="45.33632" lon="6.16477">
        <ele>1884.9379968</ele>
        <time>2020-02-08T08:46:31.631Z</time>
      </trkpt>
      <trkpt lat="45.33646" lon="6.16472">
        <ele>1878.9530278788</ele>
        <time>2020-02-08T08:46:34.631Z</time>
      </trkpt>
      <trkpt lat="45.33661" lon="6.16458">
        <ele>1874.9379968</ele>
        <time>2020-02-08T08:46:36.631Z</time>
      </trkpt>
      <trkpt lat="45.33672" lon="6.16447">
        <ele>1871.9379968</ele>
        <time>2020-02-08T08:46:38.631Z</time>
      </trkpt>
      <trkpt lat="45.33683" lon="6.16437">
        <ele>1869.3751493336</ele>
        <time>2020-02-08T08:46:40.631Z</time>
      </trkpt>
      <trkpt lat="45.33691" lon="6.16426">
        <ele>1867.9689984</ele>
        <time>2020-02-08T08:46:42.631Z</time>
      </trkpt>
      <trkpt lat="45.33698" lon="6.16417">
        <ele>1866.9379968</ele>
        <time>2020-02-08T08:46:44.631Z</time>
      </trkpt>
      <trkpt lat="45.33699" lon="6.16401">
        <ele>1864</ele>
        <time>2020-02-08T08:46:47.618Z</time>
      </trkpt>
      <trkpt lat="45.33703" lon="6.16414">
        <ele>1864</ele>
        <time>2020-02-08T08:47:10.631Z</time>
      </trkpt>
      <trkpt lat="45.33712" lon="6.16404">
        <ele>1861.9872192174</ele>
        <time>2020-02-08T08:47:24.617Z</time>
      </trkpt>
      <trkpt lat="45.33724" lon="6.16401">
        <ele>1858.9980032</ele>
        <time>2020-02-08T08:47:27.601Z</time>
      </trkpt>
      <trkpt lat="45.33731" lon="6.16392">
        <ele>1855.9689984</ele>
        <time>2020-02-08T08:47:29.631Z</time>
      </trkpt>
      <trkpt lat="45.33738" lon="6.1638">
        <ele>1852.9689984</ele>
        <time>2020-02-08T08:47:31.631Z</time>
      </trkpt>
      <trkpt lat="45.33745" lon="6.1637">
        <ele>1850.9363492966</ele>
        <time>2020-02-08T08:47:33.631Z</time>
      </trkpt>
      <trkpt lat="45.33748" lon="6.16351">
        <ele>1845.9533809405</ele>
        <time>2020-02-08T08:47:35.631Z</time>
      </trkpt>
      <trkpt lat="45.33752" lon="6.16333">
        <ele>1841.8319653744</ele>
        <time>2020-02-08T08:47:37.631Z</time>
      </trkpt>
      <trkpt lat="45.33756" lon="6.16317">
        <ele>1835.9069952</ele>
        <time>2020-02-08T08:47:39.631Z</time>
      </trkpt>
      <trkpt lat="45.33759" lon="6.16301">
        <ele>1831.9766904702</ele>
        <time>2020-02-08T08:47:41.631Z</time>
      </trkpt>
      <trkpt lat="45.33765" lon="6.1629">
        <ele>1826.8759936</ele>
        <time>2020-02-08T08:47:43.631Z</time>
      </trkpt>
      <trkpt lat="45.33773" lon="6.16283">
        <ele>1822</ele>
        <time>2020-02-08T08:47:45.600Z</time>
      </trkpt>
      <trkpt lat="45.33783" lon="6.16278">
        <ele>1816.9799936</ele>
        <time>2020-02-08T08:47:48.620Z</time>
      </trkpt>
      <trkpt lat="45.33791" lon="6.16269">
        <ele>1815</ele>
        <time>2020-02-08T08:47:51.618Z</time>
      </trkpt>
      <trkpt lat="45.33788" lon="6.16282">
        <ele>1814</ele>
        <time>2020-02-08T08:47:58.631Z</time>
      </trkpt>
      <trkpt lat="45.33781" lon="6.16291">
        <ele>1814</ele>
        <time>2020-02-08T08:48:03.631Z</time>
      </trkpt>
      <trkpt lat="45.3378" lon="6.16278">
        <ele>1806.9600128</ele>
        <time>2020-02-08T08:48:27.620Z</time>
      </trkpt>
      <trkpt lat="45.33784" lon="6.16263">
        <ele>1798.9079157478</ele>
        <time>2020-02-08T08:48:30.631Z</time>
      </trkpt>
      <trkpt lat="45.3379" lon="6.16253">
        <ele>1793.9640064</ele>
        <time>2020-02-08T08:48:32.618Z</time>
      </trkpt>
      <trkpt lat="45.33799" lon="6.16242">
        <ele>1789.6461274886</ele>
        <time>2020-02-08T08:48:34.620Z</time>
      </trkpt>
      <trkpt lat="45.33806" lon="6.1623">
        <ele>1782.952</ele>
        <time>2020-02-08T08:48:36.616Z</time>
      </trkpt>
      <trkpt lat="45.33814" lon="6.16212">
        <ele>1776.9799936</ele>
        <time>2020-02-08T08:48:38.620Z</time>
      </trkpt>
      <trkpt lat="45.3382" lon="6.16202">
        <ele>1775.9579904</ele>
        <time>2020-02-08T08:48:39.621Z</time>
      </trkpt>
      <trkpt lat="45.33829" lon="6.16185">
        <ele>1772.9872192174</ele>
        <time>2020-02-08T08:48:41.617Z</time>
      </trkpt>
      <trkpt lat="45.33837" lon="6.16172">
        <ele>1770.9529984</ele>
        <time>2020-02-08T08:48:43.647Z</time>
      </trkpt>
      <trkpt lat="45.33845" lon="6.16158">
        <ele>1768.9650048</ele>
        <time>2020-02-08T08:48:45.635Z</time>
      </trkpt>
      <trkpt lat="45.33853" lon="6.16145">
        <ele>1766.9800064</ele>
        <time>2020-02-08T08:48:47.620Z</time>
      </trkpt>
      <trkpt lat="45.33863" lon="6.16133">
        <ele>1766</ele>
        <time>2020-02-08T08:48:49.621Z</time>
      </trkpt>
      <trkpt lat="45.3387" lon="6.16123">
        <ele>1764.9529984</ele>
        <time>2020-02-08T08:48:51.647Z</time>
      </trkpt>
      <trkpt lat="45.33879" lon="6.16117">
        <ele>1763.2146155588</ele>
        <time>2020-02-08T08:48:53.621Z</time>
      </trkpt>
      <trkpt lat="45.33888" lon="6.1611">
        <ele>1762</ele>
        <time>2020-02-08T08:48:55.602Z</time>
      </trkpt>
      <trkpt lat="45.33898" lon="6.16103">
        <ele>1761.9800064</ele>
        <time>2020-02-08T08:48:57.620Z</time>
      </trkpt>
      <trkpt lat="45.33908" lon="6.16096">
        <ele>1759.9872192174</ele>
        <time>2020-02-08T08:48:59.617Z</time>
      </trkpt>
      <trkpt lat="45.3392" lon="6.16091">
        <ele>1758.9529984</ele>
        <time>2020-02-08T08:49:01.647Z</time>
      </trkpt>
      <trkpt lat="45.33931" lon="6.16086">
        <ele>1757</ele>
        <time>2020-02-08T08:49:03.617Z</time>
      </trkpt>
      <trkpt lat="45.33941" lon="6.16079">
        <ele>1756.968</ele>
        <time>2020-02-08T08:49:05.632Z</time>
      </trkpt>
      <trkpt lat="45.33949" lon="6.16071">
        <ele>1756</ele>
        <time>2020-02-08T08:49:07.621Z</time>
      </trkpt>
      <trkpt lat="45.33957" lon="6.16064">
        <ele>1755.9842068793</ele>
        <time>2020-02-08T08:49:09.621Z</time>
      </trkpt>
      <trkpt lat="45.33965" lon="6.16057">
        <ele>1754.9646127489</ele>
        <time>2020-02-08T08:49:11.646Z</time>
      </trkpt>
      <trkpt lat="45.33974" lon="6.16055">
        <ele>1753.9529984</ele>
        <time>2020-02-08T08:49:13.647Z</time>
      </trkpt>
      <trkpt lat="45.33984" lon="6.16054">
        <ele>1752.968</ele>
        <time>2020-02-08T08:49:15.632Z</time>
      </trkpt>
      <trkpt lat="45.33995" lon="6.16056">
        <ele>1751.9830016</ele>
        <time>2020-02-08T08:49:17.617Z</time>
      </trkpt>
      <trkpt lat="45.34004" lon="6.16055">
        <ele>1750.9872192174</ele>
        <time>2020-02-08T08:49:19.617Z</time>
      </trkpt>
      <trkpt lat="45.34013" lon="6.16053">
        <ele>1749.9500032</ele>
        <time>2020-02-08T08:49:21.650Z</time>
      </trkpt>
      <trkpt lat="45.34023" lon="6.16054">
        <ele>1749</ele>
        <time>2020-02-08T08:49:23.621Z</time>
      </trkpt>
      <trkpt lat="45.34032" lon="6.16054">
        <ele>1748.9689984</ele>
        <time>2020-02-08T08:49:25.631Z</time>
      </trkpt>
      <trkpt lat="45.34043" lon="6.1605">
        <ele>1746.7299968</ele>
        <time>2020-02-08T08:49:27.735Z</time>
      </trkpt>
      <trkpt lat="45.34055" lon="6.16047">
        <ele>1743.4378763636</ele>
        <time>2020-02-08T08:49:29.631Z</time>
      </trkpt>
      <trkpt lat="45.34071" lon="6.16045">
        <ele>1741.2038537656</ele>
        <time>2020-02-08T08:49:31.635Z</time>
      </trkpt>
      <trkpt lat="45.34082" lon="6.16044">
        <ele>1739.0179968</ele>
        <time>2020-02-08T08:49:33.591Z</time>
      </trkpt>
      <trkpt lat="45.341" lon="6.16031">
        <ele>1736</ele>
        <time>2020-02-08T08:49:37.631Z</time>
      </trkpt>
      <trkpt lat="45.34114" lon="6.16031">
        <ele>1735.9689984</ele>
        <time>2020-02-08T08:49:39.631Z</time>
      </trkpt>
      <trkpt lat="45.34125" lon="6.16033">
        <ele>1734.9689984</ele>
        <time>2020-02-08T08:49:41.631Z</time>
      </trkpt>
      <trkpt lat="45.34136" lon="6.16033">
        <ele>1733.9789952</ele>
        <time>2020-02-08T08:49:43.621Z</time>
      </trkpt>
      <trkpt lat="45.34147" lon="6.16032">
        <ele>1732.8984947934</ele>
        <time>2020-02-08T08:49:45.735Z</time>
      </trkpt>
      <trkpt lat="45.34157" lon="6.16036">
        <ele>1732</ele>
        <time>2020-02-08T08:49:47.631Z</time>
      </trkpt>
      <trkpt lat="45.34156" lon="6.16023">
        <ele>1728.9689984</ele>
        <time>2020-02-08T08:50:29.631Z</time>
      </trkpt>
      <trkpt lat="45.34165" lon="6.1603">
        <ele>1727</ele>
        <time>2020-02-08T08:51:48.631Z</time>
      </trkpt>
      <trkpt lat="45.34156" lon="6.16022">
        <ele>1728</ele>
        <time>2020-02-08T08:52:44.620Z</time>
      </trkpt>
      <trkpt lat="45.34147" lon="6.16017">
        <ele>1728</ele>
        <time>2020-02-08T08:53:55.631Z</time>
      </trkpt>
      <trkpt lat="45.34154" lon="6.16026">
        <ele>1728</ele>
        <time>2020-02-08T08:54:01.618Z</time>
      </trkpt>
      <trkpt lat="45.34144" lon="6.16031">
        <ele>1725</ele>
        <time>2020-02-08T08:59:28.620Z</time>
      </trkpt>
      <trkpt lat="45.34153" lon="6.16028">
        <ele>1725</ele>
        <time>2020-02-08T08:59:37.631Z</time>
      </trkpt>
      <trkpt lat="45.34158" lon="6.16016">
        <ele>1726</ele>
        <time>2020-02-08T09:01:42.619Z</time>
      </trkpt>
      <trkpt lat="45.34159" lon="6.16003">
        <ele>1726</ele>
        <time>2020-02-08T09:03:01.620Z</time>
      </trkpt>
      <trkpt lat="45.34154" lon="6.15991">
        <ele>1726</ele>
        <time>2020-02-08T09:03:07.620Z</time>
      </trkpt>
      <trkpt lat="45.34153" lon="6.15978">
        <ele>1727.9799936</ele>
        <time>2020-02-08T09:03:18.620Z</time>
      </trkpt>
      <trkpt lat="45.34152" lon="6.15964">
        <ele>1728.0039936</ele>
        <time>2020-02-08T09:03:29.604Z</time>
      </trkpt>
      <trkpt lat="45.34157" lon="6.15952">
        <ele>1729</ele>
        <time>2020-02-08T09:03:40.619Z</time>
      </trkpt>
      <trkpt lat="45.34155" lon="6.15937">
        <ele>1729</ele>
        <time>2020-02-08T09:03:50.619Z</time>
      </trkpt>
      <trkpt lat="45.34153" lon="6.15924">
        <ele>1728</ele>
        <time>2020-02-08T09:03:57.620Z</time>
      </trkpt>
      <trkpt lat="45.3416" lon="6.15916">
        <ele>1730</ele>
        <time>2020-02-08T09:04:23.620Z</time>
      </trkpt>
      <trkpt lat="45.34169" lon="6.15915">
        <ele>1730</ele>
        <time>2020-02-08T09:04:30.620Z</time>
      </trkpt>
      <trkpt lat="45.34179" lon="6.15912">
        <ele>1731</ele>
        <time>2020-02-08T09:04:47.621Z</time>
      </trkpt>
      <trkpt lat="45.34189" lon="6.15916">
        <ele>1731</ele>
        <time>2020-02-08T09:04:56.620Z</time>
      </trkpt>
      <trkpt lat="45.34199" lon="6.15919">
        <ele>1731.9651490909</ele>
        <time>2020-02-08T09:05:03.646Z</time>
      </trkpt>
      <trkpt lat="45.34208" lon="6.1592">
        <ele>1732</ele>
        <time>2020-02-08T09:05:13.620Z</time>
      </trkpt>
      <trkpt lat="45.34217" lon="6.1592">
        <ele>1733</ele>
        <time>2020-02-08T09:05:24.631Z</time>
      </trkpt>
      <trkpt lat="45.34227" lon="6.15917">
        <ele>1734</ele>
        <time>2020-02-08T09:05:34.631Z</time>
      </trkpt>
      <trkpt lat="45.34237" lon="6.15917">
        <ele>1734</ele>
        <time>2020-02-08T09:05:44.631Z</time>
      </trkpt>
      <trkpt lat="45.34245" lon="6.1591">
        <ele>1736</ele>
        <time>2020-02-08T09:05:56.621Z</time>
      </trkpt>
      <trkpt lat="45.34253" lon="6.15906">
        <ele>1736</ele>
        <time>2020-02-08T09:06:06.619Z</time>
      </trkpt>
      <trkpt lat="45.34258" lon="6.15894">
        <ele>1736</ele>
        <time>2020-02-08T09:06:41.631Z</time>
      </trkpt>
      <trkpt lat="45.3425" lon="6.15886">
        <ele>1739</ele>
        <time>2020-02-08T09:07:29.619Z</time>
      </trkpt>
      <trkpt lat="45.34245" lon="6.15874">
        <ele>1739</ele>
        <time>2020-02-08T09:07:42.630Z</time>
      </trkpt>
      <trkpt lat="45.34242" lon="6.15861">
        <ele>1740</ele>
        <time>2020-02-08T09:08:16.620Z</time>
      </trkpt>
      <trkpt lat="45.34248" lon="6.1585">
        <ele>1736.9799936</ele>
        <time>2020-02-08T09:08:20.620Z</time>
      </trkpt>
      <trkpt lat="45.34255" lon="6.15839">
        <ele>1735</ele>
        <time>2020-02-08T09:08:27.630Z</time>
      </trkpt>
      <trkpt lat="45.34264" lon="6.15834">
        <ele>1734</ele>
        <time>2020-02-08T09:08:35.618Z</time>
      </trkpt>
      <trkpt lat="45.34258" lon="6.15817">
        <ele>1734</ele>
        <time>2020-02-08T09:08:56.631Z</time>
      </trkpt>
      <trkpt lat="45.34267" lon="6.15816">
        <ele>1734</ele>
        <time>2020-02-08T09:09:22.620Z</time>
      </trkpt>
      <trkpt lat="45.34277" lon="6.15808">
        <ele>1731.9640064</ele>
        <time>2020-02-08T09:09:26.618Z</time>
      </trkpt>
      <trkpt lat="45.34284" lon="6.15798">
        <ele>1727.9970048</ele>
        <time>2020-02-08T09:09:30.603Z</time>
      </trkpt>
      <trkpt lat="45.34295" lon="6.15799">
        <ele>1726</ele>
        <time>2020-02-08T09:10:44.620Z</time>
      </trkpt>
      <trkpt lat="45.34302" lon="6.1579">
        <ele>1716.9510016</ele>
        <time>2020-02-08T09:11:23.649Z</time>
      </trkpt>
      <trkpt lat="45.34308" lon="6.15779">
        <ele>1713</ele>
        <time>2020-02-08T09:11:35.631Z</time>
      </trkpt>
      <trkpt lat="45.34313" lon="6.15765">
        <ele>1710</ele>
        <time>2020-02-08T09:11:52.631Z</time>
      </trkpt>
      <trkpt lat="45.34302" lon="6.15767">
        <ele>1710</ele>
        <time>2020-02-08T09:12:41.631Z</time>
      </trkpt>
      <trkpt lat="45.34298" lon="6.15753">
        <ele>1709</ele>
        <time>2020-02-08T09:12:51.631Z</time>
      </trkpt>
      <trkpt lat="45.34306" lon="6.15758">
        <ele>1709</ele>
        <time>2020-02-08T09:13:06.631Z</time>
      </trkpt>
      <trkpt lat="45.34311" lon="6.15745">
        <ele>1707.9849575578</ele>
        <time>2020-02-08T09:13:10.620Z</time>
      </trkpt>
      <trkpt lat="45.34317" lon="6.15732">
        <ele>1706</ele>
        <time>2020-02-08T09:13:13.600Z</time>
      </trkpt>
      <trkpt lat="45.34325" lon="6.15719">
        <ele>1705</ele>
        <time>2020-02-08T09:13:20.733Z</time>
      </trkpt>
      <trkpt lat="45.34333" lon="6.15711">
        <ele>1705</ele>
        <time>2020-02-08T09:13:28.733Z</time>
      </trkpt>
      <trkpt lat="45.34341" lon="6.15703">
        <ele>1705</ele>
        <time>2020-02-08T09:13:35.620Z</time>
      </trkpt>
      <trkpt lat="45.34341" lon="6.1569">
        <ele>1705</ele>
        <time>2020-02-08T09:13:46.619Z</time>
      </trkpt>
      <trkpt lat="45.34343" lon="6.15675">
        <ele>1704</ele>
        <time>2020-02-08T09:13:54.630Z</time>
      </trkpt>
      <trkpt lat="45.34349" lon="6.15664">
        <ele>1703</ele>
        <time>2020-02-08T09:14:03.631Z</time>
      </trkpt>
      <trkpt lat="45.34358" lon="6.15663">
        <ele>1703</ele>
        <time>2020-02-08T09:14:27.631Z</time>
      </trkpt>
      <trkpt lat="45.34347" lon="6.15653">
        <ele>1703</ele>
        <time>2020-02-08T09:15:09.600Z</time>
      </trkpt>
      <trkpt lat="45.34332" lon="6.15656">
        <ele>1703</ele>
        <time>2020-02-08T09:15:27.631Z</time>
      </trkpt>
      <trkpt lat="45.34341" lon="6.15663">
        <ele>1703</ele>
        <time>2020-02-08T09:15:37.631Z</time>
      </trkpt>
      <trkpt lat="45.34346" lon="6.15651">
        <ele>1703</ele>
        <time>2020-02-08T09:15:45.631Z</time>
      </trkpt>
      <trkpt lat="45.34351" lon="6.1564">
        <ele>1703</ele>
        <time>2020-02-08T09:15:54.631Z</time>
      </trkpt>
      <trkpt lat="45.34353" lon="6.15628">
        <ele>1703.022729697</ele>
        <time>2020-02-08T09:16:05.630Z</time>
      </trkpt>
      <trkpt lat="45.34349" lon="6.15615">
        <ele>1704</ele>
        <time>2020-02-08T09:16:12.620Z</time>
      </trkpt>
      <trkpt lat="45.34357" lon="6.15605">
        <ele>1704</ele>
        <time>2020-02-08T09:16:18.631Z</time>
      </trkpt>
      <trkpt lat="45.34363" lon="6.15592">
        <ele>1706</ele>
        <time>2020-02-08T09:16:29.732Z</time>
      </trkpt>
      <trkpt lat="45.3437" lon="6.1558">
        <ele>1706</ele>
        <time>2020-02-08T09:16:44.620Z</time>
      </trkpt>
      <trkpt lat="45.34369" lon="6.15568">
        <ele>1707</ele>
        <time>2020-02-08T09:16:56.620Z</time>
      </trkpt>
      <trkpt lat="45.34369" lon="6.15554">
        <ele>1707</ele>
        <time>2020-02-08T09:17:03.630Z</time>
      </trkpt>
      <trkpt lat="45.34371" lon="6.15542">
        <ele>1708</ele>
        <time>2020-02-08T09:17:12.617Z</time>
      </trkpt>
      <trkpt lat="45.34379" lon="6.15533">
        <ele>1709</ele>
        <time>2020-02-08T09:17:24.647Z</time>
      </trkpt>
      <trkpt lat="45.34382" lon="6.15521">
        <ele>1711</ele>
        <time>2020-02-08T09:17:38.634Z</time>
      </trkpt>
      <trkpt lat="45.34385" lon="6.15508">
        <ele>1712.0053447198</ele>
        <time>2020-02-08T09:17:49.617Z</time>
      </trkpt>
      <trkpt lat="45.34387" lon="6.15495">
        <ele>1712</ele>
        <time>2020-02-08T09:18:00.617Z</time>
      </trkpt>
      <trkpt lat="45.34391" lon="6.15482">
        <ele>1713</ele>
        <time>2020-02-08T09:18:14.617Z</time>
      </trkpt>
      <trkpt lat="45.344" lon="6.15479">
        <ele>1713</ele>
        <time>2020-02-08T09:18:23.632Z</time>
      </trkpt>
      <trkpt lat="45.34402" lon="6.15465">
        <ele>1714</ele>
        <time>2020-02-08T09:18:35.620Z</time>
      </trkpt>
      <trkpt lat="45.34407" lon="6.15454">
        <ele>1714</ele>
        <time>2020-02-08T09:18:46.620Z</time>
      </trkpt>
      <trkpt lat="45.34409" lon="6.15441">
        <ele>1716</ele>
        <time>2020-02-08T09:18:57.617Z</time>
      </trkpt>
      <trkpt lat="45.34417" lon="6.15431">
        <ele>1717</ele>
        <time>2020-02-08T09:19:14.620Z</time>
      </trkpt>
      <trkpt lat="45.34424" lon="6.15423">
        <ele>1717</ele>
        <time>2020-02-08T09:19:27.617Z</time>
      </trkpt>
      <trkpt lat="45.34434" lon="6.15421">
        <ele>1714</ele>
        <time>2020-02-08T09:19:39.620Z</time>
      </trkpt>
      <trkpt lat="45.34443" lon="6.15426">
        <ele>1713</ele>
        <time>2020-02-08T09:19:58.589Z</time>
      </trkpt>
      <trkpt lat="45.34435" lon="6.1542">
        <ele>1714</ele>
        <time>2020-02-08T09:20:42.619Z</time>
      </trkpt>
      <trkpt lat="45.34428" lon="6.15408">
        <ele>1713</ele>
        <time>2020-02-08T09:20:57.732Z</time>
      </trkpt>
      <trkpt lat="45.34434" lon="6.1542">
        <ele>1713</ele>
        <time>2020-02-08T09:21:03.619Z</time>
      </trkpt>
      <trkpt lat="45.34427" lon="6.15411">
        <ele>1713</ele>
        <time>2020-02-08T09:21:08.619Z</time>
      </trkpt>
      <trkpt lat="45.34436" lon="6.15418">
        <ele>1713</ele>
        <time>2020-02-08T09:21:25.630Z</time>
      </trkpt>
      <trkpt lat="45.34445" lon="6.15412">
        <ele>1714</ele>
        <time>2020-02-08T09:23:20.620Z</time>
      </trkpt>
      <trkpt lat="45.34435" lon="6.15415">
        <ele>1715</ele>
        <time>2020-02-08T09:23:36.619Z</time>
      </trkpt>
      <trkpt lat="45.34442" lon="6.15426">
        <ele>1715</ele>
        <time>2020-02-08T09:23:52.616Z</time>
      </trkpt>
      <trkpt lat="45.34437" lon="6.15415">
        <ele>1715</ele>
        <time>2020-02-08T09:24:16.620Z</time>
      </trkpt>
      <trkpt lat="45.34443" lon="6.15425">
        <ele>1716</ele>
        <time>2020-02-08T09:24:57.629Z</time>
      </trkpt>
      <trkpt lat="45.34436" lon="6.15409">
        <ele>1715</ele>
        <time>2020-02-08T09:25:13.631Z</time>
      </trkpt>
      <trkpt lat="45.3444" lon="6.1542">
        <ele>1715</ele>
        <time>2020-02-08T09:25:59.630Z</time>
      </trkpt>
      <trkpt lat="45.3445" lon="6.1542">
        <ele>1715</ele>
        <time>2020-02-08T09:26:38.620Z</time>
      </trkpt>
      <trkpt lat="45.34442" lon="6.15412">
        <ele>1717</ele>
        <time>2020-02-08T09:27:08.621Z</time>
      </trkpt>
      <trkpt lat="45.34433" lon="6.15411">
        <ele>1723</ele>
        <time>2020-02-08T09:28:23.621Z</time>
      </trkpt>
      <trkpt lat="45.34438" lon="6.15399">
        <ele>1724.0210048</ele>
        <time>2020-02-08T09:28:39.621Z</time>
      </trkpt>
      <trkpt lat="45.34431" lon="6.15389">
        <ele>1728</ele>
        <time>2020-02-08T09:29:06.620Z</time>
      </trkpt>
      <trkpt lat="45.34437" lon="6.15378">
        <ele>1736</ele>
        <time>2020-02-08T09:30:26.618Z</time>
      </trkpt>
      <trkpt lat="45.34428" lon="6.15373">
        <ele>1739.0300032</ele>
        <time>2020-02-08T09:31:15.630Z</time>
      </trkpt>
      <trkpt lat="45.34418" lon="6.15373">
        <ele>1741.0210048</ele>
        <time>2020-02-08T09:31:31.621Z</time>
      </trkpt>
      <trkpt lat="45.3442" lon="6.15359">
        <ele>1745.0151466667</ele>
        <time>2020-02-08T09:32:07.620Z</time>
      </trkpt>
      <trkpt lat="45.34429" lon="6.15354">
        <ele>1746</ele>
        <time>2020-02-08T09:32:19.620Z</time>
      </trkpt>
      <trkpt lat="45.34438" lon="6.15351">
        <ele>1748</ele>
        <time>2020-02-08T09:32:34.620Z</time>
      </trkpt>
      <trkpt lat="45.3443" lon="6.15363">
        <ele>1752</ele>
        <time>2020-02-08T09:33:30.621Z</time>
      </trkpt>
      <trkpt lat="45.34429" lon="6.1535">
        <ele>1753</ele>
        <time>2020-02-08T09:34:01.631Z</time>
      </trkpt>
      <trkpt lat="45.34435" lon="6.15339">
        <ele>1755</ele>
        <time>2020-02-08T09:34:18.631Z</time>
      </trkpt>
      <trkpt lat="45.34438" lon="6.15327">
        <ele>1761</ele>
        <time>2020-02-08T09:35:40.620Z</time>
      </trkpt>
      <trkpt lat="45.34428" lon="6.15332">
        <ele>1765.0310016</ele>
        <time>2020-02-08T09:37:05.631Z</time>
      </trkpt>
      <trkpt lat="45.34431" lon="6.1532">
        <ele>1768</ele>
        <time>2020-02-08T09:37:30.620Z</time>
      </trkpt>
      <trkpt lat="45.34439" lon="6.15312">
        <ele>1770</ele>
        <time>2020-02-08T09:37:44.618Z</time>
      </trkpt>
      <trkpt lat="45.34431" lon="6.15305">
        <ele>1771</ele>
        <time>2020-02-08T09:38:05.620Z</time>
      </trkpt>
      <trkpt lat="45.34439" lon="6.15312">
        <ele>1771</ele>
        <time>2020-02-08T09:38:23.620Z</time>
      </trkpt>
      <trkpt lat="45.34438" lon="6.1533">
        <ele>1771</ele>
        <time>2020-02-08T09:38:52.631Z</time>
      </trkpt>
      <trkpt lat="45.34445" lon="6.15342">
        <ele>1771</ele>
        <time>2020-02-08T09:38:53.631Z</time>
      </trkpt>
      <trkpt lat="45.34434" lon="6.1533">
        <ele>1771</ele>
        <time>2020-02-08T09:38:55.630Z</time>
      </trkpt>
      <trkpt lat="45.34428" lon="6.15322">
        <ele>1771</ele>
        <time>2020-02-08T09:38:59.620Z</time>
      </trkpt>
      <trkpt lat="45.3442" lon="6.15315">
        <ele>1774</ele>
        <time>2020-02-08T09:39:35.602Z</time>
      </trkpt>
      <trkpt lat="45.34424" lon="6.15304">
        <ele>1776</ele>
        <time>2020-02-08T09:39:58.620Z</time>
      </trkpt>
      <trkpt lat="45.34433" lon="6.15299">
        <ele>1778</ele>
        <time>2020-02-08T09:40:11.620Z</time>
      </trkpt>
      <trkpt lat="45.34442" lon="6.15298">
        <ele>1779.0199936</ele>
        <time>2020-02-08T09:40:23.620Z</time>
      </trkpt>
      <trkpt lat="45.34451" lon="6.153">
        <ele>1781</ele>
        <time>2020-02-08T09:40:48.631Z</time>
      </trkpt>
      <trkpt lat="45.34442" lon="6.15293">
        <ele>1783</ele>
        <time>2020-02-08T09:42:20.631Z</time>
      </trkpt>
      <trkpt lat="45.34451" lon="6.15297">
        <ele>1784</ele>
        <time>2020-02-08T09:42:50.622Z</time>
      </trkpt>
      <trkpt lat="45.34452" lon="6.15311">
        <ele>1784</ele>
        <time>2020-02-08T09:43:53.631Z</time>
      </trkpt>
      <trkpt lat="45.34453" lon="6.15297">
        <ele>1785</ele>
        <time>2020-02-08T09:44:18.631Z</time>
      </trkpt>
      <trkpt lat="45.34455" lon="6.15311">
        <ele>1784</ele>
        <time>2020-02-08T09:44:36.631Z</time>
      </trkpt>
      <trkpt lat="45.34447" lon="6.15305">
        <ele>1785</ele>
        <time>2020-02-08T09:44:51.617Z</time>
      </trkpt>
      <trkpt lat="45.3444" lon="6.15298">
        <ele>1786.0169984</ele>
        <time>2020-02-08T09:45:21.617Z</time>
      </trkpt>
      <trkpt lat="45.34432" lon="6.15292">
        <ele>1789</ele>
        <time>2020-02-08T09:45:31.617Z</time>
      </trkpt>
      <trkpt lat="45.34432" lon="6.15279">
        <ele>1793</ele>
        <time>2020-02-08T09:45:52.620Z</time>
      </trkpt>
      <trkpt lat="45.34423" lon="6.15277">
        <ele>1796</ele>
        <time>2020-02-08T09:46:13.662Z</time>
      </trkpt>
      <trkpt lat="45.34414" lon="6.15272">
        <ele>1796</ele>
        <time>2020-02-08T09:46:27.621Z</time>
      </trkpt>
      <trkpt lat="45.3442" lon="6.15261">
        <ele>1799</ele>
        <time>2020-02-08T09:46:42.621Z</time>
      </trkpt>
      <trkpt lat="45.34429" lon="6.15261">
        <ele>1801</ele>
        <time>2020-02-08T09:46:58.632Z</time>
      </trkpt>
      <trkpt lat="45.34438" lon="6.15256">
        <ele>1804</ele>
        <time>2020-02-08T09:47:13.631Z</time>
      </trkpt>
      <trkpt lat="45.3443" lon="6.15249">
        <ele>1810</ele>
        <time>2020-02-08T09:47:52.617Z</time>
      </trkpt>
      <trkpt lat="45.34425" lon="6.15238">
        <ele>1813</ele>
        <time>2020-02-08T09:48:08.587Z</time>
      </trkpt>
      <trkpt lat="45.34427" lon="6.15226">
        <ele>1817</ele>
        <time>2020-02-08T09:48:30.631Z</time>
      </trkpt>
      <trkpt lat="45.34435" lon="6.15219">
        <ele>1820</ele>
        <time>2020-02-08T09:48:52.620Z</time>
      </trkpt>
      <trkpt lat="45.34443" lon="6.1521">
        <ele>1822</ele>
        <time>2020-02-08T09:49:03.631Z</time>
      </trkpt>
      <trkpt lat="45.34436" lon="6.15201">
        <ele>1827.0169984</ele>
        <time>2020-02-08T09:49:33.617Z</time>
      </trkpt>
      <trkpt lat="45.34429" lon="6.15191">
        <ele>1830</ele>
        <time>2020-02-08T09:49:50.618Z</time>
      </trkpt>
      <trkpt lat="45.34421" lon="6.15185">
        <ele>1831</ele>
        <time>2020-02-08T09:50:03.618Z</time>
      </trkpt>
      <trkpt lat="45.34412" lon="6.15182">
        <ele>1833.0329984</ele>
        <time>2020-02-08T09:50:16.633Z</time>
      </trkpt>
      <trkpt lat="45.34402" lon="6.1518">
        <ele>1835.0210048</ele>
        <time>2020-02-08T09:50:28.621Z</time>
      </trkpt>
      <trkpt lat="45.34393" lon="6.15175">
        <ele>1838</ele>
        <time>2020-02-08T09:50:47.617Z</time>
      </trkpt>
      <trkpt lat="45.34386" lon="6.15165">
        <ele>1840</ele>
        <time>2020-02-08T09:51:06.617Z</time>
      </trkpt>
      <trkpt lat="45.34379" lon="6.15156">
        <ele>1842</ele>
        <time>2020-02-08T09:51:24.617Z</time>
      </trkpt>
      <trkpt lat="45.34375" lon="6.15144">
        <ele>1845</ele>
        <time>2020-02-08T09:51:44.620Z</time>
      </trkpt>
      <trkpt lat="45.34374" lon="6.15128">
        <ele>1847</ele>
        <time>2020-02-08T09:51:56.590Z</time>
      </trkpt>
      <trkpt lat="45.34381" lon="6.1512">
        <ele>1850</ele>
        <time>2020-02-08T09:52:15.590Z</time>
      </trkpt>
      <trkpt lat="45.34382" lon="6.15106">
        <ele>1853</ele>
        <time>2020-02-08T09:52:39.617Z</time>
      </trkpt>
      <trkpt lat="45.34378" lon="6.15094">
        <ele>1855</ele>
        <time>2020-02-08T09:52:55.620Z</time>
      </trkpt>
      <trkpt lat="45.34369" lon="6.1509">
        <ele>1858</ele>
        <time>2020-02-08T09:53:17.618Z</time>
      </trkpt>
      <trkpt lat="45.34363" lon="6.15081">
        <ele>1860.0179968</ele>
        <time>2020-02-08T09:53:39.618Z</time>
      </trkpt>
      <trkpt lat="45.34369" lon="6.15071">
        <ele>1863</ele>
        <time>2020-02-08T09:54:00.619Z</time>
      </trkpt>
      <trkpt lat="45.34375" lon="6.15061">
        <ele>1864</ele>
        <time>2020-02-08T09:54:11.619Z</time>
      </trkpt>
      <trkpt lat="45.34382" lon="6.15055">
        <ele>1868</ele>
        <time>2020-02-08T09:54:35.618Z</time>
      </trkpt>
      <trkpt lat="45.3439" lon="6.15047">
        <ele>1869</ele>
        <time>2020-02-08T09:54:48.631Z</time>
      </trkpt>
      <trkpt lat="45.34399" lon="6.15044">
        <ele>1873</ele>
        <time>2020-02-08T09:55:05.631Z</time>
      </trkpt>
      <trkpt lat="45.34399" lon="6.1503">
        <ele>1876</ele>
        <time>2020-02-08T09:55:39.621Z</time>
      </trkpt>
      <trkpt lat="45.34396" lon="6.15018">
        <ele>1879</ele>
        <time>2020-02-08T09:56:01.619Z</time>
      </trkpt>
      <trkpt lat="45.34392" lon="6.15006">
        <ele>1882.9910016</ele>
        <time>2020-02-08T09:56:22.591Z</time>
      </trkpt>
      <trkpt lat="45.34397" lon="6.14995">
        <ele>1887</ele>
        <time>2020-02-08T09:56:50.621Z</time>
      </trkpt>
      <trkpt lat="45.34406" lon="6.14996">
        <ele>1890</ele>
        <time>2020-02-08T09:57:03.632Z</time>
      </trkpt>
      <trkpt lat="45.34415" lon="6.14997">
        <ele>1893</ele>
        <time>2020-02-08T09:58:40.635Z</time>
      </trkpt>
      <trkpt lat="45.34425" lon="6.14994">
        <ele>1893</ele>
        <time>2020-02-08T09:58:58.621Z</time>
      </trkpt>
      <trkpt lat="45.34436" lon="6.14993">
        <ele>1893</ele>
        <time>2020-02-08T09:59:01.621Z</time>
      </trkpt>
      <trkpt lat="45.34427" lon="6.14996">
        <ele>1893</ele>
        <time>2020-02-08T09:59:15.631Z</time>
      </trkpt>
      <trkpt lat="45.34418" lon="6.14991">
        <ele>1893</ele>
        <time>2020-02-08T10:00:30.631Z</time>
      </trkpt>
      <trkpt lat="45.34425" lon="6.15001">
        <ele>1894</ele>
        <time>2020-02-08T10:01:17.618Z</time>
      </trkpt>
      <trkpt lat="45.34437" lon="6.15">
        <ele>1895</ele>
        <time>2020-02-08T10:03:11.618Z</time>
      </trkpt>
      <trkpt lat="45.34447" lon="6.14995">
        <ele>1895</ele>
        <time>2020-02-08T10:04:03.631Z</time>
      </trkpt>
      <trkpt lat="45.34425" lon="6.14995">
        <ele>1895</ele>
        <time>2020-02-08T10:04:17.631Z</time>
      </trkpt>
      <trkpt lat="45.34415" lon="6.14999">
        <ele>1895</ele>
        <time>2020-02-08T10:04:28.631Z</time>
      </trkpt>
      <trkpt lat="45.3443" lon="6.15001">
        <ele>1895</ele>
        <time>2020-02-08T10:04:45.631Z</time>
      </trkpt>
      <trkpt lat="45.34441" lon="6.15002">
        <ele>1895</ele>
        <time>2020-02-08T10:04:51.631Z</time>
      </trkpt>
      <trkpt lat="45.34432" lon="6.14999">
        <ele>1896</ele>
        <time>2020-02-08T10:05:01.632Z</time>
      </trkpt>
      <trkpt lat="45.34423" lon="6.15001">
        <ele>1896</ele>
        <time>2020-02-08T10:05:21.632Z</time>
      </trkpt>
      <trkpt lat="45.34413" lon="6.15002">
        <ele>1896.032</ele>
        <time>2020-02-08T10:05:26.632Z</time>
      </trkpt>
      <trkpt lat="45.34422" lon="6.14996">
        <ele>1899.0229640937</ele>
        <time>2020-02-08T10:06:32.631Z</time>
      </trkpt>
      <trkpt lat="45.34423" lon="6.14983">
        <ele>1901.0169984</ele>
        <time>2020-02-08T10:06:43.617Z</time>
      </trkpt>
      <trkpt lat="45.3442" lon="6.1497">
        <ele>1903</ele>
        <time>2020-02-08T10:07:17.622Z</time>
      </trkpt>
      <trkpt lat="45.34415" lon="6.14957">
        <ele>1905</ele>
        <time>2020-02-08T10:07:31.631Z</time>
      </trkpt>
      <trkpt lat="45.34413" lon="6.14944">
        <ele>1907</ele>
        <time>2020-02-08T10:07:46.603Z</time>
      </trkpt>
      <trkpt lat="45.34409" lon="6.14932">
        <ele>1910</ele>
        <time>2020-02-08T10:08:03.617Z</time>
      </trkpt>
      <trkpt lat="45.34408" lon="6.1492">
        <ele>1911</ele>
        <time>2020-02-08T10:08:18.617Z</time>
      </trkpt>
      <trkpt lat="45.34404" lon="6.14907">
        <ele>1913</ele>
        <time>2020-02-08T10:08:36.631Z</time>
      </trkpt>
      <trkpt lat="45.34401" lon="6.14895">
        <ele>1915</ele>
        <time>2020-02-08T10:08:50.621Z</time>
      </trkpt>
      <trkpt lat="45.34399" lon="6.14882">
        <ele>1917</ele>
        <time>2020-02-08T10:09:08.619Z</time>
      </trkpt>
      <trkpt lat="45.34396" lon="6.1487">
        <ele>1920</ele>
        <time>2020-02-08T10:09:26.631Z</time>
      </trkpt>
      <trkpt lat="45.34393" lon="6.14858">
        <ele>1922.0128775758</ele>
        <time>2020-02-08T10:09:43.617Z</time>
      </trkpt>
      <trkpt lat="45.34401" lon="6.14851">
        <ele>1926.0210048</ele>
        <time>2020-02-08T10:10:04.621Z</time>
      </trkpt>
      <trkpt lat="45.34408" lon="6.14841">
        <ele>1930</ele>
        <time>2020-02-08T10:10:26.621Z</time>
      </trkpt>
      <trkpt lat="45.34413" lon="6.1483">
        <ele>1932</ele>
        <time>2020-02-08T10:10:42.631Z</time>
      </trkpt>
      <trkpt lat="45.34413" lon="6.14817">
        <ele>1935</ele>
        <time>2020-02-08T10:10:59.617Z</time>
      </trkpt>
      <trkpt lat="45.34415" lon="6.14804">
        <ele>1938</ele>
        <time>2020-02-08T10:11:16.622Z</time>
      </trkpt>
      <trkpt lat="45.34424" lon="6.14802">
        <ele>1943</ele>
        <time>2020-02-08T10:11:46.621Z</time>
      </trkpt>
      <trkpt lat="45.34434" lon="6.14801">
        <ele>1946</ele>
        <time>2020-02-08T10:12:03.617Z</time>
      </trkpt>
      <trkpt lat="45.34443" lon="6.148">
        <ele>1949</ele>
        <time>2020-02-08T10:12:24.617Z</time>
      </trkpt>
      <trkpt lat="45.34452" lon="6.14798">
        <ele>1951.7823103129</ele>
        <time>2020-02-08T10:12:48.617Z</time>
      </trkpt>
      <trkpt lat="45.34461" lon="6.14796">
        <ele>1954</ele>
        <time>2020-02-08T10:13:04.617Z</time>
      </trkpt>
      <trkpt lat="45.34471" lon="6.14795">
        <ele>1956</ele>
        <time>2020-02-08T10:13:17.632Z</time>
      </trkpt>
      <trkpt lat="45.3448" lon="6.14794">
        <ele>1959</ele>
        <time>2020-02-08T10:13:34.617Z</time>
      </trkpt>
      <trkpt lat="45.34485" lon="6.14784">
        <ele>1965</ele>
        <time>2020-02-08T10:14:14.617Z</time>
      </trkpt>
      <trkpt lat="45.34483" lon="6.14771">
        <ele>1968</ele>
        <time>2020-02-08T10:14:33.618Z</time>
      </trkpt>
      <trkpt lat="45.3448" lon="6.14758">
        <ele>1970</ele>
        <time>2020-02-08T10:14:49.618Z</time>
      </trkpt>
      <trkpt lat="45.34475" lon="6.14747">
        <ele>1971.0477284849</ele>
        <time>2020-02-08T10:15:02.663Z</time>
      </trkpt>
      <trkpt lat="45.34469" lon="6.14736">
        <ele>1974</ele>
        <time>2020-02-08T10:15:19.618Z</time>
      </trkpt>
      <trkpt lat="45.34463" lon="6.14726">
        <ele>1977</ele>
        <time>2020-02-08T10:15:34.618Z</time>
      </trkpt>
      <trkpt lat="45.34457" lon="6.14716">
        <ele>1978.0169984</ele>
        <time>2020-02-08T10:15:50.617Z</time>
      </trkpt>
      <trkpt lat="45.34449" lon="6.14709">
        <ele>1981</ele>
        <time>2020-02-08T10:16:06.620Z</time>
      </trkpt>
      <trkpt lat="45.34444" lon="6.14697">
        <ele>1982.0128775758</ele>
        <time>2020-02-08T10:16:21.617Z</time>
      </trkpt>
      <trkpt lat="45.34436" lon="6.1469">
        <ele>1986</ele>
        <time>2020-02-08T10:16:40.620Z</time>
      </trkpt>
      <trkpt lat="45.34427" lon="6.14686">
        <ele>1989</ele>
        <time>2020-02-08T10:16:58.617Z</time>
      </trkpt>
      <trkpt lat="45.34418" lon="6.14683">
        <ele>1991</ele>
        <time>2020-02-08T10:17:13.620Z</time>
      </trkpt>
      <trkpt lat="45.34412" lon="6.14674">
        <ele>1994</ele>
        <time>2020-02-08T10:17:31.621Z</time>
      </trkpt>
      <trkpt lat="45.34406" lon="6.14663">
        <ele>1997</ele>
        <time>2020-02-08T10:17:48.618Z</time>
      </trkpt>
      <trkpt lat="45.344" lon="6.14653">
        <ele>1999</ele>
        <time>2020-02-08T10:18:10.631Z</time>
      </trkpt>
      <trkpt lat="45.34398" lon="6.1464">
        <ele>2003</ele>
        <time>2020-02-08T10:18:48.618Z</time>
      </trkpt>
      <trkpt lat="45.34395" lon="6.14628">
        <ele>2006.0210048</ele>
        <time>2020-02-08T10:19:03.621Z</time>
      </trkpt>
      <trkpt lat="45.34388" lon="6.1462">
        <ele>2007.0179968</ele>
        <time>2020-02-08T10:19:13.618Z</time>
      </trkpt>
      <trkpt lat="45.34379" lon="6.14613">
        <ele>2011</ele>
        <time>2020-02-08T10:19:29.588Z</time>
      </trkpt>
      <trkpt lat="45.3437" lon="6.14613">
        <ele>2013</ele>
        <time>2020-02-08T10:19:43.618Z</time>
      </trkpt>
      <trkpt lat="45.34361" lon="6.14615">
        <ele>2017</ele>
        <time>2020-02-08T10:19:56.631Z</time>
      </trkpt>
      <trkpt lat="45.34351" lon="6.14615">
        <ele>2018</ele>
        <time>2020-02-08T10:20:10.618Z</time>
      </trkpt>
      <trkpt lat="45.34342" lon="6.14615">
        <ele>2021</ele>
        <time>2020-02-08T10:20:25.650Z</time>
      </trkpt>
      <trkpt lat="45.34333" lon="6.1461">
        <ele>2023</ele>
        <time>2020-02-08T10:20:40.621Z</time>
      </trkpt>
      <trkpt lat="45.34324" lon="6.14609">
        <ele>2025</ele>
        <time>2020-02-08T10:20:50.617Z</time>
      </trkpt>
      <trkpt lat="45.34316" lon="6.14602">
        <ele>2028</ele>
        <time>2020-02-08T10:21:09.617Z</time>
      </trkpt>
      <trkpt lat="45.34312" lon="6.1459">
        <ele>2030</ele>
        <time>2020-02-08T10:21:37.617Z</time>
      </trkpt>
      <trkpt lat="45.34322" lon="6.14588">
        <ele>2032</ele>
        <time>2020-02-08T10:21:57.620Z</time>
      </trkpt>
      <trkpt lat="45.34315" lon="6.1458">
        <ele>2034</ele>
        <time>2020-02-08T10:22:25.617Z</time>
      </trkpt>
      <trkpt lat="45.3431" lon="6.14568">
        <ele>2035</ele>
        <time>2020-02-08T10:22:34.618Z</time>
      </trkpt>
      <trkpt lat="45.34305" lon="6.14557">
        <ele>2036</ele>
        <time>2020-02-08T10:22:42.618Z</time>
      </trkpt>
      <trkpt lat="45.34303" lon="6.14544">
        <ele>2037</ele>
        <time>2020-02-08T10:22:52.617Z</time>
      </trkpt>
      <trkpt lat="45.34301" lon="6.14531">
        <ele>2039</ele>
        <time>2020-02-08T10:23:04.618Z</time>
      </trkpt>
      <trkpt lat="45.34298" lon="6.14518">
        <ele>2039.0274759634</ele>
        <time>2020-02-08T10:23:14.618Z</time>
      </trkpt>
      <trkpt lat="45.34293" lon="6.14507">
        <ele>2043</ele>
        <time>2020-02-08T10:23:28.618Z</time>
      </trkpt>
      <trkpt lat="45.3429" lon="6.14495">
        <ele>2045.0127807826</ele>
        <time>2020-02-08T10:23:43.617Z</time>
      </trkpt>
      <trkpt lat="45.34289" lon="6.14482">
        <ele>2048</ele>
        <time>2020-02-08T10:23:59.618Z</time>
      </trkpt>
      <trkpt lat="45.34286" lon="6.14469">
        <ele>2051.0210048</ele>
        <time>2020-02-08T10:24:17.621Z</time>
      </trkpt>
      <trkpt lat="45.34284" lon="6.14456">
        <ele>2054</ele>
        <time>2020-02-08T10:24:34.618Z</time>
      </trkpt>
      <trkpt lat="45.34282" lon="6.14442">
        <ele>2056.0329984</ele>
        <time>2020-02-08T10:24:46.633Z</time>
      </trkpt>
      <trkpt lat="45.3428" lon="6.14429">
        <ele>2059</ele>
        <time>2020-02-08T10:25:01.633Z</time>
      </trkpt>
      <trkpt lat="45.34277" lon="6.14417">
        <ele>2062</ele>
        <time>2020-02-08T10:25:18.618Z</time>
      </trkpt>
      <trkpt lat="45.34274" lon="6.14404">
        <ele>2064</ele>
        <time>2020-02-08T10:25:31.633Z</time>
      </trkpt>
      <trkpt lat="45.34283" lon="6.14404">
        <ele>2073</ele>
        <time>2020-02-08T10:27:07.631Z</time>
      </trkpt>
      <trkpt lat="45.34291" lon="6.14411">
        <ele>2075</ele>
        <time>2020-02-08T10:27:26.618Z</time>
      </trkpt>
      <trkpt lat="45.34299" lon="6.14417">
        <ele>2078</ele>
        <time>2020-02-08T10:27:41.620Z</time>
      </trkpt>
      <trkpt lat="45.34307" lon="6.14422">
        <ele>2080</ele>
        <time>2020-02-08T10:29:02.620Z</time>
      </trkpt>
      <trkpt lat="45.34303" lon="6.14411">
        <ele>2083</ele>
        <time>2020-02-08T10:29:35.632Z</time>
      </trkpt>
      <trkpt lat="45.34302" lon="6.14397">
        <ele>2086</ele>
        <time>2020-02-08T10:29:55.663Z</time>
      </trkpt>
      <trkpt lat="45.34299" lon="6.14385">
        <ele>2088</ele>
        <time>2020-02-08T10:30:10.632Z</time>
      </trkpt>
      <trkpt lat="45.34296" lon="6.14372">
        <ele>2090</ele>
        <time>2020-02-08T10:30:24.618Z</time>
      </trkpt>
      <trkpt lat="45.34305" lon="6.14374">
        <ele>2094</ele>
        <time>2020-02-08T10:31:48.619Z</time>
      </trkpt>
      <trkpt lat="45.34312" lon="6.14382">
        <ele>2096</ele>
        <time>2020-02-08T10:32:07.619Z</time>
      </trkpt>
      <trkpt lat="45.3432" lon="6.1439">
        <ele>2099</ele>
        <time>2020-02-08T10:32:24.620Z</time>
      </trkpt>
      <trkpt lat="45.34326" lon="6.14399">
        <ele>2102</ele>
        <time>2020-02-08T10:32:37.629Z</time>
      </trkpt>
      <trkpt lat="45.34325" lon="6.14386">
        <ele>2105</ele>
        <time>2020-02-08T10:33:02.633Z</time>
      </trkpt>
      <trkpt lat="45.34323" lon="6.14373">
        <ele>2106</ele>
        <time>2020-02-08T10:33:16.619Z</time>
      </trkpt>
      <trkpt lat="45.34319" lon="6.14361">
        <ele>2109</ele>
        <time>2020-02-08T10:33:29.619Z</time>
      </trkpt>
      <trkpt lat="45.34318" lon="6.14348">
        <ele>2112</ele>
        <time>2020-02-08T10:33:45.619Z</time>
      </trkpt>
      <trkpt lat="45.34319" lon="6.14334">
        <ele>2114</ele>
        <time>2020-02-08T10:33:57.629Z</time>
      </trkpt>
      <trkpt lat="45.34327" lon="6.14342">
        <ele>2119</ele>
        <time>2020-02-08T10:35:16.619Z</time>
      </trkpt>
      <trkpt lat="45.34334" lon="6.14352">
        <ele>2122</ele>
        <time>2020-02-08T10:35:31.619Z</time>
      </trkpt>
      <trkpt lat="45.3434" lon="6.14361">
        <ele>2123</ele>
        <time>2020-02-08T10:35:48.619Z</time>
      </trkpt>
      <trkpt lat="45.34341" lon="6.14347">
        <ele>2131</ele>
        <time>2020-02-08T10:36:30.617Z</time>
      </trkpt>
      <trkpt lat="45.34338" lon="6.14335">
        <ele>2132</ele>
        <time>2020-02-08T10:36:48.631Z</time>
      </trkpt>
      <trkpt lat="45.34337" lon="6.14322">
        <ele>2135</ele>
        <time>2020-02-08T10:37:03.619Z</time>
      </trkpt>
      <trkpt lat="45.34335" lon="6.14309">
        <ele>2137</ele>
        <time>2020-02-08T10:37:16.619Z</time>
      </trkpt>
      <trkpt lat="45.34343" lon="6.14315">
        <ele>2141</ele>
        <time>2020-02-08T10:37:44.634Z</time>
      </trkpt>
      <trkpt lat="45.34351" lon="6.14323">
        <ele>2145</ele>
        <time>2020-02-08T10:38:00.619Z</time>
      </trkpt>
      <trkpt lat="45.34358" lon="6.14331">
        <ele>2147.0189952</ele>
        <time>2020-02-08T10:38:16.619Z</time>
      </trkpt>
      <trkpt lat="45.34364" lon="6.14341">
        <ele>2150.0199936</ele>
        <time>2020-02-08T10:38:35.620Z</time>
      </trkpt>
      <trkpt lat="45.34368" lon="6.14328">
        <ele>2156.0290048</ele>
        <time>2020-02-08T10:39:29.629Z</time>
      </trkpt>
      <trkpt lat="45.34371" lon="6.14315">
        <ele>2160</ele>
        <time>2020-02-08T10:39:45.589Z</time>
      </trkpt>
      <trkpt lat="45.34379" lon="6.14307">
        <ele>2163</ele>
        <time>2020-02-08T10:39:59.629Z</time>
      </trkpt>
      <trkpt lat="45.34388" lon="6.14302">
        <ele>2165</ele>
        <time>2020-02-08T10:40:15.619Z</time>
      </trkpt>
      <trkpt lat="45.34396" lon="6.14295">
        <ele>2168</ele>
        <time>2020-02-08T10:42:35.660Z</time>
      </trkpt>
      <trkpt lat="45.34388" lon="6.143">
        <ele>2169</ele>
        <time>2020-02-08T10:49:56.631Z</time>
      </trkpt>
      <trkpt lat="45.34395" lon="6.14293">
        <ele>2169</ele>
        <time>2020-02-08T10:51:59.631Z</time>
      </trkpt>
      <trkpt lat="45.34402" lon="6.14284">
        <ele>2168</ele>
        <time>2020-02-08T10:52:07.621Z</time>
      </trkpt>
      <trkpt lat="45.34393" lon="6.14284">
        <ele>2167</ele>
        <time>2020-02-08T10:53:20.631Z</time>
      </trkpt>
      <trkpt lat="45.34401" lon="6.14278">
        <ele>2167</ele>
        <time>2020-02-08T10:53:57.631Z</time>
      </trkpt>
      <trkpt lat="45.34401" lon="6.14291">
        <ele>2168</ele>
        <time>2020-02-08T10:57:47.631Z</time>
      </trkpt>
      <trkpt lat="45.34393" lon="6.14297">
        <ele>2171</ele>
        <time>2020-02-08T11:06:57.619Z</time>
      </trkpt>
      <trkpt lat="45.34383" lon="6.14298">
        <ele>2170</ele>
        <time>2020-02-08T11:11:45.587Z</time>
      </trkpt>
      <trkpt lat="45.34377" lon="6.14309">
        <ele>2166.9820032</ele>
        <time>2020-02-08T11:11:48.618Z</time>
      </trkpt>
      <trkpt lat="45.34367" lon="6.14313">
        <ele>2165.9820032</ele>
        <time>2020-02-08T11:11:51.618Z</time>
      </trkpt>
      <trkpt lat="45.34357" lon="6.14318">
        <ele>2162.9689984</ele>
        <time>2020-02-08T11:11:54.631Z</time>
      </trkpt>
      <trkpt lat="45.34347" lon="6.14314">
        <ele>2158.9789952</ele>
        <time>2020-02-08T11:11:57.621Z</time>
      </trkpt>
      <trkpt lat="45.34337" lon="6.14313">
        <ele>2154.9729370777</ele>
        <time>2020-02-08T11:12:00.618Z</time>
      </trkpt>
      <trkpt lat="45.34328" lon="6.14316">
        <ele>2149</ele>
        <time>2020-02-08T11:12:03.646Z</time>
      </trkpt>
      <trkpt lat="45.34315" lon="6.14319">
        <ele>2142.9579904</ele>
        <time>2020-02-08T11:12:06.621Z</time>
      </trkpt>
      <trkpt lat="45.34303" lon="6.14328">
        <ele>2135.9069952</ele>
        <time>2020-02-08T11:12:09.631Z</time>
      </trkpt>
      <trkpt lat="45.34294" lon="6.14339">
        <ele>2126.9594056166</ele>
        <time>2020-02-08T11:12:12.618Z</time>
      </trkpt>
      <trkpt lat="45.34284" lon="6.1434">
        <ele>2120.9190144</ele>
        <time>2020-02-08T11:12:14.627Z</time>
      </trkpt>
      <trkpt lat="45.34271" lon="6.14349">
        <ele>2111.9640064</ele>
        <time>2020-02-08T11:12:17.618Z</time>
      </trkpt>
      <trkpt lat="45.34262" lon="6.14357">
        <ele>2106.872</ele>
        <time>2020-02-08T11:12:19.632Z</time>
      </trkpt>
      <trkpt lat="45.34253" lon="6.14363">
        <ele>2100.6618267803</ele>
        <time>2020-02-08T11:12:21.621Z</time>
      </trkpt>
      <trkpt lat="45.34241" lon="6.14372">
        <ele>2093.9320064</ele>
        <time>2020-02-08T11:12:23.617Z</time>
      </trkpt>
      <trkpt lat="45.34232" lon="6.14385">
        <ele>2086.9320064</ele>
        <time>2020-02-08T11:12:25.617Z</time>
      </trkpt>
      <trkpt lat="45.34221" lon="6.14396">
        <ele>2080.696976113</ele>
        <time>2020-02-08T11:12:27.621Z</time>
      </trkpt>
      <trkpt lat="45.34215" lon="6.1441">
        <ele>2075.995495929</ele>
        <time>2020-02-08T11:12:29.602Z</time>
      </trkpt>
      <trkpt lat="45.34209" lon="6.14423">
        <ele>2068.9200256</ele>
        <time>2020-02-08T11:12:31.620Z</time>
      </trkpt>
      <trkpt lat="45.34204" lon="6.14437">
        <ele>2058.968</ele>
        <time>2020-02-08T11:12:34.632Z</time>
      </trkpt>
      <trkpt lat="45.3422" lon="6.14421">
        <ele>2058</ele>
        <time>2020-02-08T11:12:41.631Z</time>
      </trkpt>
      <trkpt lat="45.34223" lon="6.14406">
        <ele>2058</ele>
        <time>2020-02-08T11:12:44.631Z</time>
      </trkpt>
      <trkpt lat="45.3423" lon="6.14415">
        <ele>2057</ele>
        <time>2020-02-08T11:13:02.618Z</time>
      </trkpt>
      <trkpt lat="45.34239" lon="6.14412">
        <ele>2057</ele>
        <time>2020-02-08T11:13:28.621Z</time>
      </trkpt>
      <trkpt lat="45.34249" lon="6.1441">
        <ele>2058</ele>
        <time>2020-02-08T11:14:30.631Z</time>
      </trkpt>
      <trkpt lat="45.34249" lon="6.14425">
        <ele>2057</ele>
        <time>2020-02-08T11:15:43.617Z</time>
      </trkpt>
      <trkpt lat="45.34249" lon="6.14438">
        <ele>2055.9842068793</ele>
        <time>2020-02-08T11:15:45.621Z</time>
      </trkpt>
      <trkpt lat="45.34245" lon="6.14453">
        <ele>2050.915008</ele>
        <time>2020-02-08T11:15:47.617Z</time>
      </trkpt>
      <trkpt lat="45.34243" lon="6.14471">
        <ele>2041.9518975221</ele>
        <time>2020-02-08T11:15:49.621Z</time>
      </trkpt>
      <trkpt lat="45.34242" lon="6.14494">
        <ele>2033.7599744</ele>
        <time>2020-02-08T11:15:51.660Z</time>
      </trkpt>
      <trkpt lat="45.34238" lon="6.14516">
        <ele>2027.9368275172</ele>
        <time>2020-02-08T11:15:53.621Z</time>
      </trkpt>
      <trkpt lat="45.34238" lon="6.14542">
        <ele>2021</ele>
        <time>2020-02-08T11:15:55.646Z</time>
      </trkpt>
      <trkpt lat="45.3424" lon="6.14567">
        <ele>2015.9159808</ele>
        <time>2020-02-08T11:15:57.621Z</time>
      </trkpt>
      <trkpt lat="45.34244" lon="6.14581">
        <ele>2011.9526206379</ele>
        <time>2020-02-08T11:15:58.621Z</time>
      </trkpt>
      <trkpt lat="45.34252" lon="6.14603">
        <ele>2004.894976</ele>
        <time>2020-02-08T11:16:00.621Z</time>
      </trkpt>
      <trkpt lat="45.34254" lon="6.1462">
        <ele>1997.9369856</ele>
        <time>2020-02-08T11:16:02.621Z</time>
      </trkpt>
      <trkpt lat="45.34257" lon="6.14633">
        <ele>1992.9660032</ele>
        <time>2020-02-08T11:16:04.617Z</time>
      </trkpt>
      <trkpt lat="45.34259" lon="6.14647">
        <ele>1988.9766904702</ele>
        <time>2020-02-08T11:16:06.631Z</time>
      </trkpt>
      <trkpt lat="45.34261" lon="6.14661">
        <ele>1986.9839658407</ele>
        <time>2020-02-08T11:16:08.621Z</time>
      </trkpt>
      <trkpt lat="45.34266" lon="6.14676">
        <ele>1984.9539968</ele>
        <time>2020-02-08T11:16:10.646Z</time>
      </trkpt>
      <trkpt lat="45.34263" lon="6.14688">
        <ele>1982.9789952</ele>
        <time>2020-02-08T11:16:12.621Z</time>
      </trkpt>
      <trkpt lat="45.34248" lon="6.14695">
        <ele>1981</ele>
        <time>2020-02-08T11:16:14.621Z</time>
      </trkpt>
      <trkpt lat="45.34237" lon="6.147">
        <ele>1980.9730048</ele>
        <time>2020-02-08T11:16:16.627Z</time>
      </trkpt>
      <trkpt lat="45.34227" lon="6.14708">
        <ele>1979.9800064</ele>
        <time>2020-02-08T11:16:19.620Z</time>
      </trkpt>
      <trkpt lat="45.34218" lon="6.14713">
        <ele>1978</ele>
        <time>2020-02-08T11:16:23.620Z</time>
      </trkpt>
      <trkpt lat="45.34205" lon="6.14712">
        <ele>1977.0460032</ele>
        <time>2020-02-08T11:16:29.646Z</time>
      </trkpt>
      <trkpt lat="45.34196" lon="6.14712">
        <ele>1978</ele>
        <time>2020-02-08T11:16:34.621Z</time>
      </trkpt>
      <trkpt lat="45.34194" lon="6.14725">
        <ele>1976.9730048</ele>
        <time>2020-02-08T11:16:41.627Z</time>
      </trkpt>
      <trkpt lat="45.34196" lon="6.14743">
        <ele>1971.9660032</ele>
        <time>2020-02-08T11:16:44.617Z</time>
      </trkpt>
      <trkpt lat="45.342" lon="6.14757">
        <ele>1966.0199936</ele>
        <time>2020-02-08T11:16:49.590Z</time>
      </trkpt>
      <trkpt lat="45.34211" lon="6.14777">
        <ele>1962.9548822975</ele>
        <time>2020-02-08T11:16:51.630Z</time>
      </trkpt>
      <trkpt lat="45.34218" lon="6.14791">
        <ele>1957.9800064</ele>
        <time>2020-02-08T11:16:53.620Z</time>
      </trkpt>
      <trkpt lat="45.34198" lon="6.14769">
        <ele>1953</ele>
        <time>2020-02-08T11:17:02.630Z</time>
      </trkpt>
      <trkpt lat="45.34188" lon="6.1477">
        <ele>1953</ele>
        <time>2020-02-08T11:17:03.621Z</time>
      </trkpt>
      <trkpt lat="45.34174" lon="6.1477">
        <ele>1953</ele>
        <time>2020-02-08T11:17:05.620Z</time>
      </trkpt>
      <trkpt lat="45.34165" lon="6.14767">
        <ele>1953</ele>
        <time>2020-02-08T11:17:12.631Z</time>
      </trkpt>
      <trkpt lat="45.34155" lon="6.14769">
        <ele>1953</ele>
        <time>2020-02-08T11:17:53.621Z</time>
      </trkpt>
      <trkpt lat="45.34148" lon="6.14778">
        <ele>1953</ele>
        <time>2020-02-08T11:18:15.631Z</time>
      </trkpt>
      <trkpt lat="45.34145" lon="6.1479">
        <ele>1951</ele>
        <time>2020-02-08T11:18:21.618Z</time>
      </trkpt>
      <trkpt lat="45.34139" lon="6.14804">
        <ele>1950.9789952</ele>
        <time>2020-02-08T11:18:26.621Z</time>
      </trkpt>
      <trkpt lat="45.34144" lon="6.14822">
        <ele>1947.9579904</ele>
        <time>2020-02-08T11:18:28.621Z</time>
      </trkpt>
      <trkpt lat="45.34151" lon="6.14839">
        <ele>1942.9379968</ele>
        <time>2020-02-08T11:18:30.631Z</time>
      </trkpt>
      <trkpt lat="45.3416" lon="6.14856">
        <ele>1938.999237857</ele>
        <time>2020-02-08T11:18:32.621Z</time>
      </trkpt>
      <trkpt lat="45.34158" lon="6.14872">
        <ele>1936.9579904</ele>
        <time>2020-02-08T11:18:34.621Z</time>
      </trkpt>
      <trkpt lat="45.34161" lon="6.14886">
        <ele>1933.9789952</ele>
        <time>2020-02-08T11:18:36.621Z</time>
      </trkpt>
      <trkpt lat="45.34166" lon="6.14901">
        <ele>1931.9789952</ele>
        <time>2020-02-08T11:18:38.621Z</time>
      </trkpt>
      <trkpt lat="45.34173" lon="6.14916">
        <ele>1930.9813242653</ele>
        <time>2020-02-08T11:18:40.631Z</time>
      </trkpt>
      <trkpt lat="45.34177" lon="6.1493">
        <ele>1930</ele>
        <time>2020-02-08T11:18:43.591Z</time>
      </trkpt>
      <trkpt lat="45.34179" lon="6.14943">
        <ele>1929</ele>
        <time>2020-02-08T11:18:50.631Z</time>
      </trkpt>
      <trkpt lat="45.3419" lon="6.14951">
        <ele>1928</ele>
        <time>2020-02-08T11:18:53.621Z</time>
      </trkpt>
      <trkpt lat="45.34196" lon="6.14964">
        <ele>1928</ele>
        <time>2020-02-08T11:18:56.621Z</time>
      </trkpt>
      <trkpt lat="45.34202" lon="6.14975">
        <ele>1928</ele>
        <time>2020-02-08T11:18:59.621Z</time>
      </trkpt>
      <trkpt lat="45.34206" lon="6.14987">
        <ele>1925</ele>
        <time>2020-02-08T11:19:38.621Z</time>
      </trkpt>
      <trkpt lat="45.34216" lon="6.1499">
        <ele>1923</ele>
        <time>2020-02-08T11:19:45.631Z</time>
      </trkpt>
      <trkpt lat="45.34227" lon="6.15003">
        <ele>1921.9579904</ele>
        <time>2020-02-08T11:19:48.621Z</time>
      </trkpt>
      <trkpt lat="45.34233" lon="6.15022">
        <ele>1917.9300714107</ele>
        <time>2020-02-08T11:19:50.631Z</time>
      </trkpt>
      <trkpt lat="45.34238" lon="6.15039">
        <ele>1913.7339904</ele>
        <time>2020-02-08T11:19:52.733Z</time>
      </trkpt>
      <trkpt lat="45.34244" lon="6.15052">
        <ele>1907.9689984</ele>
        <time>2020-02-08T11:19:55.631Z</time>
      </trkpt>
      <trkpt lat="45.34259" lon="6.15063">
        <ele>1897.6902200065</ele>
        <time>2020-02-08T11:19:59.703Z</time>
      </trkpt>
      <trkpt lat="45.34283" lon="6.15073">
        <ele>1890</ele>
        <time>2020-02-08T11:20:01.631Z</time>
      </trkpt>
      <trkpt lat="45.3429" lon="6.1508">
        <ele>1889.9379968</ele>
        <time>2020-02-08T11:20:02.631Z</time>
      </trkpt>
      <trkpt lat="45.34298" lon="6.1509">
        <ele>1887.9879936</ele>
        <time>2020-02-08T11:20:03.606Z</time>
      </trkpt>
      <trkpt lat="45.34317" lon="6.15118">
        <ele>1881.7112775008</ele>
        <time>2020-02-08T11:20:06.728Z</time>
      </trkpt>
      <trkpt lat="45.34327" lon="6.15128">
        <ele>1879.6744268858</ele>
        <time>2020-02-08T11:20:07.631Z</time>
      </trkpt>
      <trkpt lat="45.34338" lon="6.15145">
        <ele>1872.9766904702</ele>
        <time>2020-02-08T11:20:09.631Z</time>
      </trkpt>
      <trkpt lat="45.34343" lon="6.15155">
        <ele>1872.2248089619</ele>
        <time>2020-02-08T11:20:10.631Z</time>
      </trkpt>
      <trkpt lat="45.34343" lon="6.15169">
        <ele>1867.9579904</ele>
        <time>2020-02-08T11:20:13.621Z</time>
      </trkpt>
      <trkpt lat="45.34354" lon="6.15183">
        <ele>1863.976152498</ele>
        <time>2020-02-08T11:20:15.631Z</time>
      </trkpt>
      <trkpt lat="45.34363" lon="6.15198">
        <ele>1860.8619904</ele>
        <time>2020-02-08T11:20:17.646Z</time>
      </trkpt>
      <trkpt lat="45.34372" lon="6.15209">
        <ele>1855.9684137586</ele>
        <time>2020-02-08T11:20:19.621Z</time>
      </trkpt>
      <trkpt lat="45.34385" lon="6.1522">
        <ele>1845</ele>
        <time>2020-02-08T11:20:26.630Z</time>
      </trkpt>
      <trkpt lat="45.34401" lon="6.15223">
        <ele>1844</ele>
        <time>2020-02-08T11:20:30.631Z</time>
      </trkpt>
      <trkpt lat="45.34394" lon="6.15215">
        <ele>1844</ele>
        <time>2020-02-08T11:20:34.628Z</time>
      </trkpt>
      <trkpt lat="45.34404" lon="6.15215">
        <ele>1844</ele>
        <time>2020-02-08T11:20:51.733Z</time>
      </trkpt>
      <trkpt lat="45.34395" lon="6.15219">
        <ele>1843</ele>
        <time>2020-02-08T11:21:00.631Z</time>
      </trkpt>
      <trkpt lat="45.34385" lon="6.15217">
        <ele>1842</ele>
        <time>2020-02-08T11:21:07.618Z</time>
      </trkpt>
      <trkpt lat="45.34395" lon="6.15216">
        <ele>1842</ele>
        <time>2020-02-08T11:21:40.631Z</time>
      </trkpt>
      <trkpt lat="45.34405" lon="6.15218">
        <ele>1840.9766904702</ele>
        <time>2020-02-08T11:21:44.631Z</time>
      </trkpt>
      <trkpt lat="45.34422" lon="6.15222">
        <ele>1839.9689984</ele>
        <time>2020-02-08T11:21:46.631Z</time>
      </trkpt>
      <trkpt lat="45.34432" lon="6.15229">
        <ele>1837.9799936</ele>
        <time>2020-02-08T11:21:48.620Z</time>
      </trkpt>
      <trkpt lat="45.34437" lon="6.15241">
        <ele>1835.9694559525</ele>
        <time>2020-02-08T11:21:50.620Z</time>
      </trkpt>
      <trkpt lat="45.34435" lon="6.15255">
        <ele>1832</ele>
        <time>2020-02-08T11:21:52.658Z</time>
      </trkpt>
      <trkpt lat="45.3444" lon="6.15271">
        <ele>1825.9458741555</ele>
        <time>2020-02-08T11:21:55.618Z</time>
      </trkpt>
      <trkpt lat="45.34441" lon="6.15284">
        <ele>1812</ele>
        <time>2020-02-08T11:22:06.630Z</time>
      </trkpt>
      <trkpt lat="45.34452" lon="6.15293">
        <ele>1810.9839658407</ele>
        <time>2020-02-08T11:22:09.621Z</time>
      </trkpt>
      <trkpt lat="45.34461" lon="6.153">
        <ele>1809</ele>
        <time>2020-02-08T11:22:11.661Z</time>
      </trkpt>
      <trkpt lat="45.3446" lon="6.15316">
        <ele>1803.9842068793</ele>
        <time>2020-02-08T11:22:14.621Z</time>
      </trkpt>
      <trkpt lat="45.34459" lon="6.15331">
        <ele>1796.9369856</ele>
        <time>2020-02-08T11:22:17.621Z</time>
      </trkpt>
      <trkpt lat="45.34462" lon="6.15344">
        <ele>1784.9099904</ele>
        <time>2020-02-08T11:22:21.630Z</time>
      </trkpt>
      <trkpt lat="45.34467" lon="6.1536">
        <ele>1775.9600128</ele>
        <time>2020-02-08T11:22:25.620Z</time>
      </trkpt>
      <trkpt lat="45.34475" lon="6.15376">
        <ele>1767.9541839287</ele>
        <time>2020-02-08T11:22:28.620Z</time>
      </trkpt>
      <trkpt lat="45.34481" lon="6.15389">
        <ele>1762</ele>
        <time>2020-02-08T11:22:30.645Z</time>
      </trkpt>
      <trkpt lat="45.34487" lon="6.15406">
        <ele>1758.910016</ele>
        <time>2020-02-08T11:22:32.618Z</time>
      </trkpt>
      <trkpt lat="45.34488" lon="6.1542">
        <ele>1749.9199744</ele>
        <time>2020-02-08T11:22:34.620Z</time>
      </trkpt>
      <trkpt lat="45.34497" lon="6.15426">
        <ele>1740.9800064</ele>
        <time>2020-02-08T11:22:37.620Z</time>
      </trkpt>
      <trkpt lat="45.34507" lon="6.15429">
        <ele>1738</ele>
        <time>2020-02-08T11:22:44.620Z</time>
      </trkpt>
      <trkpt lat="45.34517" lon="6.15431">
        <ele>1738</ele>
        <time>2020-02-08T11:22:48.620Z</time>
      </trkpt>
      <trkpt lat="45.34531" lon="6.15433">
        <ele>1738</ele>
        <time>2020-02-08T11:22:54.620Z</time>
      </trkpt>
      <trkpt lat="45.34539" lon="6.15442">
        <ele>1737.9699968</ele>
        <time>2020-02-08T11:22:56.630Z</time>
      </trkpt>
      <trkpt lat="45.34546" lon="6.15454">
        <ele>1734.9599872</ele>
        <time>2020-02-08T11:22:58.620Z</time>
      </trkpt>
      <trkpt lat="45.34554" lon="6.1547">
        <ele>1731.9548726734</ele>
        <time>2020-02-08T11:23:00.620Z</time>
      </trkpt>
      <trkpt lat="45.34559" lon="6.15483">
        <ele>1727.9640064</ele>
        <time>2020-02-08T11:23:02.618Z</time>
      </trkpt>
      <trkpt lat="45.34567" lon="6.15493">
        <ele>1724</ele>
        <time>2020-02-08T11:23:07.618Z</time>
      </trkpt>
      <trkpt lat="45.34558" lon="6.15493">
        <ele>1724</ele>
        <time>2020-02-08T11:23:39.620Z</time>
      </trkpt>
      <trkpt lat="45.34548" lon="6.15494">
        <ele>1724</ele>
        <time>2020-02-08T11:23:53.633Z</time>
      </trkpt>
      <trkpt lat="45.34542" lon="6.15507">
        <ele>1724</ele>
        <time>2020-02-08T11:24:22.618Z</time>
      </trkpt>
      <trkpt lat="45.34536" lon="6.1552">
        <ele>1722</ele>
        <time>2020-02-08T11:24:28.632Z</time>
      </trkpt>
      <trkpt lat="45.34539" lon="6.15532">
        <ele>1721</ele>
        <time>2020-02-08T11:24:39.618Z</time>
      </trkpt>
      <trkpt lat="45.3454" lon="6.15545">
        <ele>1720</ele>
        <time>2020-02-08T11:24:42.630Z</time>
      </trkpt>
      <trkpt lat="45.34544" lon="6.15558">
        <ele>1719</ele>
        <time>2020-02-08T11:24:52.632Z</time>
      </trkpt>
      <trkpt lat="45.34542" lon="6.15574">
        <ele>1718</ele>
        <time>2020-02-08T11:24:58.618Z</time>
      </trkpt>
      <trkpt lat="45.34547" lon="6.15587">
        <ele>1718</ele>
        <time>2020-02-08T11:25:03.588Z</time>
      </trkpt>
      <trkpt lat="45.34548" lon="6.15603">
        <ele>1717</ele>
        <time>2020-02-08T11:25:07.633Z</time>
      </trkpt>
      <trkpt lat="45.34546" lon="6.15622">
        <ele>1715.9820032</ele>
        <time>2020-02-08T11:25:10.618Z</time>
      </trkpt>
      <trkpt lat="45.34543" lon="6.15638">
        <ele>1715</ele>
        <time>2020-02-08T11:25:13.619Z</time>
      </trkpt>
      <trkpt lat="45.34532" lon="6.15639">
        <ele>1714</ele>
        <time>2020-02-08T11:25:31.618Z</time>
      </trkpt>
      <trkpt lat="45.3452" lon="6.15635">
        <ele>1714</ele>
        <time>2020-02-08T11:25:35.617Z</time>
      </trkpt>
      <trkpt lat="45.34509" lon="6.15631">
        <ele>1714</ele>
        <time>2020-02-08T11:25:41.588Z</time>
      </trkpt>
      <trkpt lat="45.34501" lon="6.15626">
        <ele>1714</ele>
        <time>2020-02-08T11:25:43.619Z</time>
      </trkpt>
      <trkpt lat="45.34484" lon="6.15589">
        <ele>1713.9689984</ele>
        <time>2020-02-08T11:25:47.631Z</time>
      </trkpt>
      <trkpt lat="45.34496" lon="6.15577">
        <ele>1713.0234860606</ele>
        <time>2020-02-08T11:25:50.631Z</time>
      </trkpt>
      <trkpt lat="45.3449" lon="6.15595">
        <ele>1714</ele>
        <time>2020-02-08T11:25:57.631Z</time>
      </trkpt>
      <trkpt lat="45.34476" lon="6.15616">
        <ele>1714</ele>
        <time>2020-02-08T11:25:58.631Z</time>
      </trkpt>
      <trkpt lat="45.34469" lon="6.15629">
        <ele>1712.952</ele>
        <time>2020-02-08T11:25:59.648Z</time>
      </trkpt>
      <trkpt lat="45.34461" lon="6.1564">
        <ele>1712.0119936</ele>
        <time>2020-02-08T11:26:00.588Z</time>
      </trkpt>
      <trkpt lat="45.34455" lon="6.15655">
        <ele>1710.9799936</ele>
        <time>2020-02-08T11:26:02.620Z</time>
      </trkpt>
      <trkpt lat="45.34448" lon="6.15664">
        <ele>1708.9799936</ele>
        <time>2020-02-08T11:26:04.620Z</time>
      </trkpt>
      <trkpt lat="45.3444" lon="6.15674">
        <ele>1706.0189952</ele>
        <time>2020-02-08T11:26:11.619Z</time>
      </trkpt>
      <trkpt lat="45.34443" lon="6.15688">
        <ele>1706</ele>
        <time>2020-02-08T11:26:22.631Z</time>
      </trkpt>
      <trkpt lat="45.34442" lon="6.15701">
        <ele>1703</ele>
        <time>2020-02-08T11:26:29.618Z</time>
      </trkpt>
      <trkpt lat="45.34439" lon="6.15714">
        <ele>1698</ele>
        <time>2020-02-08T11:27:08.630Z</time>
      </trkpt>
      <trkpt lat="45.34438" lon="6.1573">
        <ele>1697.9379968</ele>
        <time>2020-02-08T11:27:10.631Z</time>
      </trkpt>
      <trkpt lat="45.34433" lon="6.15742">
        <ele>1694.9689984</ele>
        <time>2020-02-08T11:27:12.631Z</time>
      </trkpt>
      <trkpt lat="45.34442" lon="6.15748">
        <ele>1691</ele>
        <time>2020-02-08T11:27:19.630Z</time>
      </trkpt>
      <trkpt lat="45.34433" lon="6.15751">
        <ele>1691</ele>
        <time>2020-02-08T11:27:50.631Z</time>
      </trkpt>
      <trkpt lat="45.34423" lon="6.15748">
        <ele>1691</ele>
        <time>2020-02-08T11:28:33.589Z</time>
      </trkpt>
      <trkpt lat="45.34433" lon="6.1575">
        <ele>1691</ele>
        <time>2020-02-08T11:29:29.634Z</time>
      </trkpt>
      <trkpt lat="45.34423" lon="6.1575">
        <ele>1691</ele>
        <time>2020-02-08T11:30:37.617Z</time>
      </trkpt>
      <trkpt lat="45.34415" lon="6.15741">
        <ele>1691</ele>
        <time>2020-02-08T11:30:48.620Z</time>
      </trkpt>
      <trkpt lat="45.34409" lon="6.15751">
        <ele>1691</ele>
        <time>2020-02-08T11:31:09.631Z</time>
      </trkpt>
      <trkpt lat="45.3441" lon="6.15738">
        <ele>1691</ele>
        <time>2020-02-08T11:31:26.620Z</time>
      </trkpt>
      <trkpt lat="45.34401" lon="6.15737">
        <ele>1690</ele>
        <time>2020-02-08T11:31:41.631Z</time>
      </trkpt>
      <trkpt lat="45.34409" lon="6.15741">
        <ele>1690</ele>
        <time>2020-02-08T11:32:08.631Z</time>
      </trkpt>
      <trkpt lat="45.34401" lon="6.15744">
        <ele>1691</ele>
        <time>2020-02-08T11:32:30.631Z</time>
      </trkpt>
      <trkpt lat="45.34398" lon="6.1573">
        <ele>1692</ele>
        <time>2020-02-08T11:33:13.630Z</time>
      </trkpt>
      <trkpt lat="45.34408" lon="6.15724">
        <ele>1692</ele>
        <time>2020-02-08T11:33:19.619Z</time>
      </trkpt>
      <trkpt lat="45.34418" lon="6.15718">
        <ele>1692</ele>
        <time>2020-02-08T11:33:25.631Z</time>
      </trkpt>
      <trkpt lat="45.34422" lon="6.15707">
        <ele>1693</ele>
        <time>2020-02-08T11:33:36.631Z</time>
      </trkpt>
      <trkpt lat="45.34431" lon="6.15704">
        <ele>1694</ele>
        <time>2020-02-08T11:33:44.619Z</time>
      </trkpt>
      <trkpt lat="45.34438" lon="6.15692">
        <ele>1696</ele>
        <time>2020-02-08T11:33:56.631Z</time>
      </trkpt>
      <trkpt lat="45.34429" lon="6.15702">
        <ele>1696</ele>
        <time>2020-02-08T11:34:52.631Z</time>
      </trkpt>
      <trkpt lat="45.34438" lon="6.15708">
        <ele>1697</ele>
        <time>2020-02-08T11:35:01.620Z</time>
      </trkpt>
      <trkpt lat="45.34429" lon="6.15705">
        <ele>1697</ele>
        <time>2020-02-08T11:35:16.618Z</time>
      </trkpt>
      <trkpt lat="45.34427" lon="6.15692">
        <ele>1699.0179968</ele>
        <time>2020-02-08T11:35:33.618Z</time>
      </trkpt>
      <trkpt lat="45.3443" lon="6.1568">
        <ele>1702</ele>
        <time>2020-02-08T11:35:53.619Z</time>
      </trkpt>
      <trkpt lat="45.34429" lon="6.15667">
        <ele>1704</ele>
        <time>2020-02-08T11:37:11.618Z</time>
      </trkpt>
      <trkpt lat="45.34425" lon="6.15656">
        <ele>1704</ele>
        <time>2020-02-08T11:40:22.620Z</time>
      </trkpt>
      <trkpt lat="45.34426" lon="6.15642">
        <ele>1706</ele>
        <time>2020-02-08T11:40:33.648Z</time>
      </trkpt>
      <trkpt lat="45.34425" lon="6.15629">
        <ele>1708.0200064</ele>
        <time>2020-02-08T11:40:46.620Z</time>
      </trkpt>
      <trkpt lat="45.3443" lon="6.15617">
        <ele>1712</ele>
        <time>2020-02-08T11:41:00.631Z</time>
      </trkpt>
      <trkpt lat="45.34432" lon="6.15604">
        <ele>1713</ele>
        <time>2020-02-08T11:41:08.630Z</time>
      </trkpt>
      <trkpt lat="45.34431" lon="6.15591">
        <ele>1713</ele>
        <time>2020-02-08T11:41:16.620Z</time>
      </trkpt>
      <trkpt lat="45.34437" lon="6.1558">
        <ele>1713</ele>
        <time>2020-02-08T11:41:23.630Z</time>
      </trkpt>
      <trkpt lat="45.3444" lon="6.15567">
        <ele>1714.0200064</ele>
        <time>2020-02-08T11:41:32.620Z</time>
      </trkpt>
      <trkpt lat="45.34437" lon="6.15555">
        <ele>1715</ele>
        <time>2020-02-08T11:41:40.617Z</time>
      </trkpt>
      <trkpt lat="45.34438" lon="6.15542">
        <ele>1716</ele>
        <time>2020-02-08T11:41:49.649Z</time>
      </trkpt>
      <trkpt lat="45.3444" lon="6.15526">
        <ele>1715.968</ele>
        <time>2020-02-08T11:41:56.632Z</time>
      </trkpt>
      <trkpt lat="45.34452" lon="6.15523">
        <ele>1712.9800064</ele>
        <time>2020-02-08T11:41:59.620Z</time>
      </trkpt>
      <trkpt lat="45.34461" lon="6.15539">
        <ele>1704.6070144</ele>
        <time>2020-02-08T11:42:04.731Z</time>
      </trkpt>
      <trkpt lat="45.34467" lon="6.15553">
        <ele>1699.9626485307</ele>
        <time>2020-02-08T11:42:06.631Z</time>
      </trkpt>
      <trkpt lat="45.34475" lon="6.15563">
        <ele>1696</ele>
        <time>2020-02-08T11:42:08.645Z</time>
      </trkpt>
      <trkpt lat="45.34486" lon="6.15571">
        <ele>1693.9599872</ele>
        <time>2020-02-08T11:42:10.620Z</time>
      </trkpt>
      <trkpt lat="45.34488" lon="6.15583">
        <ele>1689.9699968</ele>
        <time>2020-02-08T11:42:12.630Z</time>
      </trkpt>
      <trkpt lat="45.34492" lon="6.15596">
        <ele>1686.9399808</ele>
        <time>2020-02-08T11:42:14.620Z</time>
      </trkpt>
      <trkpt lat="45.34502" lon="6.15607">
        <ele>1682.9703609591</ele>
        <time>2020-02-08T11:42:16.620Z</time>
      </trkpt>
      <trkpt lat="45.34512" lon="6.15608">
        <ele>1678.9660032</ele>
        <time>2020-02-08T11:42:18.617Z</time>
      </trkpt>
      <trkpt lat="45.34521" lon="6.15609">
        <ele>1675.9799936</ele>
        <time>2020-02-08T11:42:20.620Z</time>
      </trkpt>
      <trkpt lat="45.34532" lon="6.15613">
        <ele>1671.9800064</ele>
        <time>2020-02-08T11:42:23.620Z</time>
      </trkpt>
      <trkpt lat="45.34533" lon="6.15626">
        <ele>1668</ele>
        <time>2020-02-08T11:42:37.633Z</time>
      </trkpt>
      <trkpt lat="45.34525" lon="6.15631">
        <ele>1668</ele>
        <time>2020-02-08T11:42:51.631Z</time>
      </trkpt>
      <trkpt lat="45.34535" lon="6.15641">
        <ele>1668</ele>
        <time>2020-02-08T11:43:14.731Z</time>
      </trkpt>
      <trkpt lat="45.34528" lon="6.15649">
        <ele>1668</ele>
        <time>2020-02-08T11:43:19.620Z</time>
      </trkpt>
      <trkpt lat="45.34537" lon="6.15638">
        <ele>1668</ele>
        <time>2020-02-08T11:43:24.631Z</time>
      </trkpt>
      <trkpt lat="45.34527" lon="6.15641">
        <ele>1668</ele>
        <time>2020-02-08T11:43:33.631Z</time>
      </trkpt>
      <trkpt lat="45.34522" lon="6.15651">
        <ele>1668</ele>
        <time>2020-02-08T11:43:48.620Z</time>
      </trkpt>
      <trkpt lat="45.34516" lon="6.15639">
        <ele>1667</ele>
        <time>2020-02-08T11:43:59.618Z</time>
      </trkpt>
      <trkpt lat="45.34511" lon="6.15628">
        <ele>1668</ele>
        <time>2020-02-08T11:44:20.620Z</time>
      </trkpt>
      <trkpt lat="45.34521" lon="6.15626">
        <ele>1668</ele>
        <time>2020-02-08T11:44:31.620Z</time>
      </trkpt>
      <trkpt lat="45.3453" lon="6.15624">
        <ele>1668</ele>
        <time>2020-02-08T11:44:36.618Z</time>
      </trkpt>
      <trkpt lat="45.3452" lon="6.15629">
        <ele>1668</ele>
        <time>2020-02-08T11:44:43.618Z</time>
      </trkpt>
      <trkpt lat="45.34512" lon="6.15636">
        <ele>1668</ele>
        <time>2020-02-08T11:44:50.620Z</time>
      </trkpt>
      <trkpt lat="45.34521" lon="6.15636">
        <ele>1668</ele>
        <time>2020-02-08T11:44:59.648Z</time>
      </trkpt>
      <trkpt lat="45.34529" lon="6.15629">
        <ele>1669</ele>
        <time>2020-02-08T11:45:46.631Z</time>
      </trkpt>
      <trkpt lat="45.34521" lon="6.15623">
        <ele>1669</ele>
        <time>2020-02-08T11:45:57.631Z</time>
      </trkpt>
      <trkpt lat="45.3451" lon="6.1562">
        <ele>1669</ele>
        <time>2020-02-08T11:46:07.618Z</time>
      </trkpt>
      <trkpt lat="45.3452" lon="6.15625">
        <ele>1669</ele>
        <time>2020-02-08T11:46:26.621Z</time>
      </trkpt>
      <trkpt lat="45.3451" lon="6.15634">
        <ele>1669</ele>
        <time>2020-02-08T11:47:10.619Z</time>
      </trkpt>
      <trkpt lat="45.34519" lon="6.1564">
        <ele>1669</ele>
        <time>2020-02-08T11:47:28.619Z</time>
      </trkpt>
      <trkpt lat="45.34528" lon="6.15638">
        <ele>1669</ele>
        <time>2020-02-08T11:47:31.631Z</time>
      </trkpt>
      <trkpt lat="45.34518" lon="6.15632">
        <ele>1669</ele>
        <time>2020-02-08T11:47:38.618Z</time>
      </trkpt>
      <trkpt lat="45.34527" lon="6.15626">
        <ele>1670</ele>
        <time>2020-02-08T11:48:28.649Z</time>
      </trkpt>
      <trkpt lat="45.34518" lon="6.15623">
        <ele>1669.7846065989</ele>
        <time>2020-02-08T11:50:21.620Z</time>
      </trkpt>
      <trkpt lat="45.3451" lon="6.15616">
        <ele>1670</ele>
        <time>2020-02-08T11:51:46.619Z</time>
      </trkpt>
      <trkpt lat="45.34513" lon="6.15603">
        <ele>1674</ele>
        <time>2020-02-08T11:52:08.620Z</time>
      </trkpt>
      <trkpt lat="45.3452" lon="6.15594">
        <ele>1677</ele>
        <time>2020-02-08T11:52:20.631Z</time>
      </trkpt>
      <trkpt lat="45.34519" lon="6.15581">
        <ele>1678</ele>
        <time>2020-02-08T11:52:37.629Z</time>
      </trkpt>
      <trkpt lat="45.3451" lon="6.15578">
        <ele>1682.0199936</ele>
        <time>2020-02-08T11:53:03.620Z</time>
      </trkpt>
      <trkpt lat="45.34502" lon="6.15568">
        <ele>1687</ele>
        <time>2020-02-08T11:53:42.619Z</time>
      </trkpt>
      <trkpt lat="45.34492" lon="6.15564">
        <ele>1687</ele>
        <time>2020-02-08T11:53:47.619Z</time>
      </trkpt>
      <trkpt lat="45.34483" lon="6.15561">
        <ele>1690</ele>
        <time>2020-02-08T11:54:09.619Z</time>
      </trkpt>
      <trkpt lat="45.34478" lon="6.1555">
        <ele>1694</ele>
        <time>2020-02-08T11:54:34.620Z</time>
      </trkpt>
      <trkpt lat="45.34475" lon="6.15538">
        <ele>1696</ele>
        <time>2020-02-08T11:54:44.621Z</time>
      </trkpt>
      <trkpt lat="45.34482" lon="6.1553">
        <ele>1698</ele>
        <time>2020-02-08T11:54:59.630Z</time>
      </trkpt>
      <trkpt lat="45.34473" lon="6.15532">
        <ele>1700</ele>
        <time>2020-02-08T11:55:12.620Z</time>
      </trkpt>
      <trkpt lat="45.34464" lon="6.15535">
        <ele>1704</ele>
        <time>2020-02-08T11:55:38.619Z</time>
      </trkpt>
      <trkpt lat="45.34458" lon="6.15525">
        <ele>1705.0210048</ele>
        <time>2020-02-08T11:55:50.621Z</time>
      </trkpt>
      <trkpt lat="45.3446" lon="6.15511">
        <ele>1707.0200064</ele>
        <time>2020-02-08T11:56:06.620Z</time>
      </trkpt>
      <trkpt lat="45.34456" lon="6.155">
        <ele>1711</ele>
        <time>2020-02-08T11:56:29.629Z</time>
      </trkpt>
      <trkpt lat="45.34443" lon="6.15497">
        <ele>1711</ele>
        <time>2020-02-08T11:56:34.629Z</time>
      </trkpt>
      <trkpt lat="45.34441" lon="6.1551">
        <ele>1714</ele>
        <time>2020-02-08T11:56:55.619Z</time>
      </trkpt>
      <trkpt lat="45.34442" lon="6.15524">
        <ele>1715.0189952</ele>
        <time>2020-02-08T11:57:08.619Z</time>
      </trkpt>
      <trkpt lat="45.3444" lon="6.15537">
        <ele>1717</ele>
        <time>2020-02-08T11:57:39.651Z</time>
      </trkpt>
      <trkpt lat="45.34433" lon="6.15547">
        <ele>1717</ele>
        <time>2020-02-08T11:57:51.620Z</time>
      </trkpt>
      <trkpt lat="45.34423" lon="6.15549">
        <ele>1720</ele>
        <time>2020-02-08T11:58:07.660Z</time>
      </trkpt>
      <trkpt lat="45.34415" lon="6.15553">
        <ele>1721.0152622528</ele>
        <time>2020-02-08T11:58:19.620Z</time>
      </trkpt>
      <trkpt lat="45.34409" lon="6.15563">
        <ele>1724</ele>
        <time>2020-02-08T11:58:33.620Z</time>
      </trkpt>
      <trkpt lat="45.344" lon="6.1557">
        <ele>1725</ele>
        <time>2020-02-08T11:58:44.620Z</time>
      </trkpt>
      <trkpt lat="45.34393" lon="6.15579">
        <ele>1727</ele>
        <time>2020-02-08T11:58:56.590Z</time>
      </trkpt>
      <trkpt lat="45.34383" lon="6.15584">
        <ele>1729</ele>
        <time>2020-02-08T11:59:04.620Z</time>
      </trkpt>
      <trkpt lat="45.34388" lon="6.15595">
        <ele>1731</ele>
        <time>2020-02-08T11:59:22.631Z</time>
      </trkpt>
      <trkpt lat="45.34383" lon="6.15607">
        <ele>1730</ele>
        <time>2020-02-08T11:59:30.631Z</time>
      </trkpt>
      <trkpt lat="45.34376" lon="6.15619">
        <ele>1730</ele>
        <time>2020-02-08T12:00:23.619Z</time>
      </trkpt>
      <trkpt lat="45.34374" lon="6.15633">
        <ele>1728.9699968</ele>
        <time>2020-02-08T12:00:25.630Z</time>
      </trkpt>
      <trkpt lat="45.34373" lon="6.15646">
        <ele>1726.9810048</ele>
        <time>2020-02-08T12:00:27.619Z</time>
      </trkpt>
      <trkpt lat="45.34375" lon="6.15661">
        <ele>1725</ele>
        <time>2020-02-08T12:00:30.660Z</time>
      </trkpt>
      <trkpt lat="45.34368" lon="6.15671">
        <ele>1723</ele>
        <time>2020-02-08T12:00:39.631Z</time>
      </trkpt>
      <trkpt lat="45.34358" lon="6.15675">
        <ele>1723</ele>
        <time>2020-02-08T12:00:45.620Z</time>
      </trkpt>
      <trkpt lat="45.34355" lon="6.15688">
        <ele>1722</ele>
        <time>2020-02-08T12:00:52.621Z</time>
      </trkpt>
      <trkpt lat="45.3435" lon="6.157">
        <ele>1720.9789952</ele>
        <time>2020-02-08T12:00:59.621Z</time>
      </trkpt>
      <trkpt lat="45.34345" lon="6.15713">
        <ele>1719</ele>
        <time>2020-02-08T12:01:04.621Z</time>
      </trkpt>
      <trkpt lat="45.34344" lon="6.15727">
        <ele>1717.9813242653</ele>
        <time>2020-02-08T12:01:06.631Z</time>
      </trkpt>
      <trkpt lat="45.34345" lon="6.15744">
        <ele>1715</ele>
        <time>2020-02-08T12:01:08.651Z</time>
      </trkpt>
      <trkpt lat="45.34346" lon="6.15759">
        <ele>1710</ele>
        <time>2020-02-08T12:01:11.630Z</time>
      </trkpt>
      <trkpt lat="45.34348" lon="6.15774">
        <ele>1708</ele>
        <time>2020-02-08T12:01:16.629Z</time>
      </trkpt>
      <trkpt lat="45.34349" lon="6.15786">
        <ele>1706.0159127273</ele>
        <time>2020-02-08T12:01:23.621Z</time>
      </trkpt>
      <trkpt lat="45.34351" lon="6.158">
        <ele>1709</ele>
        <time>2020-02-08T12:01:35.620Z</time>
      </trkpt>
      <trkpt lat="45.34355" lon="6.15812">
        <ele>1711</ele>
        <time>2020-02-08T12:01:46.660Z</time>
      </trkpt>
      <trkpt lat="45.34359" lon="6.15824">
        <ele>1712.0199936</ele>
        <time>2020-02-08T12:01:57.620Z</time>
      </trkpt>
      <trkpt lat="45.34353" lon="6.15834">
        <ele>1714</ele>
        <time>2020-02-08T12:02:07.621Z</time>
      </trkpt>
      <trkpt lat="45.34348" lon="6.15846">
        <ele>1715.0199936</ele>
        <time>2020-02-08T12:02:17.620Z</time>
      </trkpt>
      <trkpt lat="45.34347" lon="6.15858">
        <ele>1717</ele>
        <time>2020-02-08T12:02:26.631Z</time>
      </trkpt>
      <trkpt lat="45.34345" lon="6.15871">
        <ele>1721</ele>
        <time>2020-02-08T12:02:42.619Z</time>
      </trkpt>
      <trkpt lat="45.34336" lon="6.15879">
        <ele>1723</ele>
        <time>2020-02-08T12:02:57.619Z</time>
      </trkpt>
      <trkpt lat="45.34327" lon="6.1588">
        <ele>1728</ele>
        <time>2020-02-08T12:03:18.619Z</time>
      </trkpt>
      <trkpt lat="45.34327" lon="6.15893">
        <ele>1730.0200064</ele>
        <time>2020-02-08T12:03:32.620Z</time>
      </trkpt>
      <trkpt lat="45.34317" lon="6.15891">
        <ele>1732</ele>
        <time>2020-02-08T12:04:11.631Z</time>
      </trkpt>
      <trkpt lat="45.34325" lon="6.159">
        <ele>1732</ele>
        <time>2020-02-08T12:04:38.589Z</time>
      </trkpt>
      <trkpt lat="45.34333" lon="6.15895">
        <ele>1733</ele>
        <time>2020-02-08T12:11:03.629Z</time>
      </trkpt>
      <trkpt lat="45.34342" lon="6.15898">
        <ele>1729</ele>
        <time>2020-02-08T12:11:24.619Z</time>
      </trkpt>
      <trkpt lat="45.34337" lon="6.15887">
        <ele>1728</ele>
        <time>2020-02-08T12:12:06.619Z</time>
      </trkpt>
      <trkpt lat="45.34344" lon="6.15896">
        <ele>1728</ele>
        <time>2020-02-08T12:13:37.619Z</time>
      </trkpt>
      <trkpt lat="45.34335" lon="6.15894">
        <ele>1728</ele>
        <time>2020-02-08T12:14:01.619Z</time>
      </trkpt>
      <trkpt lat="45.34343" lon="6.15886">
        <ele>1727</ele>
        <time>2020-02-08T12:15:11.620Z</time>
      </trkpt>
      <trkpt lat="45.34332" lon="6.15887">
        <ele>1728</ele>
        <time>2020-02-08T12:17:01.622Z</time>
      </trkpt>
      <trkpt lat="45.3434" lon="6.15896">
        <ele>1729</ele>
        <time>2020-02-08T12:17:53.634Z</time>
      </trkpt>
      <trkpt lat="45.3433" lon="6.15899">
        <ele>1729</ele>
        <time>2020-02-08T12:18:05.620Z</time>
      </trkpt>
      <trkpt lat="45.34338" lon="6.15892">
        <ele>1730</ele>
        <time>2020-02-08T12:18:38.619Z</time>
      </trkpt>
      <trkpt lat="45.34328" lon="6.15892">
        <ele>1729</ele>
        <time>2020-02-08T12:20:07.618Z</time>
      </trkpt>
      <trkpt lat="45.34337" lon="6.15895">
        <ele>1728</ele>
        <time>2020-02-08T12:21:44.588Z</time>
      </trkpt>
      <trkpt lat="45.34346" lon="6.159">
        <ele>1730</ele>
        <time>2020-02-08T12:24:42.618Z</time>
      </trkpt>
      <trkpt lat="45.34338" lon="6.15891">
        <ele>1730</ele>
        <time>2020-02-08T12:24:51.620Z</time>
      </trkpt>
      <trkpt lat="45.34346" lon="6.15897">
        <ele>1730</ele>
        <time>2020-02-08T12:26:23.618Z</time>
      </trkpt>
      <trkpt lat="45.34337" lon="6.15888">
        <ele>1730</ele>
        <time>2020-02-08T12:26:39.620Z</time>
      </trkpt>
      <trkpt lat="45.34341" lon="6.159">
        <ele>1729</ele>
        <time>2020-02-08T12:28:41.650Z</time>
      </trkpt>
      <trkpt lat="45.34333" lon="6.15895">
        <ele>1729</ele>
        <time>2020-02-08T12:29:11.620Z</time>
      </trkpt>
      <trkpt lat="45.34342" lon="6.15896">
        <ele>1729</ele>
        <time>2020-02-08T12:29:34.620Z</time>
      </trkpt>
      <trkpt lat="45.34334" lon="6.15889">
        <ele>1729.9872192174</ele>
        <time>2020-02-08T12:31:55.617Z</time>
      </trkpt>
      <trkpt lat="45.34326" lon="6.15883">
        <ele>1730</ele>
        <time>2020-02-08T12:31:58.619Z</time>
      </trkpt>
      <trkpt lat="45.34334" lon="6.15889">
        <ele>1730</ele>
        <time>2020-02-08T12:32:10.650Z</time>
      </trkpt>
      <trkpt lat="45.34344" lon="6.15892">
        <ele>1730</ele>
        <time>2020-02-08T12:32:32.618Z</time>
      </trkpt>
      <trkpt lat="45.34334" lon="6.1589">
        <ele>1730</ele>
        <time>2020-02-08T12:33:50.618Z</time>
      </trkpt>
      <trkpt lat="45.34325" lon="6.15885">
        <ele>1728</ele>
        <time>2020-02-08T12:38:04.618Z</time>
      </trkpt>
      <trkpt lat="45.34328" lon="6.15873">
        <ele>1727</ele>
        <time>2020-02-08T12:39:21.631Z</time>
      </trkpt>
      <trkpt lat="45.34319" lon="6.15873">
        <ele>1727</ele>
        <time>2020-02-08T12:39:31.621Z</time>
      </trkpt>
      <trkpt lat="45.3431" lon="6.1587">
        <ele>1727</ele>
        <time>2020-02-08T12:40:11.617Z</time>
      </trkpt>
      <trkpt lat="45.3432" lon="6.15876">
        <ele>1723</ele>
        <time>2020-02-08T12:41:40.631Z</time>
      </trkpt>
      <trkpt lat="45.34328" lon="6.15884">
        <ele>1721</ele>
        <time>2020-02-08T12:42:00.631Z</time>
      </trkpt>
      <trkpt lat="45.34334" lon="6.15894">
        <ele>1720</ele>
        <time>2020-02-08T12:42:41.621Z</time>
      </trkpt>
      <trkpt lat="45.3434" lon="6.15885">
        <ele>1723</ele>
        <time>2020-02-08T12:48:16.618Z</time>
      </trkpt>
      <trkpt lat="45.34332" lon="6.15892">
        <ele>1723</ele>
        <time>2020-02-08T12:54:09.621Z</time>
      </trkpt>
      <trkpt lat="45.34323" lon="6.15895">
        <ele>1726</ele>
        <time>2020-02-08T12:54:38.632Z</time>
      </trkpt>
      <trkpt lat="45.34316" lon="6.15905">
        <ele>1734</ele>
        <time>2020-02-08T13:05:32.621Z</time>
      </trkpt>
      <trkpt lat="45.34307" lon="6.1591">
        <ele>1735</ele>
        <time>2020-02-08T13:06:37.617Z</time>
      </trkpt>
      <trkpt lat="45.34301" lon="6.15919">
        <ele>1737</ele>
        <time>2020-02-08T13:06:51.617Z</time>
      </trkpt>
      <trkpt lat="45.34294" lon="6.1593">
        <ele>1740.0269952</ele>
        <time>2020-02-08T13:07:10.627Z</time>
      </trkpt>
      <trkpt lat="45.34288" lon="6.1594">
        <ele>1742</ele>
        <time>2020-02-08T13:07:23.622Z</time>
      </trkpt>
      <trkpt lat="45.3428" lon="6.15946">
        <ele>1745</ele>
        <time>2020-02-08T13:07:37.617Z</time>
      </trkpt>
      <trkpt lat="45.34272" lon="6.15954">
        <ele>1746</ele>
        <time>2020-02-08T13:07:51.617Z</time>
      </trkpt>
      <trkpt lat="45.34264" lon="6.15959">
        <ele>1747</ele>
        <time>2020-02-08T13:08:06.617Z</time>
      </trkpt>
      <trkpt lat="45.34254" lon="6.1596">
        <ele>1749</ele>
        <time>2020-02-08T13:08:19.617Z</time>
      </trkpt>
      <trkpt lat="45.34247" lon="6.15968">
        <ele>1750</ele>
        <time>2020-02-08T13:10:01.620Z</time>
      </trkpt>
      <trkpt lat="45.34237" lon="6.1597">
        <ele>1750.2113648485</ele>
        <time>2020-02-08T13:10:09.631Z</time>
      </trkpt>
      <trkpt lat="45.34228" lon="6.15972">
        <ele>1750</ele>
        <time>2020-02-08T13:10:14.632Z</time>
      </trkpt>
      <trkpt lat="45.34219" lon="6.15977">
        <ele>1749</ele>
        <time>2020-02-08T13:10:23.617Z</time>
      </trkpt>
      <trkpt lat="45.34211" lon="6.15985">
        <ele>1751</ele>
        <time>2020-02-08T13:10:34.627Z</time>
      </trkpt>
      <trkpt lat="45.34202" lon="6.15993">
        <ele>1751</ele>
        <time>2020-02-08T13:10:44.627Z</time>
      </trkpt>
      <trkpt lat="45.34195" lon="6.16001">
        <ele>1751</ele>
        <time>2020-02-08T13:10:57.620Z</time>
      </trkpt>
      <trkpt lat="45.34187" lon="6.16009">
        <ele>1751</ele>
        <time>2020-02-08T13:11:16.617Z</time>
      </trkpt>
      <trkpt lat="45.34178" lon="6.16014">
        <ele>1752</ele>
        <time>2020-02-08T13:11:25.617Z</time>
      </trkpt>
      <trkpt lat="45.34171" lon="6.16022">
        <ele>1752</ele>
        <time>2020-02-08T13:11:36.620Z</time>
      </trkpt>
      <trkpt lat="45.34165" lon="6.16032">
        <ele>1752</ele>
        <time>2020-02-08T13:11:45.621Z</time>
      </trkpt>
      <trkpt lat="45.34165" lon="6.16045">
        <ele>1752</ele>
        <time>2020-02-08T13:12:29.630Z</time>
      </trkpt>
      <trkpt lat="45.34158" lon="6.16053">
        <ele>1753</ele>
        <time>2020-02-08T13:12:41.622Z</time>
      </trkpt>
      <trkpt lat="45.34149" lon="6.16056">
        <ele>1754</ele>
        <time>2020-02-08T13:12:52.622Z</time>
      </trkpt>
      <trkpt lat="45.3414" lon="6.16059">
        <ele>1755</ele>
        <time>2020-02-08T13:13:01.619Z</time>
      </trkpt>
      <trkpt lat="45.3413" lon="6.1606">
        <ele>1756</ele>
        <time>2020-02-08T13:13:15.620Z</time>
      </trkpt>
      <trkpt lat="45.34121" lon="6.16063">
        <ele>1756.0262346063</ele>
        <time>2020-02-08T13:13:25.617Z</time>
      </trkpt>
      <trkpt lat="45.34112" lon="6.16064">
        <ele>1758</ele>
        <time>2020-02-08T13:13:34.630Z</time>
      </trkpt>
      <trkpt lat="45.34102" lon="6.16065">
        <ele>1758</ele>
        <time>2020-02-08T13:13:42.617Z</time>
      </trkpt>
      <trkpt lat="45.34093" lon="6.16066">
        <ele>1758.9730048</ele>
        <time>2020-02-08T13:13:52.617Z</time>
      </trkpt>
      <trkpt lat="45.34083" lon="6.16069">
        <ele>1759.04</ele>
        <time>2020-02-08T13:14:04.630Z</time>
      </trkpt>
      <trkpt lat="45.34075" lon="6.16075">
        <ele>1762</ele>
        <time>2020-02-08T13:14:16.631Z</time>
      </trkpt>
      <trkpt lat="45.34066" lon="6.1608">
        <ele>1765</ele>
        <time>2020-02-08T13:14:32.617Z</time>
      </trkpt>
      <trkpt lat="45.34056" lon="6.16084">
        <ele>1767</ele>
        <time>2020-02-08T13:14:45.617Z</time>
      </trkpt>
      <trkpt lat="45.34048" lon="6.16091">
        <ele>1770</ele>
        <time>2020-02-08T13:15:00.617Z</time>
      </trkpt>
      <trkpt lat="45.34039" lon="6.16094">
        <ele>1770</ele>
        <time>2020-02-08T13:15:15.622Z</time>
      </trkpt>
      <trkpt lat="45.34029" lon="6.16095">
        <ele>1771</ele>
        <time>2020-02-08T13:15:27.622Z</time>
      </trkpt>
      <trkpt lat="45.34019" lon="6.16094">
        <ele>1772</ele>
        <time>2020-02-08T13:16:04.632Z</time>
      </trkpt>
      <trkpt lat="45.34009" lon="6.16096">
        <ele>1773</ele>
        <time>2020-02-08T13:16:14.633Z</time>
      </trkpt>
      <trkpt lat="45.34" lon="6.16097">
        <ele>1773</ele>
        <time>2020-02-08T13:16:23.617Z</time>
      </trkpt>
      <trkpt lat="45.33991" lon="6.16101">
        <ele>1775</ele>
        <time>2020-02-08T13:16:33.617Z</time>
      </trkpt>
      <trkpt lat="45.33982" lon="6.16104">
        <ele>1775</ele>
        <time>2020-02-08T13:16:44.632Z</time>
      </trkpt>
      <trkpt lat="45.33973" lon="6.1611">
        <ele>1777</ele>
        <time>2020-02-08T13:16:55.620Z</time>
      </trkpt>
      <trkpt lat="45.33966" lon="6.16119">
        <ele>1778</ele>
        <time>2020-02-08T13:17:07.617Z</time>
      </trkpt>
      <trkpt lat="45.33958" lon="6.16125">
        <ele>1778</ele>
        <time>2020-02-08T13:17:18.620Z</time>
      </trkpt>
      <trkpt lat="45.33949" lon="6.16131">
        <ele>1779</ele>
        <time>2020-02-08T13:17:29.632Z</time>
      </trkpt>
      <trkpt lat="45.3394" lon="6.16136">
        <ele>1780</ele>
        <time>2020-02-08T13:17:40.617Z</time>
      </trkpt>
      <trkpt lat="45.33931" lon="6.16139">
        <ele>1782</ele>
        <time>2020-02-08T13:17:51.617Z</time>
      </trkpt>
      <trkpt lat="45.33923" lon="6.16142">
        <ele>1782.0300032</ele>
        <time>2020-02-08T13:18:02.620Z</time>
      </trkpt>
      <trkpt lat="45.33913" lon="6.16142">
        <ele>1783</ele>
        <time>2020-02-08T13:18:12.622Z</time>
      </trkpt>
      <trkpt lat="45.33904" lon="6.16147">
        <ele>1784</ele>
        <time>2020-02-08T13:18:23.620Z</time>
      </trkpt>
      <trkpt lat="45.33895" lon="6.16144">
        <ele>1785</ele>
        <time>2020-02-08T13:18:32.618Z</time>
      </trkpt>
      <trkpt lat="45.33886" lon="6.16142">
        <ele>1786</ele>
        <time>2020-02-08T13:18:42.617Z</time>
      </trkpt>
      <trkpt lat="45.33877" lon="6.16142">
        <ele>1787</ele>
        <time>2020-02-08T13:18:54.632Z</time>
      </trkpt>
      <trkpt lat="45.33867" lon="6.16139">
        <ele>1789</ele>
        <time>2020-02-08T13:19:05.617Z</time>
      </trkpt>
      <trkpt lat="45.33858" lon="6.16135">
        <ele>1790</ele>
        <time>2020-02-08T13:19:19.632Z</time>
      </trkpt>
      <trkpt lat="45.3385" lon="6.16127">
        <ele>1791</ele>
        <time>2020-02-08T13:19:32.617Z</time>
      </trkpt>
      <trkpt lat="45.33842" lon="6.16121">
        <ele>1793</ele>
        <time>2020-02-08T13:19:46.617Z</time>
      </trkpt>
      <trkpt lat="45.33832" lon="6.1612">
        <ele>1795</ele>
        <time>2020-02-08T13:20:00.618Z</time>
      </trkpt>
      <trkpt lat="45.33823" lon="6.16122">
        <ele>1798</ele>
        <time>2020-02-08T13:20:15.617Z</time>
      </trkpt>
      <trkpt lat="45.33814" lon="6.16126">
        <ele>1801</ele>
        <time>2020-02-08T13:20:29.635Z</time>
      </trkpt>
      <trkpt lat="45.33806" lon="6.16133">
        <ele>1803</ele>
        <time>2020-02-08T13:20:42.617Z</time>
      </trkpt>
      <trkpt lat="45.33797" lon="6.16135">
        <ele>1804.9730048</ele>
        <time>2020-02-08T13:20:56.617Z</time>
      </trkpt>
      <trkpt lat="45.33787" lon="6.16135">
        <ele>1806</ele>
        <time>2020-02-08T13:21:08.617Z</time>
      </trkpt>
      <trkpt lat="45.33782" lon="6.16124">
        <ele>1808</ele>
        <time>2020-02-08T13:21:25.618Z</time>
      </trkpt>
      <trkpt lat="45.33772" lon="6.16124">
        <ele>1811.0310678646</ele>
        <time>2020-02-08T13:21:47.622Z</time>
      </trkpt>
      <trkpt lat="45.33764" lon="6.16131">
        <ele>1813.0313727459</ele>
        <time>2020-02-08T13:21:58.622Z</time>
      </trkpt>
      <trkpt lat="45.33755" lon="6.16132">
        <ele>1815</ele>
        <time>2020-02-08T13:22:09.635Z</time>
      </trkpt>
      <trkpt lat="45.33747" lon="6.16138">
        <ele>1815.9580032</ele>
        <time>2020-02-08T13:22:19.632Z</time>
      </trkpt>
      <trkpt lat="45.33738" lon="6.16135">
        <ele>1816</ele>
        <time>2020-02-08T13:22:29.632Z</time>
      </trkpt>
      <trkpt lat="45.33729" lon="6.16133">
        <ele>1816</ele>
        <time>2020-02-08T13:22:39.632Z</time>
      </trkpt>
      <trkpt lat="45.33719" lon="6.16134">
        <ele>1817</ele>
        <time>2020-02-08T13:22:48.617Z</time>
      </trkpt>
      <trkpt lat="45.3371" lon="6.16131">
        <ele>1819</ele>
        <time>2020-02-08T13:23:07.618Z</time>
      </trkpt>
      <trkpt lat="45.33701" lon="6.16132">
        <ele>1820</ele>
        <time>2020-02-08T13:23:21.620Z</time>
      </trkpt>
      <trkpt lat="45.33692" lon="6.16135">
        <ele>1821</ele>
        <time>2020-02-08T13:23:31.620Z</time>
      </trkpt>
      <trkpt lat="45.33683" lon="6.16138">
        <ele>1822</ele>
        <time>2020-02-08T13:23:43.618Z</time>
      </trkpt>
      <trkpt lat="45.33674" lon="6.16142">
        <ele>1823</ele>
        <time>2020-02-08T13:23:53.618Z</time>
      </trkpt>
      <trkpt lat="45.33665" lon="6.16147">
        <ele>1824</ele>
        <time>2020-02-08T13:24:05.618Z</time>
      </trkpt>
      <trkpt lat="45.33657" lon="6.16153">
        <ele>1823</ele>
        <time>2020-02-08T13:24:15.618Z</time>
      </trkpt>
      <trkpt lat="45.33649" lon="6.16161">
        <ele>1823</ele>
        <time>2020-02-08T13:24:25.620Z</time>
      </trkpt>
      <trkpt lat="45.33641" lon="6.16165">
        <ele>1825</ele>
        <time>2020-02-08T13:24:37.620Z</time>
      </trkpt>
      <trkpt lat="45.33632" lon="6.16169">
        <ele>1825</ele>
        <time>2020-02-08T13:24:51.618Z</time>
      </trkpt>
      <trkpt lat="45.33624" lon="6.16177">
        <ele>1825</ele>
        <time>2020-02-08T13:25:03.618Z</time>
      </trkpt>
      <trkpt lat="45.33615" lon="6.16182">
        <ele>1827</ele>
        <time>2020-02-08T13:25:14.632Z</time>
      </trkpt>
      <trkpt lat="45.33606" lon="6.16187">
        <ele>1828</ele>
        <time>2020-02-08T13:25:25.619Z</time>
      </trkpt>
      <trkpt lat="45.33596" lon="6.1619">
        <ele>1828</ele>
        <time>2020-02-08T13:25:38.617Z</time>
      </trkpt>
      <trkpt lat="45.33587" lon="6.16195">
        <ele>1831</ele>
        <time>2020-02-08T13:25:50.622Z</time>
      </trkpt>
      <trkpt lat="45.33579" lon="6.16203">
        <ele>1833</ele>
        <time>2020-02-08T13:26:04.632Z</time>
      </trkpt>
      <trkpt lat="45.33571" lon="6.1621">
        <ele>1835</ele>
        <time>2020-02-08T13:26:17.617Z</time>
      </trkpt>
      <trkpt lat="45.33565" lon="6.1622">
        <ele>1836.028992</ele>
        <time>2020-02-08T13:26:27.619Z</time>
      </trkpt>
      <trkpt lat="45.33561" lon="6.16232">
        <ele>1838</ele>
        <time>2020-02-08T13:27:42.618Z</time>
      </trkpt>
      <trkpt lat="45.33553" lon="6.16238">
        <ele>1839</ele>
        <time>2020-02-08T13:28:52.618Z</time>
      </trkpt>
      <trkpt lat="45.3355" lon="6.16251">
        <ele>1839.028992</ele>
        <time>2020-02-08T13:29:37.619Z</time>
      </trkpt>
      <trkpt lat="45.33543" lon="6.1626">
        <ele>1840.0269952</ele>
        <time>2020-02-08T13:29:52.617Z</time>
      </trkpt>
      <trkpt lat="45.33541" lon="6.16273">
        <ele>1842</ele>
        <time>2020-02-08T13:30:09.619Z</time>
      </trkpt>
      <trkpt lat="45.33538" lon="6.16285">
        <ele>1843</ele>
        <time>2020-02-08T13:30:23.620Z</time>
      </trkpt>
      <trkpt lat="45.33534" lon="6.16297">
        <ele>1846</ele>
        <time>2020-02-08T13:30:34.618Z</time>
      </trkpt>
      <trkpt lat="45.3353" lon="6.1631">
        <ele>1847</ele>
        <time>2020-02-08T13:30:46.618Z</time>
      </trkpt>
      <trkpt lat="45.33524" lon="6.1632">
        <ele>1849</ele>
        <time>2020-02-08T13:30:57.628Z</time>
      </trkpt>
      <trkpt lat="45.33522" lon="6.16333">
        <ele>1851</ele>
        <time>2020-02-08T13:31:12.627Z</time>
      </trkpt>
      <trkpt lat="45.33518" lon="6.16346">
        <ele>1853</ele>
        <time>2020-02-08T13:31:25.618Z</time>
      </trkpt>
      <trkpt lat="45.33515" lon="6.16359">
        <ele>1854.0411735917</ele>
        <time>2020-02-08T13:31:47.632Z</time>
      </trkpt>
      <trkpt lat="45.33517" lon="6.16372">
        <ele>1856</ele>
        <time>2020-02-08T13:32:17.631Z</time>
      </trkpt>
      <trkpt lat="45.33518" lon="6.16385">
        <ele>1858</ele>
        <time>2020-02-08T13:32:31.621Z</time>
      </trkpt>
      <trkpt lat="45.33518" lon="6.16398">
        <ele>1861</ele>
        <time>2020-02-08T13:32:48.618Z</time>
      </trkpt>
      <trkpt lat="45.33519" lon="6.16411">
        <ele>1862</ele>
        <time>2020-02-08T13:33:00.621Z</time>
      </trkpt>
      <trkpt lat="45.33527" lon="6.16406">
        <ele>1865</ele>
        <time>2020-02-08T13:33:21.618Z</time>
      </trkpt>
      <trkpt lat="45.33535" lon="6.16401">
        <ele>1867</ele>
        <time>2020-02-08T13:33:36.618Z</time>
      </trkpt>
      <trkpt lat="45.33542" lon="6.16392">
        <ele>1870</ele>
        <time>2020-02-08T13:33:53.618Z</time>
      </trkpt>
      <trkpt lat="45.33539" lon="6.16405">
        <ele>1875</ele>
        <time>2020-02-08T13:34:12.633Z</time>
      </trkpt>
      <trkpt lat="45.33537" lon="6.16417">
        <ele>1877</ele>
        <time>2020-02-08T13:34:29.618Z</time>
      </trkpt>
      <trkpt lat="45.33536" lon="6.1643">
        <ele>1880</ele>
        <time>2020-02-08T13:35:02.628Z</time>
      </trkpt>
      <trkpt lat="45.33537" lon="6.16443">
        <ele>1883</ele>
        <time>2020-02-08T13:35:42.631Z</time>
      </trkpt>
      <trkpt lat="45.33538" lon="6.16456">
        <ele>1886</ele>
        <time>2020-02-08T13:35:56.631Z</time>
      </trkpt>
      <trkpt lat="45.33548" lon="6.16456">
        <ele>1891</ele>
        <time>2020-02-08T13:36:35.617Z</time>
      </trkpt>
      <trkpt lat="45.33554" lon="6.16447">
        <ele>1893.0300032</ele>
        <time>2020-02-08T13:36:50.620Z</time>
      </trkpt>
      <trkpt lat="45.33562" lon="6.1644">
        <ele>1897</ele>
        <time>2020-02-08T13:37:10.619Z</time>
      </trkpt>
      <trkpt lat="45.33558" lon="6.16451">
        <ele>1900</ele>
        <time>2020-02-08T13:38:04.633Z</time>
      </trkpt>
      <trkpt lat="45.33555" lon="6.16463">
        <ele>1903</ele>
        <time>2020-02-08T13:38:45.622Z</time>
      </trkpt>
      <trkpt lat="45.33564" lon="6.1646">
        <ele>1910</ele>
        <time>2020-02-08T13:39:52.621Z</time>
      </trkpt>
      <trkpt lat="45.33569" lon="6.16471">
        <ele>1912</ele>
        <time>2020-02-08T13:40:06.620Z</time>
      </trkpt>
      <trkpt lat="45.33567" lon="6.16485">
        <ele>1914</ele>
        <time>2020-02-08T13:40:30.618Z</time>
      </trkpt>
      <trkpt lat="45.33563" lon="6.16496">
        <ele>1916</ele>
        <time>2020-02-08T13:41:32.618Z</time>
      </trkpt>
      <trkpt lat="45.33568" lon="6.16486">
        <ele>1916</ele>
        <time>2020-02-08T13:42:19.631Z</time>
      </trkpt>
      <trkpt lat="45.33564" lon="6.16498">
        <ele>1918</ele>
        <time>2020-02-08T13:44:00.619Z</time>
      </trkpt>
      <trkpt lat="45.33559" lon="6.16508">
        <ele>1921</ele>
        <time>2020-02-08T13:44:13.619Z</time>
      </trkpt>
      <trkpt lat="45.33559" lon="6.16522">
        <ele>1924</ele>
        <time>2020-02-08T13:44:45.619Z</time>
      </trkpt>
      <trkpt lat="45.33567" lon="6.16516">
        <ele>1926</ele>
        <time>2020-02-08T13:45:07.622Z</time>
      </trkpt>
      <trkpt lat="45.33575" lon="6.16509">
        <ele>1928</ele>
        <time>2020-02-08T13:45:18.622Z</time>
      </trkpt>
      <trkpt lat="45.33584" lon="6.16512">
        <ele>1930</ele>
        <time>2020-02-08T13:45:30.622Z</time>
      </trkpt>
      <trkpt lat="45.33585" lon="6.16525">
        <ele>1932</ele>
        <time>2020-02-08T13:45:43.631Z</time>
      </trkpt>
      <trkpt lat="45.33583" lon="6.16538">
        <ele>1934</ele>
        <time>2020-02-08T13:46:07.634Z</time>
      </trkpt>
      <trkpt lat="45.33578" lon="6.16549">
        <ele>1937</ele>
        <time>2020-02-08T13:46:18.619Z</time>
      </trkpt>
      <trkpt lat="45.33573" lon="6.1656">
        <ele>1938.028992</ele>
        <time>2020-02-08T13:46:31.619Z</time>
      </trkpt>
      <trkpt lat="45.33567" lon="6.16572">
        <ele>1941</ele>
        <time>2020-02-08T13:46:44.619Z</time>
      </trkpt>
      <trkpt lat="45.33564" lon="6.16584">
        <ele>1945</ele>
        <time>2020-02-08T13:47:01.620Z</time>
      </trkpt>
      <trkpt lat="45.33561" lon="6.16596">
        <ele>1946</ele>
        <time>2020-02-08T13:47:13.619Z</time>
      </trkpt>
      <trkpt lat="45.33558" lon="6.16609">
        <ele>1947</ele>
        <time>2020-02-08T13:47:24.619Z</time>
      </trkpt>
      <trkpt lat="45.33563" lon="6.1662">
        <ele>1948.9718521648</ele>
        <time>2020-02-08T13:48:34.619Z</time>
      </trkpt>
      <trkpt lat="45.33562" lon="6.16634">
        <ele>1947</ele>
        <time>2020-02-08T13:48:46.635Z</time>
      </trkpt>
      <trkpt lat="45.33558" lon="6.16646">
        <ele>1947</ele>
        <time>2020-02-08T13:48:57.619Z</time>
      </trkpt>
      <trkpt lat="45.33561" lon="6.1666">
        <ele>1947</ele>
        <time>2020-02-08T13:49:21.631Z</time>
      </trkpt>
      <trkpt lat="45.33557" lon="6.16671">
        <ele>1947.0439936</ele>
        <time>2020-02-08T13:49:28.634Z</time>
      </trkpt>
      <trkpt lat="45.33549" lon="6.16681">
        <ele>1947</ele>
        <time>2020-02-08T13:49:37.631Z</time>
      </trkpt>
      <trkpt lat="45.33544" lon="6.16695">
        <ele>1946</ele>
        <time>2020-02-08T13:49:45.631Z</time>
      </trkpt>
      <trkpt lat="45.33535" lon="6.16703">
        <ele>1947</ele>
        <time>2020-02-08T13:49:53.619Z</time>
      </trkpt>
      <trkpt lat="45.33532" lon="6.16717">
        <ele>1947</ele>
        <time>2020-02-08T13:50:02.631Z</time>
      </trkpt>
      <trkpt lat="45.3353" lon="6.1673">
        <ele>1947</ele>
        <time>2020-02-08T13:50:13.631Z</time>
      </trkpt>
      <trkpt lat="45.33526" lon="6.16743">
        <ele>1947.028992</ele>
        <time>2020-02-08T13:50:25.619Z</time>
      </trkpt>
      <trkpt lat="45.33517" lon="6.1675">
        <ele>1948</ele>
        <time>2020-02-08T13:50:33.619Z</time>
      </trkpt>
      <trkpt lat="45.33513" lon="6.16764">
        <ele>1948</ele>
        <time>2020-02-08T13:50:42.629Z</time>
      </trkpt>
      <trkpt lat="45.33507" lon="6.16775">
        <ele>1949</ele>
        <time>2020-02-08T13:50:53.619Z</time>
      </trkpt>
      <trkpt lat="45.33502" lon="6.16787">
        <ele>1949</ele>
        <time>2020-02-08T13:51:03.619Z</time>
      </trkpt>
      <trkpt lat="45.33497" lon="6.16798">
        <ele>1950</ele>
        <time>2020-02-08T13:51:10.619Z</time>
      </trkpt>
      <trkpt lat="45.33494" lon="6.16811">
        <ele>1950</ele>
        <time>2020-02-08T13:51:18.619Z</time>
      </trkpt>
      <trkpt lat="45.33489" lon="6.16823">
        <ele>1951</ele>
        <time>2020-02-08T13:51:27.633Z</time>
      </trkpt>
      <trkpt lat="45.33485" lon="6.16835">
        <ele>1951</ele>
        <time>2020-02-08T13:51:36.619Z</time>
      </trkpt>
      <trkpt lat="45.33481" lon="6.16847">
        <ele>1953</ele>
        <time>2020-02-08T13:51:47.629Z</time>
      </trkpt>
      <trkpt lat="45.33476" lon="6.16859">
        <ele>1954</ele>
        <time>2020-02-08T13:51:57.629Z</time>
      </trkpt>
      <trkpt lat="45.33469" lon="6.16869">
        <ele>1954</ele>
        <time>2020-02-08T13:52:04.619Z</time>
      </trkpt>
      <trkpt lat="45.33463" lon="6.1688">
        <ele>1953</ele>
        <time>2020-02-08T13:52:08.619Z</time>
      </trkpt>
      <trkpt lat="45.33458" lon="6.16892">
        <ele>1950</ele>
        <time>2020-02-08T13:52:14.619Z</time>
      </trkpt>
      <trkpt lat="45.33453" lon="6.16904">
        <ele>1951</ele>
        <time>2020-02-08T13:52:29.619Z</time>
      </trkpt>
      <trkpt lat="45.33451" lon="6.16917">
        <ele>1952</ele>
        <time>2020-02-08T13:52:39.619Z</time>
      </trkpt>
      <trkpt lat="45.3345" lon="6.1693">
        <ele>1954</ele>
        <time>2020-02-08T13:52:51.619Z</time>
      </trkpt>
      <trkpt lat="45.33449" lon="6.16943">
        <ele>1953</ele>
        <time>2020-02-08T13:52:58.619Z</time>
      </trkpt>
      <trkpt lat="45.3345" lon="6.16956">
        <ele>1954.0390016</ele>
        <time>2020-02-08T13:53:07.629Z</time>
      </trkpt>
      <trkpt lat="45.33452" lon="6.16969">
        <ele>1956</ele>
        <time>2020-02-08T13:53:17.632Z</time>
      </trkpt>
      <trkpt lat="45.33453" lon="6.16983">
        <ele>1956</ele>
        <time>2020-02-08T13:53:24.619Z</time>
      </trkpt>
      <trkpt lat="45.33454" lon="6.16996">
        <ele>1955</ele>
        <time>2020-02-08T13:53:32.633Z</time>
      </trkpt>
      <trkpt lat="45.3345" lon="6.17009">
        <ele>1955</ele>
        <time>2020-02-08T13:53:38.619Z</time>
      </trkpt>
      <trkpt lat="45.33442" lon="6.17015">
        <ele>1954</ele>
        <time>2020-02-08T13:53:46.619Z</time>
      </trkpt>
      <trkpt lat="45.33438" lon="6.17035">
        <ele>1955</ele>
        <time>2020-02-08T14:02:20.631Z</time>
      </trkpt>
      <trkpt lat="45.33444" lon="6.17024">
        <ele>1955</ele>
        <time>2020-02-08T14:02:23.631Z</time>
      </trkpt>
      <trkpt lat="45.33435" lon="6.17021">
        <ele>1954</ele>
        <time>2020-02-08T14:03:42.620Z</time>
      </trkpt>
      <trkpt lat="45.33427" lon="6.17028">
        <ele>1954</ele>
        <time>2020-02-08T14:04:42.619Z</time>
      </trkpt>
      <trkpt lat="45.33437" lon="6.17029">
        <ele>1954</ele>
        <time>2020-02-08T14:04:47.619Z</time>
      </trkpt>
      <trkpt lat="45.33438" lon="6.17015">
        <ele>1954</ele>
        <time>2020-02-08T14:05:30.631Z</time>
      </trkpt>
      <trkpt lat="45.33446" lon="6.1701">
        <ele>1956</ele>
        <time>2020-02-08T14:07:41.617Z</time>
      </trkpt>
      <trkpt lat="45.33455" lon="6.17014">
        <ele>1955</ele>
        <time>2020-02-08T14:11:48.634Z</time>
      </trkpt>
      <trkpt lat="45.33447" lon="6.17009">
        <ele>1954</ele>
        <time>2020-02-08T14:13:01.631Z</time>
      </trkpt>
      <trkpt lat="45.33447" lon="6.17023">
        <ele>1955</ele>
        <time>2020-02-08T14:16:50.631Z</time>
      </trkpt>
      <trkpt lat="45.33438" lon="6.17026">
        <ele>1955</ele>
        <time>2020-02-08T14:19:07.620Z</time>
      </trkpt>
      <trkpt lat="45.33429" lon="6.17032">
        <ele>1954</ele>
        <time>2020-02-08T14:19:26.629Z</time>
      </trkpt>
      <trkpt lat="45.3342" lon="6.17038">
        <ele>1952</ele>
        <time>2020-02-08T14:19:34.620Z</time>
      </trkpt>
      <trkpt lat="45.33418" lon="6.1705">
        <ele>1955</ele>
        <time>2020-02-08T14:20:19.620Z</time>
      </trkpt>
      <trkpt lat="45.33417" lon="6.17064">
        <ele>1956</ele>
        <time>2020-02-08T14:20:35.620Z</time>
      </trkpt>
      <trkpt lat="45.33417" lon="6.17077">
        <ele>1958</ele>
        <time>2020-02-08T14:20:49.619Z</time>
      </trkpt>
      <trkpt lat="45.33419" lon="6.1709">
        <ele>1958</ele>
        <time>2020-02-08T14:21:01.630Z</time>
      </trkpt>
      <trkpt lat="45.33412" lon="6.17099">
        <ele>1960</ele>
        <time>2020-02-08T14:21:17.620Z</time>
      </trkpt>
      <trkpt lat="45.33405" lon="6.17106">
        <ele>1963</ele>
        <time>2020-02-08T14:21:37.620Z</time>
      </trkpt>
      <trkpt lat="45.334" lon="6.17118">
        <ele>1967</ele>
        <time>2020-02-08T14:21:57.619Z</time>
      </trkpt>
      <trkpt lat="45.33399" lon="6.17131">
        <ele>1968</ele>
        <time>2020-02-08T14:22:19.619Z</time>
      </trkpt>
      <trkpt lat="45.3339" lon="6.17138">
        <ele>1966</ele>
        <time>2020-02-08T14:22:41.620Z</time>
      </trkpt>
      <trkpt lat="45.33383" lon="6.17146">
        <ele>1968</ele>
        <time>2020-02-08T14:22:51.619Z</time>
      </trkpt>
      <trkpt lat="45.33374" lon="6.1715">
        <ele>1969</ele>
        <time>2020-02-08T14:23:03.630Z</time>
      </trkpt>
      <trkpt lat="45.33365" lon="6.17154">
        <ele>1971.0217985487</ele>
        <time>2020-02-08T14:23:16.619Z</time>
      </trkpt>
      <trkpt lat="45.33359" lon="6.17164">
        <ele>1974</ele>
        <time>2020-02-08T14:23:29.620Z</time>
      </trkpt>
      <trkpt lat="45.33354" lon="6.17176">
        <ele>1976</ele>
        <time>2020-02-08T14:23:40.621Z</time>
      </trkpt>
      <trkpt lat="45.33346" lon="6.17186">
        <ele>1978.04</ele>
        <time>2020-02-08T14:23:53.630Z</time>
      </trkpt>
      <trkpt lat="45.33341" lon="6.17196">
        <ele>1980</ele>
        <time>2020-02-08T14:24:06.620Z</time>
      </trkpt>
      <trkpt lat="45.33334" lon="6.17205">
        <ele>1983</ele>
        <time>2020-02-08T14:24:22.620Z</time>
      </trkpt>
      <trkpt lat="45.33329" lon="6.17218">
        <ele>1985.0299904</ele>
        <time>2020-02-08T14:24:37.620Z</time>
      </trkpt>
      <trkpt lat="45.3333" lon="6.17231">
        <ele>1985</ele>
        <time>2020-02-08T14:24:50.620Z</time>
      </trkpt>
      <trkpt lat="45.33326" lon="6.17244">
        <ele>1988</ele>
        <time>2020-02-08T14:25:10.620Z</time>
      </trkpt>
      <trkpt lat="45.33328" lon="6.17257">
        <ele>1990</ele>
        <time>2020-02-08T14:25:23.630Z</time>
      </trkpt>
      <trkpt lat="45.33329" lon="6.17269">
        <ele>1992</ele>
        <time>2020-02-08T14:25:40.620Z</time>
      </trkpt>
      <trkpt lat="45.33329" lon="6.17282">
        <ele>1995.0300032</ele>
        <time>2020-02-08T14:26:03.630Z</time>
      </trkpt>
      <trkpt lat="45.33331" lon="6.17296">
        <ele>1997</ele>
        <time>2020-02-08T14:26:17.620Z</time>
      </trkpt>
      <trkpt lat="45.33331" lon="6.17309">
        <ele>1999</ele>
        <time>2020-02-08T14:26:37.620Z</time>
      </trkpt>
      <trkpt lat="45.33334" lon="6.17322">
        <ele>2003</ele>
        <time>2020-02-08T14:26:59.620Z</time>
      </trkpt>
      <trkpt lat="45.33335" lon="6.17336">
        <ele>2006</ele>
        <time>2020-02-08T14:27:15.620Z</time>
      </trkpt>
      <trkpt lat="45.33329" lon="6.17346">
        <ele>2008.0142821396</ele>
        <time>2020-02-08T14:27:36.619Z</time>
      </trkpt>
      <trkpt lat="45.33321" lon="6.17353">
        <ele>2013</ele>
        <time>2020-02-08T14:28:00.631Z</time>
      </trkpt>
      <trkpt lat="45.33312" lon="6.17348">
        <ele>2015</ele>
        <time>2020-02-08T14:28:16.631Z</time>
      </trkpt>
      <trkpt lat="45.33304" lon="6.17343">
        <ele>2018</ele>
        <time>2020-02-08T14:28:33.631Z</time>
      </trkpt>
      <trkpt lat="45.33295" lon="6.17339">
        <ele>2019.0210048</ele>
        <time>2020-02-08T14:28:51.621Z</time>
      </trkpt>
      <trkpt lat="45.33286" lon="6.17335">
        <ele>2021</ele>
        <time>2020-02-08T14:29:03.621Z</time>
      </trkpt>
      <trkpt lat="45.33285" lon="6.17348">
        <ele>2023</ele>
        <time>2020-02-08T14:29:37.619Z</time>
      </trkpt>
      <trkpt lat="45.33278" lon="6.17356">
        <ele>2029</ele>
        <time>2020-02-08T14:30:18.621Z</time>
      </trkpt>
      <trkpt lat="45.3327" lon="6.17348">
        <ele>2030.0210048</ele>
        <time>2020-02-08T14:30:33.621Z</time>
      </trkpt>
      <trkpt lat="45.33261" lon="6.17351">
        <ele>2031</ele>
        <time>2020-02-08T14:30:43.621Z</time>
      </trkpt>
      <trkpt lat="45.33251" lon="6.17346">
        <ele>2034</ele>
        <time>2020-02-08T14:31:03.617Z</time>
      </trkpt>
      <trkpt lat="45.33245" lon="6.17336">
        <ele>2036.0310016</ele>
        <time>2020-02-08T14:31:16.631Z</time>
      </trkpt>
      <trkpt lat="45.33236" lon="6.17333">
        <ele>2038</ele>
        <time>2020-02-08T14:31:44.619Z</time>
      </trkpt>
      <trkpt lat="45.33237" lon="6.17346">
        <ele>2038</ele>
        <time>2020-02-08T14:32:01.629Z</time>
      </trkpt>
      <trkpt lat="45.33233" lon="6.17359">
        <ele>2040</ele>
        <time>2020-02-08T14:32:15.619Z</time>
      </trkpt>
      <trkpt lat="45.33237" lon="6.17372">
        <ele>2042</ele>
        <time>2020-02-08T14:32:34.619Z</time>
      </trkpt>
      <trkpt lat="45.33237" lon="6.17385">
        <ele>2044</ele>
        <time>2020-02-08T14:32:56.631Z</time>
      </trkpt>
      <trkpt lat="45.33242" lon="6.17396">
        <ele>2047</ele>
        <time>2020-02-08T14:33:23.619Z</time>
      </trkpt>
      <trkpt lat="45.33251" lon="6.174">
        <ele>2049</ele>
        <time>2020-02-08T14:35:12.621Z</time>
      </trkpt>
      <trkpt lat="45.33251" lon="6.17414">
        <ele>2052</ele>
        <time>2020-02-08T14:35:29.619Z</time>
      </trkpt>
      <trkpt lat="45.33249" lon="6.17426">
        <ele>2053</ele>
        <time>2020-02-08T14:35:42.620Z</time>
      </trkpt>
      <trkpt lat="45.33242" lon="6.17437">
        <ele>2054.0150328181</ele>
        <time>2020-02-08T14:35:49.620Z</time>
      </trkpt>
      <trkpt lat="45.33234" lon="6.17446">
        <ele>2056</ele>
        <time>2020-02-08T14:35:57.619Z</time>
      </trkpt>
      <trkpt lat="45.33228" lon="6.17458">
        <ele>2058</ele>
        <time>2020-02-08T14:36:08.621Z</time>
      </trkpt>
      <trkpt lat="45.3322" lon="6.17467">
        <ele>2059</ele>
        <time>2020-02-08T14:36:15.620Z</time>
      </trkpt>
      <trkpt lat="45.33224" lon="6.17479">
        <ele>2064</ele>
        <time>2020-02-08T14:36:46.629Z</time>
      </trkpt>
      <trkpt lat="45.3322" lon="6.1749">
        <ele>2068</ele>
        <time>2020-02-08T14:37:03.620Z</time>
      </trkpt>
      <trkpt lat="45.33212" lon="6.17498">
        <ele>2070</ele>
        <time>2020-02-08T14:37:17.620Z</time>
      </trkpt>
      <trkpt lat="45.33207" lon="6.17508">
        <ele>2072.0210048</ele>
        <time>2020-02-08T14:37:28.621Z</time>
      </trkpt>
      <trkpt lat="45.33214" lon="6.17517">
        <ele>2074</ele>
        <time>2020-02-08T14:37:46.629Z</time>
      </trkpt>
      <trkpt lat="45.33217" lon="6.17529">
        <ele>2078</ele>
        <time>2020-02-08T14:38:05.619Z</time>
      </trkpt>
      <trkpt lat="45.33211" lon="6.17539">
        <ele>2082</ele>
        <time>2020-02-08T14:38:24.631Z</time>
      </trkpt>
      <trkpt lat="45.33221" lon="6.17526">
        <ele>2085</ele>
        <time>2020-02-08T14:39:16.631Z</time>
      </trkpt>
      <trkpt lat="45.33217" lon="6.1754">
        <ele>2084</ele>
        <time>2020-02-08T14:39:22.616Z</time>
      </trkpt>
      <trkpt lat="45.33209" lon="6.17545">
        <ele>2083</ele>
        <time>2020-02-08T14:46:13.618Z</time>
      </trkpt>
      <trkpt lat="45.33199" lon="6.1755">
        <ele>2085</ele>
        <time>2020-02-08T14:46:24.631Z</time>
      </trkpt>
      <trkpt lat="45.3319" lon="6.17545">
        <ele>2086</ele>
        <time>2020-02-08T14:46:54.618Z</time>
      </trkpt>
      <trkpt lat="45.33186" lon="6.17534">
        <ele>2085.9799936</ele>
        <time>2020-02-08T14:47:00.620Z</time>
      </trkpt>
      <trkpt lat="45.33177" lon="6.17525">
        <ele>2085</ele>
        <time>2020-02-08T14:47:07.620Z</time>
      </trkpt>
      <trkpt lat="45.33167" lon="6.17521">
        <ele>2084</ele>
        <time>2020-02-08T14:47:12.617Z</time>
      </trkpt>
      <trkpt lat="45.33158" lon="6.17518">
        <ele>2084</ele>
        <time>2020-02-08T14:47:19.630Z</time>
      </trkpt>
      <trkpt lat="45.33148" lon="6.17515">
        <ele>2086</ele>
        <time>2020-02-08T14:47:57.617Z</time>
      </trkpt>
      <trkpt lat="45.33143" lon="6.17527">
        <ele>2089</ele>
        <time>2020-02-08T14:48:10.618Z</time>
      </trkpt>
      <trkpt lat="45.33135" lon="6.17534">
        <ele>2091</ele>
        <time>2020-02-08T14:48:22.620Z</time>
      </trkpt>
      <trkpt lat="45.33126" lon="6.17543">
        <ele>2091.0169984</ele>
        <time>2020-02-08T14:48:32.617Z</time>
      </trkpt>
      <trkpt lat="45.33119" lon="6.17552">
        <ele>2093</ele>
        <time>2020-02-08T14:48:44.631Z</time>
      </trkpt>
      <trkpt lat="45.33113" lon="6.17562">
        <ele>2094</ele>
        <time>2020-02-08T14:48:55.631Z</time>
      </trkpt>
      <trkpt lat="45.33103" lon="6.17569">
        <ele>2096</ele>
        <time>2020-02-08T14:49:07.620Z</time>
      </trkpt>
      <trkpt lat="45.33095" lon="6.17576">
        <ele>2097</ele>
        <time>2020-02-08T14:49:17.620Z</time>
      </trkpt>
      <trkpt lat="45.33085" lon="6.17581">
        <ele>2098</ele>
        <time>2020-02-08T14:49:25.617Z</time>
      </trkpt>
      <trkpt lat="45.33078" lon="6.1759">
        <ele>2100</ele>
        <time>2020-02-08T14:49:35.617Z</time>
      </trkpt>
      <trkpt lat="45.33071" lon="6.17599">
        <ele>2103</ele>
        <time>2020-02-08T14:49:51.633Z</time>
      </trkpt>
      <trkpt lat="45.33063" lon="6.17607">
        <ele>2104.0169984</ele>
        <time>2020-02-08T14:50:02.617Z</time>
      </trkpt>
      <trkpt lat="45.33061" lon="6.1762">
        <ele>2107</ele>
        <time>2020-02-08T14:50:15.617Z</time>
      </trkpt>
      <trkpt lat="45.33058" lon="6.17635">
        <ele>2109</ele>
        <time>2020-02-08T14:50:30.617Z</time>
      </trkpt>
      <trkpt lat="45.33055" lon="6.17647">
        <ele>2111</ele>
        <time>2020-02-08T14:50:46.632Z</time>
      </trkpt>
      <trkpt lat="45.33052" lon="6.1766">
        <ele>2114</ele>
        <time>2020-02-08T14:51:02.617Z</time>
      </trkpt>
      <trkpt lat="45.33051" lon="6.17675">
        <ele>2116</ele>
        <time>2020-02-08T14:51:17.617Z</time>
      </trkpt>
      <trkpt lat="45.33054" lon="6.17687">
        <ele>2118</ele>
        <time>2020-02-08T14:51:30.618Z</time>
      </trkpt>
      <trkpt lat="45.33058" lon="6.17699">
        <ele>2119</ele>
        <time>2020-02-08T14:51:45.622Z</time>
      </trkpt>
      <trkpt lat="45.33062" lon="6.17712">
        <ele>2122</ele>
        <time>2020-02-08T14:52:03.622Z</time>
      </trkpt>
      <trkpt lat="45.33067" lon="6.17723">
        <ele>2123</ele>
        <time>2020-02-08T14:52:16.634Z</time>
      </trkpt>
      <trkpt lat="45.33072" lon="6.17734">
        <ele>2127</ele>
        <time>2020-02-08T14:52:29.619Z</time>
      </trkpt>
      <trkpt lat="45.33074" lon="6.17746">
        <ele>2128</ele>
        <time>2020-02-08T14:52:41.632Z</time>
      </trkpt>
      <trkpt lat="45.3307" lon="6.17757">
        <ele>2130.0169984</ele>
        <time>2020-02-08T14:52:54.617Z</time>
      </trkpt>
      <trkpt lat="45.33065" lon="6.17769">
        <ele>2131.0169984</ele>
        <time>2020-02-08T14:53:08.617Z</time>
      </trkpt>
      <trkpt lat="45.33069" lon="6.17781">
        <ele>2134</ele>
        <time>2020-02-08T14:53:23.617Z</time>
      </trkpt>
      <trkpt lat="45.33077" lon="6.1779">
        <ele>2134</ele>
        <time>2020-02-08T14:54:36.631Z</time>
      </trkpt>
      <trkpt lat="45.33068" lon="6.17787">
        <ele>2135</ele>
        <time>2020-02-08T14:59:47.620Z</time>
      </trkpt>
      <trkpt lat="45.33058" lon="6.17788">
        <ele>2140.9820032</ele>
        <time>2020-02-08T15:00:14.618Z</time>
      </trkpt>
      <trkpt lat="45.33049" lon="6.17793">
        <ele>2142</ele>
        <time>2020-02-08T15:00:25.620Z</time>
      </trkpt>
      <trkpt lat="45.33038" lon="6.17799">
        <ele>2146</ele>
        <time>2020-02-08T15:00:46.631Z</time>
      </trkpt>
      <trkpt lat="45.3303" lon="6.17794">
        <ele>2148</ele>
        <time>2020-02-08T15:01:03.631Z</time>
      </trkpt>
      <trkpt lat="45.33034" lon="6.17805">
        <ele>2151</ele>
        <time>2020-02-08T15:01:24.618Z</time>
      </trkpt>
      <trkpt lat="45.3304" lon="6.17816">
        <ele>2152</ele>
        <time>2020-02-08T15:01:34.616Z</time>
      </trkpt>
      <trkpt lat="45.33046" lon="6.17826">
        <ele>2155</ele>
        <time>2020-02-08T15:01:48.618Z</time>
      </trkpt>
      <trkpt lat="45.33053" lon="6.17835">
        <ele>2158</ele>
        <time>2020-02-08T15:02:06.633Z</time>
      </trkpt>
      <trkpt lat="45.33051" lon="6.17849">
        <ele>2160</ele>
        <time>2020-02-08T15:02:30.621Z</time>
      </trkpt>
      <trkpt lat="45.33041" lon="6.17848">
        <ele>2162</ele>
        <time>2020-02-08T15:02:41.629Z</time>
      </trkpt>
      <trkpt lat="45.33029" lon="6.17849">
        <ele>2164</ele>
        <time>2020-02-08T15:02:59.631Z</time>
      </trkpt>
      <trkpt lat="45.3302" lon="6.1785">
        <ele>2166</ele>
        <time>2020-02-08T15:03:07.631Z</time>
      </trkpt>
      <trkpt lat="45.33011" lon="6.17856">
        <ele>2171</ele>
        <time>2020-02-08T15:03:39.735Z</time>
      </trkpt>
      <trkpt lat="45.32999" lon="6.17856">
        <ele>2174</ele>
        <time>2020-02-08T15:04:10.631Z</time>
      </trkpt>
      <trkpt lat="45.32992" lon="6.17848">
        <ele>2175</ele>
        <time>2020-02-08T15:04:16.631Z</time>
      </trkpt>
      <trkpt lat="45.3298" lon="6.17843">
        <ele>2177</ele>
        <time>2020-02-08T15:04:33.631Z</time>
      </trkpt>
      <trkpt lat="45.32971" lon="6.17839">
        <ele>2178</ele>
        <time>2020-02-08T15:04:40.631Z</time>
      </trkpt>
      <trkpt lat="45.3297" lon="6.17853">
        <ele>2182</ele>
        <time>2020-02-08T15:05:08.620Z</time>
      </trkpt>
      <trkpt lat="45.32974" lon="6.17866">
        <ele>2182</ele>
        <time>2020-02-08T15:05:20.621Z</time>
      </trkpt>
      <trkpt lat="45.32972" lon="6.17878">
        <ele>2185</ele>
        <time>2020-02-08T15:05:41.631Z</time>
      </trkpt>
      <trkpt lat="45.32963" lon="6.17877">
        <ele>2187</ele>
        <time>2020-02-08T15:05:54.617Z</time>
      </trkpt>
      <trkpt lat="45.32952" lon="6.17871">
        <ele>2189</ele>
        <time>2020-02-08T15:06:08.631Z</time>
      </trkpt>
      <trkpt lat="45.32949" lon="6.17859">
        <ele>2193.0112196651</ele>
        <time>2020-02-08T15:06:32.631Z</time>
      </trkpt>
      <trkpt lat="45.32952" lon="6.17871">
        <ele>2194</ele>
        <time>2020-02-08T15:06:48.621Z</time>
      </trkpt>
      <trkpt lat="45.32948" lon="6.17883">
        <ele>2197</ele>
        <time>2020-02-08T15:07:06.621Z</time>
      </trkpt>
      <trkpt lat="45.3295" lon="6.17897">
        <ele>2199</ele>
        <time>2020-02-08T15:07:21.621Z</time>
      </trkpt>
      <trkpt lat="45.32956" lon="6.17909">
        <ele>2201</ele>
        <time>2020-02-08T15:07:39.618Z</time>
      </trkpt>
      <trkpt lat="45.32947" lon="6.17903">
        <ele>2202</ele>
        <time>2020-02-08T15:07:51.631Z</time>
      </trkpt>
      <trkpt lat="45.32936" lon="6.179">
        <ele>2204</ele>
        <time>2020-02-08T15:08:06.631Z</time>
      </trkpt>
      <trkpt lat="45.32929" lon="6.1789">
        <ele>2205</ele>
        <time>2020-02-08T15:08:19.631Z</time>
      </trkpt>
      <trkpt lat="45.32922" lon="6.17879">
        <ele>2208</ele>
        <time>2020-02-08T15:08:43.619Z</time>
      </trkpt>
      <trkpt lat="45.32924" lon="6.17892">
        <ele>2212</ele>
        <time>2020-02-08T15:09:32.621Z</time>
      </trkpt>
      <trkpt lat="45.32928" lon="6.17904">
        <ele>2214</ele>
        <time>2020-02-08T15:09:50.621Z</time>
      </trkpt>
      <trkpt lat="45.3293" lon="6.17918">
        <ele>2218.0127807826</ele>
        <time>2020-02-08T15:10:21.617Z</time>
      </trkpt>
      <trkpt lat="45.32935" lon="6.1793">
        <ele>2219</ele>
        <time>2020-02-08T15:10:33.621Z</time>
      </trkpt>
      <trkpt lat="45.32923" lon="6.17926">
        <ele>2220.0306947507</ele>
        <time>2020-02-08T15:11:12.631Z</time>
      </trkpt>
      <trkpt lat="45.3292" lon="6.17914">
        <ele>2222</ele>
        <time>2020-02-08T15:11:27.631Z</time>
      </trkpt>
      <trkpt lat="45.32909" lon="6.1792">
        <ele>2225</ele>
        <time>2020-02-08T15:11:55.631Z</time>
      </trkpt>
      <trkpt lat="45.32901" lon="6.17912">
        <ele>2225</ele>
        <time>2020-02-08T15:11:59.631Z</time>
      </trkpt>
      <trkpt lat="45.32908" lon="6.17902">
        <ele>2226</ele>
        <time>2020-02-08T15:12:37.617Z</time>
      </trkpt>
      <trkpt lat="45.32914" lon="6.17914">
        <ele>2226.0310016</ele>
        <time>2020-02-08T15:12:54.631Z</time>
      </trkpt>
      <trkpt lat="45.32916" lon="6.17927">
        <ele>2229</ele>
        <time>2020-02-08T15:13:10.621Z</time>
      </trkpt>
      <trkpt lat="45.3292" lon="6.17938">
        <ele>2230</ele>
        <time>2020-02-08T15:13:23.617Z</time>
      </trkpt>
      <trkpt lat="45.32925" lon="6.17951">
        <ele>2234</ele>
        <time>2020-02-08T15:13:53.621Z</time>
      </trkpt>
      <trkpt lat="45.32916" lon="6.17944">
        <ele>2237</ele>
        <time>2020-02-08T15:14:31.631Z</time>
      </trkpt>
      <trkpt lat="45.32907" lon="6.17951">
        <ele>2239</ele>
        <time>2020-02-08T15:15:02.631Z</time>
      </trkpt>
      <trkpt lat="45.32899" lon="6.17943">
        <ele>2240</ele>
        <time>2020-02-08T15:15:10.631Z</time>
      </trkpt>
      <trkpt lat="45.3289" lon="6.17937">
        <ele>2241</ele>
        <time>2020-02-08T15:15:33.631Z</time>
      </trkpt>
      <trkpt lat="45.32882" lon="6.1793">
        <ele>2244</ele>
        <time>2020-02-08T15:15:49.631Z</time>
      </trkpt>
      <trkpt lat="45.32877" lon="6.17919">
        <ele>2246</ele>
        <time>2020-02-08T15:16:05.632Z</time>
      </trkpt>
      <trkpt lat="45.32884" lon="6.17926">
        <ele>2246</ele>
        <time>2020-02-08T15:16:12.631Z</time>
      </trkpt>
      <trkpt lat="45.32877" lon="6.17917">
        <ele>2246</ele>
        <time>2020-02-08T15:16:54.619Z</time>
      </trkpt>
      <trkpt lat="45.32885" lon="6.17924">
        <ele>2247</ele>
        <time>2020-02-08T15:17:39.620Z</time>
      </trkpt>
      <trkpt lat="45.32887" lon="6.17938">
        <ele>2251</ele>
        <time>2020-02-08T15:18:13.618Z</time>
      </trkpt>
      <trkpt lat="45.32887" lon="6.17951">
        <ele>2253</ele>
        <time>2020-02-08T15:18:34.620Z</time>
      </trkpt>
      <trkpt lat="45.32886" lon="6.17964">
        <ele>2258</ele>
        <time>2020-02-08T15:21:11.631Z</time>
      </trkpt>
      <trkpt lat="45.32877" lon="6.17965">
        <ele>2260</ele>
        <time>2020-02-08T15:21:24.631Z</time>
      </trkpt>
      <trkpt lat="45.32868" lon="6.17964">
        <ele>2262</ele>
        <time>2020-02-08T15:21:51.633Z</time>
      </trkpt>
      <trkpt lat="45.32859" lon="6.17956">
        <ele>2265</ele>
        <time>2020-02-08T15:22:12.631Z</time>
      </trkpt>
      <trkpt lat="45.32854" lon="6.17937">
        <ele>2265</ele>
        <time>2020-02-08T15:22:23.631Z</time>
      </trkpt>
      <trkpt lat="45.32849" lon="6.17948">
        <ele>2269</ele>
        <time>2020-02-08T15:23:11.620Z</time>
      </trkpt>
      <trkpt lat="45.32854" lon="6.1796">
        <ele>2271</ele>
        <time>2020-02-08T15:23:25.621Z</time>
      </trkpt>
      <trkpt lat="45.32859" lon="6.1797">
        <ele>2274</ele>
        <time>2020-02-08T15:23:44.631Z</time>
      </trkpt>
      <trkpt lat="45.32865" lon="6.17982">
        <ele>2276</ele>
        <time>2020-02-08T15:24:09.630Z</time>
      </trkpt>
      <trkpt lat="45.32874" lon="6.17987">
        <ele>2279</ele>
        <time>2020-02-08T15:24:27.620Z</time>
      </trkpt>
      <trkpt lat="45.32864" lon="6.17995">
        <ele>2281.0405926039</ele>
        <time>2020-02-08T15:25:10.631Z</time>
      </trkpt>
      <trkpt lat="45.32854" lon="6.17998">
        <ele>2282</ele>
        <time>2020-02-08T15:25:20.633Z</time>
      </trkpt>
      <trkpt lat="45.32844" lon="6.17996">
        <ele>2286</ele>
        <time>2020-02-08T15:26:00.631Z</time>
      </trkpt>
      <trkpt lat="45.32836" lon="6.17993">
        <ele>2287</ele>
        <time>2020-02-08T15:26:06.631Z</time>
      </trkpt>
      <trkpt lat="45.32825" lon="6.17993">
        <ele>2289</ele>
        <time>2020-02-08T15:26:29.631Z</time>
      </trkpt>
      <trkpt lat="45.32814" lon="6.17988">
        <ele>2291</ele>
        <time>2020-02-08T15:26:43.631Z</time>
      </trkpt>
      <trkpt lat="45.3282" lon="6.18">
        <ele>2294</ele>
        <time>2020-02-08T15:27:06.620Z</time>
      </trkpt>
      <trkpt lat="45.32826" lon="6.18009">
        <ele>2296</ele>
        <time>2020-02-08T15:27:25.621Z</time>
      </trkpt>
      <trkpt lat="45.32834" lon="6.18015">
        <ele>2298</ele>
        <time>2020-02-08T15:27:47.630Z</time>
      </trkpt>
      <trkpt lat="45.32843" lon="6.18019">
        <ele>2299.0225588513</ele>
        <time>2020-02-08T15:28:02.630Z</time>
      </trkpt>
      <trkpt lat="45.32835" lon="6.18025">
        <ele>2303</ele>
        <time>2020-02-08T15:28:39.617Z</time>
      </trkpt>
      <trkpt lat="45.32826" lon="6.18028">
        <ele>2304.0290048</ele>
        <time>2020-02-08T15:28:58.629Z</time>
      </trkpt>
      <trkpt lat="45.32819" lon="6.18036">
        <ele>2307</ele>
        <time>2020-02-08T15:29:27.618Z</time>
      </trkpt>
      <trkpt lat="45.32813" lon="6.18026">
        <ele>2307</ele>
        <time>2020-02-08T15:30:05.634Z</time>
      </trkpt>
      <trkpt lat="45.32809" lon="6.18038">
        <ele>2308</ele>
        <time>2020-02-08T15:30:26.618Z</time>
      </trkpt>
      <trkpt lat="45.328" lon="6.18044">
        <ele>2313</ele>
        <time>2020-02-08T15:31:08.631Z</time>
      </trkpt>
      <trkpt lat="45.328" lon="6.18057">
        <ele>2313</ele>
        <time>2020-02-08T15:31:16.631Z</time>
      </trkpt>
      <trkpt lat="45.32808" lon="6.18064">
        <ele>2313</ele>
        <time>2020-02-08T15:31:35.631Z</time>
      </trkpt>
      <trkpt lat="45.32818" lon="6.1808">
        <ele>2313</ele>
        <time>2020-02-08T15:31:37.631Z</time>
      </trkpt>
      <trkpt lat="45.32819" lon="6.18066">
        <ele>2313</ele>
        <time>2020-02-08T15:31:40.631Z</time>
      </trkpt>
      <trkpt lat="45.32815" lon="6.18053">
        <ele>2313</ele>
        <time>2020-02-08T15:31:43.631Z</time>
      </trkpt>
      <trkpt lat="45.32807" lon="6.18044">
        <ele>2313</ele>
        <time>2020-02-08T15:31:46.631Z</time>
      </trkpt>
      <trkpt lat="45.32802" lon="6.18033">
        <ele>2314.0339968</ele>
        <time>2020-02-08T15:32:04.634Z</time>
      </trkpt>
      <trkpt lat="45.32796" lon="6.18043">
        <ele>2317</ele>
        <time>2020-02-08T15:33:18.620Z</time>
      </trkpt>
      <trkpt lat="45.32786" lon="6.18046">
        <ele>2317</ele>
        <time>2020-02-08T15:34:15.621Z</time>
      </trkpt>
      <trkpt lat="45.32793" lon="6.18029">
        <ele>2318</ele>
        <time>2020-02-08T15:34:39.631Z</time>
      </trkpt>
      <trkpt lat="45.32785" lon="6.18036">
        <ele>2318</ele>
        <time>2020-02-08T15:34:45.619Z</time>
      </trkpt>
      <trkpt lat="45.32789" lon="6.18049">
        <ele>2317</ele>
        <time>2020-02-08T15:35:46.620Z</time>
      </trkpt>
      <trkpt lat="45.32792" lon="6.18062">
        <ele>2319</ele>
        <time>2020-02-08T15:36:09.620Z</time>
      </trkpt>
      <trkpt lat="45.32785" lon="6.18053">
        <ele>2319</ele>
        <time>2020-02-08T15:37:30.631Z</time>
      </trkpt>
      <trkpt lat="45.32779" lon="6.18044">
        <ele>2320</ele>
        <time>2020-02-08T15:37:47.631Z</time>
      </trkpt>
      <trkpt lat="45.32769" lon="6.18039">
        <ele>2322</ele>
        <time>2020-02-08T15:38:14.618Z</time>
      </trkpt>
      <trkpt lat="45.32762" lon="6.18031">
        <ele>2324</ele>
        <time>2020-02-08T15:38:50.631Z</time>
      </trkpt>
      <trkpt lat="45.32759" lon="6.18019">
        <ele>2326</ele>
        <time>2020-02-08T15:40:13.619Z</time>
      </trkpt>
      <trkpt lat="45.32754" lon="6.18007">
        <ele>2327</ele>
        <time>2020-02-08T15:40:27.619Z</time>
      </trkpt>
      <trkpt lat="45.32745" lon="6.18002">
        <ele>2329</ele>
        <time>2020-02-08T15:41:43.629Z</time>
      </trkpt>
      <trkpt lat="45.32754" lon="6.18006">
        <ele>2328</ele>
        <time>2020-02-08T15:42:21.631Z</time>
      </trkpt>
      <trkpt lat="45.32764" lon="6.18004">
        <ele>2327</ele>
        <time>2020-02-08T15:43:20.631Z</time>
      </trkpt>
      <trkpt lat="45.32766" lon="6.17992">
        <ele>2327</ele>
        <time>2020-02-08T15:43:43.618Z</time>
      </trkpt>
      <trkpt lat="45.32771" lon="6.18003">
        <ele>2326</ele>
        <time>2020-02-08T15:49:37.620Z</time>
      </trkpt>
      <trkpt lat="45.32769" lon="6.18015">
        <ele>2326</ele>
        <time>2020-02-08T15:51:54.620Z</time>
      </trkpt>
      <trkpt lat="45.32765" lon="6.18028">
        <ele>2329.7786191667</ele>
        <time>2020-02-08T15:52:17.620Z</time>
      </trkpt>
      <trkpt lat="45.32761" lon="6.18039">
        <ele>2335</ele>
        <time>2020-02-08T15:52:47.631Z</time>
      </trkpt>
      <trkpt lat="45.32763" lon="6.18052">
        <ele>2338</ele>
        <time>2020-02-08T15:53:19.619Z</time>
      </trkpt>
      <trkpt lat="45.32764" lon="6.18065">
        <ele>2342</ele>
        <time>2020-02-08T15:53:58.620Z</time>
      </trkpt>
      <trkpt lat="45.32767" lon="6.18077">
        <ele>2348</ele>
        <time>2020-02-08T15:55:03.619Z</time>
      </trkpt>
      <trkpt lat="45.32771" lon="6.18089">
        <ele>2352.0200064</ele>
        <time>2020-02-08T15:55:34.620Z</time>
      </trkpt>
      <trkpt lat="45.32777" lon="6.181">
        <ele>2359</ele>
        <time>2020-02-08T15:56:09.620Z</time>
      </trkpt>
      <trkpt lat="45.32778" lon="6.18113">
        <ele>2364</ele>
        <time>2020-02-08T15:56:49.620Z</time>
      </trkpt>
      <trkpt lat="45.32777" lon="6.18126">
        <ele>2368</ele>
        <time>2020-02-08T15:57:15.618Z</time>
      </trkpt>
      <trkpt lat="45.3278" lon="6.18138">
        <ele>2374</ele>
        <time>2020-02-08T15:58:00.648Z</time>
      </trkpt>
      <trkpt lat="45.32779" lon="6.18151">
        <ele>2380</ele>
        <time>2020-02-08T15:58:32.620Z</time>
      </trkpt>
      <trkpt lat="45.3278" lon="6.18164">
        <ele>2385</ele>
        <time>2020-02-08T15:59:01.630Z</time>
      </trkpt>
      <trkpt lat="45.32785" lon="6.18175">
        <ele>2388</ele>
        <time>2020-02-08T15:59:21.630Z</time>
      </trkpt>
      <trkpt lat="45.32794" lon="6.18178">
        <ele>2389</ele>
        <time>2020-02-08T15:59:35.650Z</time>
      </trkpt>
      <trkpt lat="45.32801" lon="6.18186">
        <ele>2394</ele>
        <time>2020-02-08T16:00:07.618Z</time>
      </trkpt>
      <trkpt lat="45.32804" lon="6.18198">
        <ele>2401</ele>
        <time>2020-02-08T16:00:41.633Z</time>
      </trkpt>
      <trkpt lat="45.32807" lon="6.1821">
        <ele>2403</ele>
        <time>2020-02-08T16:00:59.618Z</time>
      </trkpt>
      <trkpt lat="45.32815" lon="6.18218">
        <ele>2407</ele>
        <time>2020-02-08T16:01:22.621Z</time>
      </trkpt>
      <trkpt lat="45.32824" lon="6.18217">
        <ele>2409</ele>
        <time>2020-02-08T16:01:42.621Z</time>
      </trkpt>
      <trkpt lat="45.32833" lon="6.18218">
        <ele>2415</ele>
        <time>2020-02-08T16:02:21.633Z</time>
      </trkpt>
      <trkpt lat="45.32839" lon="6.18229">
        <ele>2417</ele>
        <time>2020-02-08T16:02:41.633Z</time>
      </trkpt>
      <trkpt lat="45.32839" lon="6.18242">
        <ele>2424</ele>
        <time>2020-02-08T16:03:17.631Z</time>
      </trkpt>
      <trkpt lat="45.32842" lon="6.18254">
        <ele>2427</ele>
        <time>2020-02-08T16:03:45.620Z</time>
      </trkpt>
      <trkpt lat="45.32851" lon="6.18259">
        <ele>2429</ele>
        <time>2020-02-08T16:04:13.619Z</time>
      </trkpt>
      <trkpt lat="45.32857" lon="6.18268">
        <ele>2432</ele>
        <time>2020-02-08T16:04:48.621Z</time>
      </trkpt>
      <trkpt lat="45.32854" lon="6.18256">
        <ele>2432</ele>
        <time>2020-02-08T16:15:11.619Z</time>
      </trkpt>
      <trkpt lat="45.32851" lon="6.18244">
        <ele>2427</ele>
        <time>2020-02-08T16:15:42.621Z</time>
      </trkpt>
      <trkpt lat="45.32852" lon="6.18231">
        <ele>2420.9810048</ele>
        <time>2020-02-08T16:16:57.619Z</time>
      </trkpt>
      <trkpt lat="45.32852" lon="6.18218">
        <ele>2414</ele>
        <time>2020-02-08T16:17:27.619Z</time>
      </trkpt>
      <trkpt lat="45.32849" lon="6.18203">
        <ele>2410.9620096</ele>
        <time>2020-02-08T16:17:33.619Z</time>
      </trkpt>
      <trkpt lat="45.32846" lon="6.1819">
        <ele>2403.9781918272</ele>
        <time>2020-02-08T16:18:24.629Z</time>
      </trkpt>
      <trkpt lat="45.32848" lon="6.18176">
        <ele>2396.9810048</ele>
        <time>2020-02-08T16:18:30.619Z</time>
      </trkpt>
      <trkpt lat="45.32846" lon="6.18164">
        <ele>2391</ele>
        <time>2020-02-08T16:18:54.626Z</time>
      </trkpt>
      <trkpt lat="45.32839" lon="6.18154">
        <ele>2382.9789952</ele>
        <time>2020-02-08T16:19:33.621Z</time>
      </trkpt>
      <trkpt lat="45.32843" lon="6.18139">
        <ele>2377.9386104986</ele>
        <time>2020-02-08T16:19:37.631Z</time>
      </trkpt>
      <trkpt lat="45.32842" lon="6.18125">
        <ele>2364.9684137586</ele>
        <time>2020-02-08T16:19:43.621Z</time>
      </trkpt>
      <trkpt lat="45.32847" lon="6.18113">
        <ele>2361</ele>
        <time>2020-02-08T16:19:50.621Z</time>
      </trkpt>
      <trkpt lat="45.32854" lon="6.18106">
        <ele>2354</ele>
        <time>2020-02-08T16:19:57.631Z</time>
      </trkpt>
      <trkpt lat="45.32856" lon="6.1809">
        <ele>2345.9793930274</ele>
        <time>2020-02-08T16:20:27.627Z</time>
      </trkpt>
      <trkpt lat="45.32858" lon="6.18073">
        <ele>2338.9430144</ele>
        <time>2020-02-08T16:20:31.619Z</time>
      </trkpt>
      <trkpt lat="45.32858" lon="6.1806">
        <ele>2332.957473636</ele>
        <time>2020-02-08T16:20:33.619Z</time>
      </trkpt>
      <trkpt lat="45.32859" lon="6.1804">
        <ele>2322.9240192</ele>
        <time>2020-02-08T16:20:36.619Z</time>
      </trkpt>
      <trkpt lat="45.32862" lon="6.18024">
        <ele>2315.9159808</ele>
        <time>2020-02-08T16:20:38.621Z</time>
      </trkpt>
      <trkpt lat="45.32864" lon="6.1801">
        <ele>2308.9369856</ele>
        <time>2020-02-08T16:20:40.621Z</time>
      </trkpt>
      <trkpt lat="45.32866" lon="6.17997">
        <ele>2302.9333238519</ele>
        <time>2020-02-08T16:20:42.632Z</time>
      </trkpt>
      <trkpt lat="45.32858" lon="6.18004">
        <ele>2297</ele>
        <time>2020-02-08T16:20:51.620Z</time>
      </trkpt>
      <trkpt lat="45.32854" lon="6.18015">
        <ele>2298</ele>
        <time>2020-02-08T16:21:07.629Z</time>
      </trkpt>
      <trkpt lat="45.32848" lon="6.18003">
        <ele>2296</ele>
        <time>2020-02-08T16:22:51.618Z</time>
      </trkpt>
      <trkpt lat="45.32859" lon="6.17996">
        <ele>2295.9620096</ele>
        <time>2020-02-08T16:22:55.619Z</time>
      </trkpt>
      <trkpt lat="45.32864" lon="6.17985">
        <ele>2291.9340032</ele>
        <time>2020-02-08T16:22:57.633Z</time>
      </trkpt>
      <trkpt lat="45.32873" lon="6.17978">
        <ele>2286.967475788</ele>
        <time>2020-02-08T16:22:59.618Z</time>
      </trkpt>
      <trkpt lat="45.32883" lon="6.1797">
        <ele>2279.9940096</ele>
        <time>2020-02-08T16:23:02.603Z</time>
      </trkpt>
      <trkpt lat="45.32892" lon="6.17959">
        <ele>2272.9369856</ele>
        <time>2020-02-08T16:23:04.621Z</time>
      </trkpt>
      <trkpt lat="45.32899" lon="6.17946">
        <ele>2265.9460096</ele>
        <time>2020-02-08T16:23:06.618Z</time>
      </trkpt>
      <trkpt lat="45.32905" lon="6.17932">
        <ele>2259.9338248032</ele>
        <time>2020-02-08T16:23:08.622Z</time>
      </trkpt>
      <trkpt lat="45.32916" lon="6.17925">
        <ele>2251.910016</ele>
        <time>2020-02-08T16:23:10.618Z</time>
      </trkpt>
      <trkpt lat="45.32927" lon="6.17929">
        <ele>2241.9160192</ele>
        <time>2020-02-08T16:23:12.628Z</time>
      </trkpt>
      <trkpt lat="45.32937" lon="6.17923">
        <ele>2237.9460096</ele>
        <time>2020-02-08T16:23:14.618Z</time>
      </trkpt>
      <trkpt lat="45.32946" lon="6.17907">
        <ele>2228.9278193752</ele>
        <time>2020-02-08T16:23:17.632Z</time>
      </trkpt>
      <trkpt lat="45.32945" lon="6.17888">
        <ele>2218.764992</ele>
        <time>2020-02-08T16:23:20.647Z</time>
      </trkpt>
      <trkpt lat="45.32935" lon="6.17886">
        <ele>2207</ele>
        <time>2020-02-08T16:24:05.618Z</time>
      </trkpt>
      <trkpt lat="45.32931" lon="6.17874">
        <ele>2207</ele>
        <time>2020-02-08T16:24:16.617Z</time>
      </trkpt>
      <trkpt lat="45.32932" lon="6.17854">
        <ele>2205</ele>
        <time>2020-02-08T16:24:18.600Z</time>
      </trkpt>
      <trkpt lat="45.32938" lon="6.17837">
        <ele>2200.9696872727</ele>
        <time>2020-02-08T16:24:20.620Z</time>
      </trkpt>
      <trkpt lat="45.3295" lon="6.17824">
        <ele>2195.9199744</ele>
        <time>2020-02-08T16:24:22.620Z</time>
      </trkpt>
      <trkpt lat="45.32958" lon="6.17818">
        <ele>2191.84</ele>
        <time>2020-02-08T16:24:23.632Z</time>
      </trkpt>
      <trkpt lat="45.32968" lon="6.17812">
        <ele>2186.9159808</ele>
        <time>2020-02-08T16:24:24.621Z</time>
      </trkpt>
      <trkpt lat="45.32978" lon="6.17803">
        <ele>2182.9368275172</ele>
        <time>2020-02-08T16:24:25.621Z</time>
      </trkpt>
      <trkpt lat="45.32988" lon="6.17796">
        <ele>2179.9353454083</ele>
        <time>2020-02-08T16:24:26.619Z</time>
      </trkpt>
      <trkpt lat="45.32998" lon="6.17788">
        <ele>2173.9280128</ele>
        <time>2020-02-08T16:24:27.618Z</time>
      </trkpt>
      <trkpt lat="45.33005" lon="6.17779">
        <ele>2169.8680064</ele>
        <time>2020-02-08T16:24:28.633Z</time>
      </trkpt>
      <trkpt lat="45.33012" lon="6.17768">
        <ele>2161.9594056166</ele>
        <time>2020-02-08T16:24:30.618Z</time>
      </trkpt>
      <trkpt lat="45.33026" lon="6.1776">
        <ele>2155.9369856</ele>
        <time>2020-02-08T16:24:32.621Z</time>
      </trkpt>
      <trkpt lat="45.3304" lon="6.17751">
        <ele>2149.9584691275</ele>
        <time>2020-02-08T16:24:34.618Z</time>
      </trkpt>
      <trkpt lat="45.3305" lon="6.17746">
        <ele>2147.6507881807</ele>
        <time>2020-02-08T16:24:35.618Z</time>
      </trkpt>
      <trkpt lat="45.33063" lon="6.17743">
        <ele>2138.060032</ele>
        <time>2020-02-08T16:24:37.588Z</time>
      </trkpt>
      <trkpt lat="45.33076" lon="6.17742">
        <ele>2132.9460096</ele>
        <time>2020-02-08T16:24:39.618Z</time>
      </trkpt>
      <trkpt lat="45.33082" lon="6.1773">
        <ele>2125.9460096</ele>
        <time>2020-02-08T16:24:42.618Z</time>
      </trkpt>
      <trkpt lat="45.33088" lon="6.17744">
        <ele>2118</ele>
        <time>2020-02-08T16:24:51.617Z</time>
      </trkpt>
      <trkpt lat="45.33083" lon="6.17755">
        <ele>2118</ele>
        <time>2020-02-08T16:25:09.617Z</time>
      </trkpt>
      <trkpt lat="45.33079" lon="6.17741">
        <ele>2117.9820032</ele>
        <time>2020-02-08T16:25:41.618Z</time>
      </trkpt>
      <trkpt lat="45.3307" lon="6.17725">
        <ele>2116</ele>
        <time>2020-02-08T16:25:44.619Z</time>
      </trkpt>
      <trkpt lat="45.33064" lon="6.17708">
        <ele>2113.9430144</ele>
        <time>2020-02-08T16:25:46.619Z</time>
      </trkpt>
      <trkpt lat="45.33063" lon="6.17684">
        <ele>2109.9751891132</ele>
        <time>2020-02-08T16:25:48.633Z</time>
      </trkpt>
      <trkpt lat="45.33064" lon="6.17671">
        <ele>2109.2345870306</ele>
        <time>2020-02-08T16:25:49.618Z</time>
      </trkpt>
      <trkpt lat="45.33065" lon="6.17658">
        <ele>2108.9725240366</ele>
        <time>2020-02-08T16:25:50.618Z</time>
      </trkpt>
      <trkpt lat="45.33069" lon="6.17633">
        <ele>2105.856</ele>
        <time>2020-02-08T16:25:52.648Z</time>
      </trkpt>
      <trkpt lat="45.33071" lon="6.17621">
        <ele>2102.9977479645</ele>
        <time>2020-02-08T16:25:53.603Z</time>
      </trkpt>
      <trkpt lat="45.33075" lon="6.17608">
        <ele>2102.2345870306</ele>
        <time>2020-02-08T16:25:54.618Z</time>
      </trkpt>
      <trkpt lat="45.33086" lon="6.17589">
        <ele>2097.9640064</ele>
        <time>2020-02-08T16:25:56.618Z</time>
      </trkpt>
      <trkpt lat="45.33093" lon="6.17582">
        <ele>2095.9820032</ele>
        <time>2020-02-08T16:25:57.618Z</time>
      </trkpt>
      <trkpt lat="45.33102" lon="6.17574">
        <ele>2094.9670016</ele>
        <time>2020-02-08T16:25:58.633Z</time>
      </trkpt>
      <trkpt lat="45.3311" lon="6.17567">
        <ele>2093.9729370777</ele>
        <time>2020-02-08T16:25:59.618Z</time>
      </trkpt>
      <trkpt lat="45.33118" lon="6.17561">
        <ele>2092.464650742</ele>
        <time>2020-02-08T16:26:00.621Z</time>
      </trkpt>
      <trkpt lat="45.33126" lon="6.17553">
        <ele>2089.9820032</ele>
        <time>2020-02-08T16:26:01.618Z</time>
      </trkpt>
      <trkpt lat="45.33133" lon="6.17544">
        <ele>2088.9820032</ele>
        <time>2020-02-08T16:26:02.618Z</time>
      </trkpt>
      <trkpt lat="45.3314" lon="6.17534">
        <ele>2087.936</ele>
        <time>2020-02-08T16:26:03.632Z</time>
      </trkpt>
      <trkpt lat="45.33146" lon="6.17523">
        <ele>2085.9864685389</ele>
        <time>2020-02-08T16:26:04.618Z</time>
      </trkpt>
      <trkpt lat="45.33152" lon="6.17513">
        <ele>2085.2345870306</ele>
        <time>2020-02-08T16:26:05.618Z</time>
      </trkpt>
      <trkpt lat="45.33158" lon="6.17502">
        <ele>2083.9460096</ele>
        <time>2020-02-08T16:26:06.618Z</time>
      </trkpt>
      <trkpt lat="45.33166" lon="6.17495">
        <ele>2080.9600128</ele>
        <time>2020-02-08T16:26:07.620Z</time>
      </trkpt>
      <trkpt lat="45.33177" lon="6.17494">
        <ele>2078.9099904</ele>
        <time>2020-02-08T16:26:08.630Z</time>
      </trkpt>
      <trkpt lat="45.33186" lon="6.17496">
        <ele>2075.9566343841</ele>
        <time>2020-02-08T16:26:09.618Z</time>
      </trkpt>
      <trkpt lat="45.33192" lon="6.17506">
        <ele>2073.54700512</ele>
        <time>2020-02-08T16:26:10.618Z</time>
      </trkpt>
      <trkpt lat="45.33203" lon="6.17522">
        <ele>2071.0090892635</ele>
        <time>2020-02-08T16:26:12.619Z</time>
      </trkpt>
      <trkpt lat="45.33194" lon="6.17522">
        <ele>2071</ele>
        <time>2020-02-08T16:26:34.618Z</time>
      </trkpt>
      <trkpt lat="45.33204" lon="6.17524">
        <ele>2071</ele>
        <time>2020-02-08T16:26:55.618Z</time>
      </trkpt>
      <trkpt lat="45.33213" lon="6.17533">
        <ele>2071</ele>
        <time>2020-02-08T16:27:55.620Z</time>
      </trkpt>
      <trkpt lat="45.33226" lon="6.17532">
        <ele>2070</ele>
        <time>2020-02-08T16:27:58.633Z</time>
      </trkpt>
      <trkpt lat="45.33237" lon="6.17527">
        <ele>2069.9559936</ele>
        <time>2020-02-08T16:28:00.622Z</time>
      </trkpt>
      <trkpt lat="45.33242" lon="6.17512">
        <ele>2067.9810048</ele>
        <time>2020-02-08T16:28:02.619Z</time>
      </trkpt>
      <trkpt lat="45.33247" lon="6.17494">
        <ele>2064.6841018182</ele>
        <time>2020-02-08T16:28:04.619Z</time>
      </trkpt>
      <trkpt lat="45.33256" lon="6.17478">
        <ele>2059.8920192</ele>
        <time>2020-02-08T16:28:06.618Z</time>
      </trkpt>
      <trkpt lat="45.33268" lon="6.17461">
        <ele>2050.9340032</ele>
        <time>2020-02-08T16:28:08.633Z</time>
      </trkpt>
      <trkpt lat="45.33269" lon="6.17445">
        <ele>2046.9744384347</ele>
        <time>2020-02-08T16:28:10.617Z</time>
      </trkpt>
      <trkpt lat="45.3326" lon="6.17435">
        <ele>2041.9670016</ele>
        <time>2020-02-08T16:28:13.633Z</time>
      </trkpt>
      <trkpt lat="45.33254" lon="6.17422">
        <ele>2039</ele>
        <time>2020-02-08T16:28:48.633Z</time>
      </trkpt>
      <trkpt lat="45.3325" lon="6.1741">
        <ele>2038.968</ele>
        <time>2020-02-08T16:28:53.632Z</time>
      </trkpt>
      <trkpt lat="45.3326" lon="6.17403">
        <ele>2036</ele>
        <time>2020-02-08T16:29:35.616Z</time>
      </trkpt>
      <trkpt lat="45.33268" lon="6.17395">
        <ele>2036</ele>
        <time>2020-02-08T16:29:37.618Z</time>
      </trkpt>
      <trkpt lat="45.33271" lon="6.17377">
        <ele>2033.8669952</ele>
        <time>2020-02-08T16:29:39.621Z</time>
      </trkpt>
      <trkpt lat="45.33279" lon="6.17364">
        <ele>2026.9640064</ele>
        <time>2020-02-08T16:29:41.618Z</time>
      </trkpt>
      <trkpt lat="45.33291" lon="6.17352">
        <ele>2023.9010048</ele>
        <time>2020-02-08T16:29:43.633Z</time>
      </trkpt>
      <trkpt lat="45.33308" lon="6.17348">
        <ele>2016.9462784655</ele>
        <time>2020-02-08T16:29:45.618Z</time>
      </trkpt>
      <trkpt lat="45.33325" lon="6.17336">
        <ele>2009.910016</ele>
        <time>2020-02-08T16:29:47.618Z</time>
      </trkpt>
      <trkpt lat="45.33335" lon="6.17327">
        <ele>2004.8680064</ele>
        <time>2020-02-08T16:29:48.633Z</time>
      </trkpt>
      <trkpt lat="45.33342" lon="6.17315">
        <ele>2000.9571535811</ele>
        <time>2020-02-08T16:29:49.619Z</time>
      </trkpt>
      <trkpt lat="45.33349" lon="6.17303">
        <ele>1998.7037610918</ele>
        <time>2020-02-08T16:29:50.618Z</time>
      </trkpt>
      <trkpt lat="45.33353" lon="6.17291">
        <ele>1994.8920192</ele>
        <time>2020-02-08T16:29:51.618Z</time>
      </trkpt>
      <trkpt lat="45.33356" lon="6.17277">
        <ele>1988.9240192</ele>
        <time>2020-02-08T16:29:52.619Z</time>
      </trkpt>
      <trkpt lat="45.33353" lon="6.17263">
        <ele>1984.8839808</ele>
        <time>2020-02-08T16:29:53.629Z</time>
      </trkpt>
      <trkpt lat="45.33356" lon="6.17249">
        <ele>1980.9594056166</ele>
        <time>2020-02-08T16:29:54.618Z</time>
      </trkpt>
      <trkpt lat="45.3336" lon="6.17237">
        <ele>1978.7060131272</ele>
        <time>2020-02-08T16:29:55.617Z</time>
      </trkpt>
      <trkpt lat="45.33366" lon="6.17218">
        <ele>1970.9862620183</ele>
        <time>2020-02-08T16:29:57.618Z</time>
      </trkpt>
      <trkpt lat="45.33367" lon="6.17201">
        <ele>1967.9821813297</ele>
        <time>2020-02-08T16:29:59.618Z</time>
      </trkpt>
      <trkpt lat="45.33362" lon="6.17184">
        <ele>1966.9864685389</ele>
        <time>2020-02-08T16:30:01.618Z</time>
      </trkpt>
      <trkpt lat="45.33361" lon="6.1716">
        <ele>1962.9159808</ele>
        <time>2020-02-08T16:30:03.628Z</time>
      </trkpt>
      <trkpt lat="45.33366" lon="6.17147">
        <ele>1959.9640064</ele>
        <time>2020-02-08T16:30:04.618Z</time>
      </trkpt>
      <trkpt lat="45.33372" lon="6.17136">
        <ele>1957.9460096</ele>
        <time>2020-02-08T16:30:05.618Z</time>
      </trkpt>
      <trkpt lat="45.33379" lon="6.17127">
        <ele>1954.9820032</ele>
        <time>2020-02-08T16:30:06.618Z</time>
      </trkpt>
      <trkpt lat="45.33394" lon="6.17124">
        <ele>1951.9518795835</ele>
        <time>2020-02-08T16:30:08.632Z</time>
      </trkpt>
      <trkpt lat="45.33407" lon="6.17119">
        <ele>1948.9820032</ele>
        <time>2020-02-08T16:30:10.618Z</time>
      </trkpt>
      <trkpt lat="45.33418" lon="6.17111">
        <ele>1945.9799936</ele>
        <time>2020-02-08T16:30:12.620Z</time>
      </trkpt>
      <trkpt lat="45.33424" lon="6.17094">
        <ele>1942.9849575578</ele>
        <time>2020-02-08T16:30:14.620Z</time>
      </trkpt>
      <trkpt lat="45.33424" lon="6.17071">
        <ele>1939.9587860549</ele>
        <time>2020-02-08T16:30:16.618Z</time>
      </trkpt>
      <trkpt lat="45.33426" lon="6.1705">
        <ele>1935</ele>
        <time>2020-02-08T16:30:18.633Z</time>
      </trkpt>
      <trkpt lat="45.33431" lon="6.17034">
        <ele>1934</ele>
        <time>2020-02-08T16:30:20.618Z</time>
      </trkpt>
      <trkpt lat="45.3344" lon="6.17028">
        <ele>1930.0009913663</ele>
        <time>2020-02-08T16:30:24.619Z</time>
      </trkpt>
      <trkpt lat="45.33446" lon="6.17018">
        <ele>1932</ele>
        <time>2020-02-08T16:31:03.618Z</time>
      </trkpt>
      <trkpt lat="45.33446" lon="6.17017">
        <ele>1934</ele>
        <time>2020-02-08T16:32:21.619Z</time>
      </trkpt>
    </trkseg>
  </trk>
</gpx>